<?xml version="1.0" encoding="UTF-8" standalone="no" ?>
<gpx xmlns="http://www.topografix.com/GPX/1/1" xmlns:xsi="http://www.w3.org/2001/XMLSchema-instance" xsi:schemaLocation="http://www.topografix.com/GPX/1/1 http://www.topografix.com/GPX/1/1/gpx.xsd" version="1.1" creator="VisuGPX - https://www.visugpx.com">
  <metadata>
    <name>Boucle_St Vincent la Commanderie</name>
  </metadata>
  <trk>
    <name><![CDATA[Boucle_St Vincent la Commanderie_1]]></name>
    <trkseg>
      <trkpt lat="44.93834" lon="5.1203">
        <ele>389</ele>
        <time>2022-02-18T09:52:14+01:00</time>
      </trkpt>
      <trkpt lat="44.93834" lon="5.1203">
        <ele>389</ele>
        <time>2022-02-18T09:52:15+01:00</time>
      </trkpt>
      <trkpt lat="44.93793" lon="5.1221">
        <ele>394</ele>
        <time>2022-02-18T10:02:08+01:00</time>
      </trkpt>
      <trkpt lat="44.93791" lon="5.12216">
        <ele>394</ele>
        <time>2022-02-18T10:02:38+01:00</time>
      </trkpt>
      <trkpt lat="44.93792" lon="5.12223">
        <ele>394</ele>
        <time>2022-02-18T10:02:43+01:00</time>
      </trkpt>
      <trkpt lat="44.93789" lon="5.12228">
        <ele>394</ele>
        <time>2022-02-18T10:02:48+01:00</time>
      </trkpt>
      <trkpt lat="44.93789" lon="5.12235">
        <ele>395</ele>
        <time>2022-02-18T10:02:53+01:00</time>
      </trkpt>
      <trkpt lat="44.93789" lon="5.12242">
        <ele>395</ele>
        <time>2022-02-18T10:02:58+01:00</time>
      </trkpt>
      <trkpt lat="44.93789" lon="5.12249">
        <ele>395</ele>
        <time>2022-02-18T10:03:03+01:00</time>
      </trkpt>
      <trkpt lat="44.93788" lon="5.12255">
        <ele>395</ele>
        <time>2022-02-18T10:03:08+01:00</time>
      </trkpt>
      <trkpt lat="44.93785" lon="5.12261">
        <ele>396</ele>
        <time>2022-02-18T10:03:13+01:00</time>
      </trkpt>
      <trkpt lat="44.93785" lon="5.12267">
        <ele>396</ele>
        <time>2022-02-18T10:03:17+01:00</time>
      </trkpt>
      <trkpt lat="44.93786" lon="5.12273">
        <ele>396</ele>
        <time>2022-02-18T10:03:21+01:00</time>
      </trkpt>
      <trkpt lat="44.93786" lon="5.1228">
        <ele>397</ele>
        <time>2022-02-18T10:03:25+01:00</time>
      </trkpt>
      <trkpt lat="44.93784" lon="5.12287">
        <ele>397</ele>
        <time>2022-02-18T10:03:30+01:00</time>
      </trkpt>
      <trkpt lat="44.93783" lon="5.12292">
        <ele>398</ele>
        <time>2022-02-18T10:03:33+01:00</time>
      </trkpt>
      <trkpt lat="44.93781" lon="5.12301">
        <ele>398</ele>
        <time>2022-02-18T10:03:39+01:00</time>
      </trkpt>
      <trkpt lat="44.93783" lon="5.12311">
        <ele>399</ele>
        <time>2022-02-18T10:03:45+01:00</time>
      </trkpt>
      <trkpt lat="44.93783" lon="5.12316">
        <ele>399</ele>
        <time>2022-02-18T10:03:49+01:00</time>
      </trkpt>
      <trkpt lat="44.93781" lon="5.12326">
        <ele>399</ele>
        <time>2022-02-18T10:03:56+01:00</time>
      </trkpt>
      <trkpt lat="44.9378" lon="5.12331">
        <ele>400</ele>
        <time>2022-02-18T10:04:00+01:00</time>
      </trkpt>
      <trkpt lat="44.93779" lon="5.12335">
        <ele>400</ele>
        <time>2022-02-18T10:04:06+01:00</time>
      </trkpt>
      <trkpt lat="44.93779" lon="5.12346">
        <ele>400</ele>
        <time>2022-02-18T10:04:15+01:00</time>
      </trkpt>
      <trkpt lat="44.9378" lon="5.1235">
        <ele>400</ele>
        <time>2022-02-18T10:04:18+01:00</time>
      </trkpt>
      <trkpt lat="44.9378" lon="5.12355">
        <ele>400</ele>
        <time>2022-02-18T10:04:21+01:00</time>
      </trkpt>
      <trkpt lat="44.93779" lon="5.1236">
        <ele>400</ele>
        <time>2022-02-18T10:04:24+01:00</time>
      </trkpt>
      <trkpt lat="44.9378" lon="5.12368">
        <ele>400</ele>
        <time>2022-02-18T10:04:30+01:00</time>
      </trkpt>
      <trkpt lat="44.93781" lon="5.12389">
        <ele>400</ele>
        <time>2022-02-18T10:04:42+01:00</time>
      </trkpt>
      <trkpt lat="44.93782" lon="5.12394">
        <ele>399</ele>
        <time>2022-02-18T10:04:45+01:00</time>
      </trkpt>
      <trkpt lat="44.93786" lon="5.1242">
        <ele>399</ele>
        <time>2022-02-18T10:05:02+01:00</time>
      </trkpt>
      <trkpt lat="44.93787" lon="5.12426">
        <ele>399</ele>
        <time>2022-02-18T10:05:05+01:00</time>
      </trkpt>
      <trkpt lat="44.93787" lon="5.1243">
        <ele>399</ele>
        <time>2022-02-18T10:05:08+01:00</time>
      </trkpt>
      <trkpt lat="44.9379" lon="5.12472">
        <ele>399</ele>
        <time>2022-02-18T10:05:35+01:00</time>
      </trkpt>
      <trkpt lat="44.93793" lon="5.12487">
        <ele>398</ele>
        <time>2022-02-18T10:05:44+01:00</time>
      </trkpt>
      <trkpt lat="44.93794" lon="5.12492">
        <ele>398</ele>
        <time>2022-02-18T10:05:47+01:00</time>
      </trkpt>
      <trkpt lat="44.93797" lon="5.12501">
        <ele>398</ele>
        <time>2022-02-18T10:05:54+01:00</time>
      </trkpt>
      <trkpt lat="44.93799" lon="5.12505">
        <ele>398</ele>
        <time>2022-02-18T10:05:59+01:00</time>
      </trkpt>
      <trkpt lat="44.93807" lon="5.12515">
        <ele>396</ele>
        <time>2022-02-18T10:06:10+01:00</time>
      </trkpt>
      <trkpt lat="44.9381" lon="5.12524">
        <ele>395</ele>
        <time>2022-02-18T10:06:16+01:00</time>
      </trkpt>
      <trkpt lat="44.93811" lon="5.12528">
        <ele>395</ele>
        <time>2022-02-18T10:06:19+01:00</time>
      </trkpt>
      <trkpt lat="44.93812" lon="5.12533">
        <ele>394</ele>
        <time>2022-02-18T10:06:22+01:00</time>
      </trkpt>
      <trkpt lat="44.93813" lon="5.12536">
        <ele>394</ele>
        <time>2022-02-18T10:06:24+01:00</time>
      </trkpt>
      <trkpt lat="44.93815" lon="5.1254">
        <ele>393</ele>
        <time>2022-02-18T10:06:27+01:00</time>
      </trkpt>
      <trkpt lat="44.93817" lon="5.12548">
        <ele>392</ele>
        <time>2022-02-18T10:06:33+01:00</time>
      </trkpt>
      <trkpt lat="44.93819" lon="5.12552">
        <ele>392</ele>
        <time>2022-02-18T10:06:36+01:00</time>
      </trkpt>
      <trkpt lat="44.93821" lon="5.12554">
        <ele>391</ele>
        <time>2022-02-18T10:06:39+01:00</time>
      </trkpt>
      <trkpt lat="44.93824" lon="5.12555">
        <ele>391</ele>
        <time>2022-02-18T10:06:44+01:00</time>
      </trkpt>
      <trkpt lat="44.93828" lon="5.12554">
        <ele>391</ele>
        <time>2022-02-18T10:06:48+01:00</time>
      </trkpt>
      <trkpt lat="44.93835" lon="5.12558">
        <ele>390</ele>
        <time>2022-02-18T10:06:57+01:00</time>
      </trkpt>
      <trkpt lat="44.93837" lon="5.1256">
        <ele>390</ele>
        <time>2022-02-18T10:07:00+01:00</time>
      </trkpt>
      <trkpt lat="44.93841" lon="5.12562">
        <ele>390</ele>
        <time>2022-02-18T10:07:04+01:00</time>
      </trkpt>
      <trkpt lat="44.93849" lon="5.12561">
        <ele>390</ele>
        <time>2022-02-18T10:07:12+01:00</time>
      </trkpt>
      <trkpt lat="44.93858" lon="5.12564">
        <ele>391</ele>
        <time>2022-02-18T10:07:19+01:00</time>
      </trkpt>
      <trkpt lat="44.93865" lon="5.12565">
        <ele>392</ele>
        <time>2022-02-18T10:07:25+01:00</time>
      </trkpt>
      <trkpt lat="44.93874" lon="5.12574">
        <ele>394</ele>
        <time>2022-02-18T10:07:36+01:00</time>
      </trkpt>
      <trkpt lat="44.93877" lon="5.12577">
        <ele>394</ele>
        <time>2022-02-18T10:07:41+01:00</time>
      </trkpt>
      <trkpt lat="44.9388" lon="5.12582">
        <ele>395</ele>
        <time>2022-02-18T10:07:45+01:00</time>
      </trkpt>
      <trkpt lat="44.93884" lon="5.12582">
        <ele>395</ele>
        <time>2022-02-18T10:07:48+01:00</time>
      </trkpt>
      <trkpt lat="44.93892" lon="5.12583">
        <ele>396</ele>
        <time>2022-02-18T10:07:54+01:00</time>
      </trkpt>
      <trkpt lat="44.93896" lon="5.12587">
        <ele>397</ele>
        <time>2022-02-18T10:07:58+01:00</time>
      </trkpt>
      <trkpt lat="44.93899" lon="5.12589">
        <ele>397</ele>
        <time>2022-02-18T10:08:01+01:00</time>
      </trkpt>
      <trkpt lat="44.93932" lon="5.12596">
        <ele>400</ele>
        <time>2022-02-18T10:08:32+01:00</time>
      </trkpt>
      <trkpt lat="44.93937" lon="5.12598">
        <ele>400</ele>
        <time>2022-02-18T10:08:38+01:00</time>
      </trkpt>
      <trkpt lat="44.93942" lon="5.12599">
        <ele>400</ele>
        <time>2022-02-18T10:08:51+01:00</time>
      </trkpt>
      <trkpt lat="44.93944" lon="5.12601">
        <ele>400</ele>
        <time>2022-02-18T10:09:04+01:00</time>
      </trkpt>
      <trkpt lat="44.93947" lon="5.12602">
        <ele>400</ele>
        <time>2022-02-18T10:09:34+01:00</time>
      </trkpt>
      <trkpt lat="44.93954" lon="5.12604">
        <ele>400</ele>
        <time>2022-02-18T10:09:41+01:00</time>
      </trkpt>
      <trkpt lat="44.93956" lon="5.12607">
        <ele>400</ele>
        <time>2022-02-18T10:09:44+01:00</time>
      </trkpt>
      <trkpt lat="44.93959" lon="5.12609">
        <ele>400</ele>
        <time>2022-02-18T10:09:48+01:00</time>
      </trkpt>
      <trkpt lat="44.93962" lon="5.12612">
        <ele>401</ele>
        <time>2022-02-18T10:09:53+01:00</time>
      </trkpt>
      <trkpt lat="44.93965" lon="5.12613">
        <ele>401</ele>
        <time>2022-02-18T10:10:04+01:00</time>
      </trkpt>
      <trkpt lat="44.93975" lon="5.12615">
        <ele>401</ele>
        <time>2022-02-18T10:10:34+01:00</time>
      </trkpt>
      <trkpt lat="44.93979" lon="5.12616">
        <ele>401</ele>
        <time>2022-02-18T10:10:38+01:00</time>
      </trkpt>
      <trkpt lat="44.93987" lon="5.12624">
        <ele>402</ele>
        <time>2022-02-18T10:10:50+01:00</time>
      </trkpt>
      <trkpt lat="44.9399" lon="5.12636">
        <ele>403</ele>
        <time>2022-02-18T10:11:03+01:00</time>
      </trkpt>
      <trkpt lat="44.93991" lon="5.1264">
        <ele>403</ele>
        <time>2022-02-18T10:11:06+01:00</time>
      </trkpt>
      <trkpt lat="44.9399" lon="5.12642">
        <ele>404</ele>
        <time>2022-02-18T10:11:09+01:00</time>
      </trkpt>
      <trkpt lat="44.93992" lon="5.12651">
        <ele>405</ele>
        <time>2022-02-18T10:11:15+01:00</time>
      </trkpt>
      <trkpt lat="44.93994" lon="5.12655">
        <ele>405</ele>
        <time>2022-02-18T10:11:17+01:00</time>
      </trkpt>
      <trkpt lat="44.94001" lon="5.12667">
        <ele>406</ele>
        <time>2022-02-18T10:11:30+01:00</time>
      </trkpt>
      <trkpt lat="44.9401" lon="5.12673">
        <ele>407</ele>
        <time>2022-02-18T10:11:42+01:00</time>
      </trkpt>
      <trkpt lat="44.94013" lon="5.12673">
        <ele>408</ele>
        <time>2022-02-18T10:11:47+01:00</time>
      </trkpt>
      <trkpt lat="44.94022" lon="5.12682">
        <ele>409</ele>
        <time>2022-02-18T10:11:59+01:00</time>
      </trkpt>
      <trkpt lat="44.94034" lon="5.12688">
        <ele>411</ele>
        <time>2022-02-18T10:12:15+01:00</time>
      </trkpt>
      <trkpt lat="44.94038" lon="5.12692">
        <ele>412</ele>
        <time>2022-02-18T10:12:24+01:00</time>
      </trkpt>
      <trkpt lat="44.94042" lon="5.12692">
        <ele>412</ele>
        <time>2022-02-18T10:12:29+01:00</time>
      </trkpt>
      <trkpt lat="44.94046" lon="5.12693">
        <ele>412</ele>
        <time>2022-02-18T10:12:36+01:00</time>
      </trkpt>
      <trkpt lat="44.94052" lon="5.12697">
        <ele>414</ele>
        <time>2022-02-18T10:12:46+01:00</time>
      </trkpt>
      <trkpt lat="44.94055" lon="5.12698">
        <ele>414</ele>
        <time>2022-02-18T10:12:49+01:00</time>
      </trkpt>
      <trkpt lat="44.94058" lon="5.12698">
        <ele>414</ele>
        <time>2022-02-18T10:12:55+01:00</time>
      </trkpt>
      <trkpt lat="44.94072" lon="5.1271">
        <ele>418</ele>
        <time>2022-02-18T10:13:16+01:00</time>
      </trkpt>
      <trkpt lat="44.94075" lon="5.12713">
        <ele>419</ele>
        <time>2022-02-18T10:13:20+01:00</time>
      </trkpt>
      <trkpt lat="44.9408" lon="5.1272">
        <ele>421</ele>
        <time>2022-02-18T10:13:30+01:00</time>
      </trkpt>
      <trkpt lat="44.94083" lon="5.1272">
        <ele>421</ele>
        <time>2022-02-18T10:13:34+01:00</time>
      </trkpt>
      <trkpt lat="44.94097" lon="5.12725">
        <ele>424</ele>
        <time>2022-02-18T10:13:58+01:00</time>
      </trkpt>
      <trkpt lat="44.941" lon="5.12726">
        <ele>424</ele>
        <time>2022-02-18T10:14:01+01:00</time>
      </trkpt>
      <trkpt lat="44.94103" lon="5.12727">
        <ele>425</ele>
        <time>2022-02-18T10:14:05+01:00</time>
      </trkpt>
      <trkpt lat="44.94106" lon="5.12728">
        <ele>425</ele>
        <time>2022-02-18T10:14:09+01:00</time>
      </trkpt>
      <trkpt lat="44.94108" lon="5.12728">
        <ele>425</ele>
        <time>2022-02-18T10:14:14+01:00</time>
      </trkpt>
      <trkpt lat="44.94111" lon="5.12729">
        <ele>426</ele>
        <time>2022-02-18T10:14:24+01:00</time>
      </trkpt>
      <trkpt lat="44.9412" lon="5.12734">
        <ele>428</ele>
        <time>2022-02-18T10:14:38+01:00</time>
      </trkpt>
      <trkpt lat="44.94122" lon="5.12736">
        <ele>429</ele>
        <time>2022-02-18T10:14:42+01:00</time>
      </trkpt>
      <trkpt lat="44.94128" lon="5.12736">
        <ele>429</ele>
        <time>2022-02-18T10:14:53+01:00</time>
      </trkpt>
      <trkpt lat="44.94132" lon="5.12738">
        <ele>430</ele>
        <time>2022-02-18T10:14:58+01:00</time>
      </trkpt>
      <trkpt lat="44.94135" lon="5.1274">
        <ele>431</ele>
        <time>2022-02-18T10:15:03+01:00</time>
      </trkpt>
      <trkpt lat="44.94138" lon="5.1274">
        <ele>431</ele>
        <time>2022-02-18T10:15:07+01:00</time>
      </trkpt>
      <trkpt lat="44.94148" lon="5.12743">
        <ele>432</ele>
        <time>2022-02-18T10:15:19+01:00</time>
      </trkpt>
      <trkpt lat="44.94154" lon="5.12748">
        <ele>433</ele>
        <time>2022-02-18T10:15:27+01:00</time>
      </trkpt>
      <trkpt lat="44.94164" lon="5.12751">
        <ele>433</ele>
        <time>2022-02-18T10:15:38+01:00</time>
      </trkpt>
      <trkpt lat="44.94168" lon="5.12758">
        <ele>434</ele>
        <time>2022-02-18T10:15:45+01:00</time>
      </trkpt>
      <trkpt lat="44.94171" lon="5.12762">
        <ele>435</ele>
        <time>2022-02-18T10:15:49+01:00</time>
      </trkpt>
      <trkpt lat="44.94174" lon="5.12766">
        <ele>435</ele>
        <time>2022-02-18T10:15:54+01:00</time>
      </trkpt>
      <trkpt lat="44.94179" lon="5.12772">
        <ele>436</ele>
        <time>2022-02-18T10:16:02+01:00</time>
      </trkpt>
      <trkpt lat="44.94184" lon="5.1278">
        <ele>436</ele>
        <time>2022-02-18T10:16:17+01:00</time>
      </trkpt>
      <trkpt lat="44.94195" lon="5.12794">
        <ele>437</ele>
        <time>2022-02-18T10:16:34+01:00</time>
      </trkpt>
      <trkpt lat="44.94196" lon="5.12799">
        <ele>438</ele>
        <time>2022-02-18T10:16:37+01:00</time>
      </trkpt>
      <trkpt lat="44.942" lon="5.12804">
        <ele>438</ele>
        <time>2022-02-18T10:16:43+01:00</time>
      </trkpt>
      <trkpt lat="44.94201" lon="5.12809">
        <ele>438</ele>
        <time>2022-02-18T10:16:47+01:00</time>
      </trkpt>
      <trkpt lat="44.94216" lon="5.12829">
        <ele>439</ele>
        <time>2022-02-18T10:17:12+01:00</time>
      </trkpt>
      <trkpt lat="44.9422" lon="5.12834">
        <ele>440</ele>
        <time>2022-02-18T10:17:20+01:00</time>
      </trkpt>
      <trkpt lat="44.9423" lon="5.12852">
        <ele>443</ele>
        <time>2022-02-18T10:17:38+01:00</time>
      </trkpt>
      <trkpt lat="44.94233" lon="5.12855">
        <ele>443</ele>
        <time>2022-02-18T10:17:42+01:00</time>
      </trkpt>
      <trkpt lat="44.94237" lon="5.12861">
        <ele>444</ele>
        <time>2022-02-18T10:17:49+01:00</time>
      </trkpt>
      <trkpt lat="44.94239" lon="5.12865">
        <ele>444</ele>
        <time>2022-02-18T10:17:52+01:00</time>
      </trkpt>
      <trkpt lat="44.94241" lon="5.12869">
        <ele>445</ele>
        <time>2022-02-18T10:17:56+01:00</time>
      </trkpt>
      <trkpt lat="44.94243" lon="5.12872">
        <ele>445</ele>
        <time>2022-02-18T10:18:00+01:00</time>
      </trkpt>
      <trkpt lat="44.94248" lon="5.12883">
        <ele>446</ele>
        <time>2022-02-18T10:18:15+01:00</time>
      </trkpt>
      <trkpt lat="44.9425" lon="5.12891">
        <ele>447</ele>
        <time>2022-02-18T10:18:26+01:00</time>
      </trkpt>
      <trkpt lat="44.94256" lon="5.12897">
        <ele>446</ele>
        <time>2022-02-18T10:18:41+01:00</time>
      </trkpt>
      <trkpt lat="44.94258" lon="5.12903">
        <ele>446</ele>
        <time>2022-02-18T10:18:55+01:00</time>
      </trkpt>
      <trkpt lat="44.94264" lon="5.12928">
        <ele>450</ele>
        <time>2022-02-18T10:19:23+01:00</time>
      </trkpt>
      <trkpt lat="44.94268" lon="5.12939">
        <ele>451</ele>
        <time>2022-02-18T10:19:34+01:00</time>
      </trkpt>
      <trkpt lat="44.9427" lon="5.12944">
        <ele>452</ele>
        <time>2022-02-18T10:19:39+01:00</time>
      </trkpt>
      <trkpt lat="44.94273" lon="5.12949">
        <ele>451</ele>
        <time>2022-02-18T10:19:46+01:00</time>
      </trkpt>
      <trkpt lat="44.94274" lon="5.12955">
        <ele>452</ele>
        <time>2022-02-18T10:19:55+01:00</time>
      </trkpt>
      <trkpt lat="44.94275" lon="5.12961">
        <ele>454</ele>
        <time>2022-02-18T10:19:59+01:00</time>
      </trkpt>
      <trkpt lat="44.94276" lon="5.12968">
        <ele>455</ele>
        <time>2022-02-18T10:20:06+01:00</time>
      </trkpt>
      <trkpt lat="44.94278" lon="5.12974">
        <ele>455</ele>
        <time>2022-02-18T10:20:15+01:00</time>
      </trkpt>
      <trkpt lat="44.94284" lon="5.12991">
        <ele>457</ele>
        <time>2022-02-18T10:20:43+01:00</time>
      </trkpt>
      <trkpt lat="44.94286" lon="5.12995">
        <ele>458</ele>
        <time>2022-02-18T10:21:10+01:00</time>
      </trkpt>
      <trkpt lat="44.94286" lon="5.13001">
        <ele>459</ele>
        <time>2022-02-18T10:21:19+01:00</time>
      </trkpt>
      <trkpt lat="44.94288" lon="5.13006">
        <ele>459</ele>
        <time>2022-02-18T10:21:25+01:00</time>
      </trkpt>
      <trkpt lat="44.94289" lon="5.13012">
        <ele>461</ele>
        <time>2022-02-18T10:21:33+01:00</time>
      </trkpt>
      <trkpt lat="44.9429" lon="5.13018">
        <ele>462</ele>
        <time>2022-02-18T10:21:39+01:00</time>
      </trkpt>
      <trkpt lat="44.94292" lon="5.13023">
        <ele>463</ele>
        <time>2022-02-18T10:21:45+01:00</time>
      </trkpt>
      <trkpt lat="44.94294" lon="5.13027">
        <ele>463</ele>
        <time>2022-02-18T10:21:50+01:00</time>
      </trkpt>
      <trkpt lat="44.94295" lon="5.13033">
        <ele>464</ele>
        <time>2022-02-18T10:21:54+01:00</time>
      </trkpt>
      <trkpt lat="44.94297" lon="5.13038">
        <ele>465</ele>
        <time>2022-02-18T10:21:59+01:00</time>
      </trkpt>
      <trkpt lat="44.94299" lon="5.13043">
        <ele>465</ele>
        <time>2022-02-18T10:22:07+01:00</time>
      </trkpt>
      <trkpt lat="44.94302" lon="5.13054">
        <ele>466</ele>
        <time>2022-02-18T10:22:17+01:00</time>
      </trkpt>
      <trkpt lat="44.94304" lon="5.13059">
        <ele>467</ele>
        <time>2022-02-18T10:22:22+01:00</time>
      </trkpt>
      <trkpt lat="44.94305" lon="5.13064">
        <ele>467</ele>
        <time>2022-02-18T10:22:28+01:00</time>
      </trkpt>
      <trkpt lat="44.94307" lon="5.13068">
        <ele>468</ele>
        <time>2022-02-18T10:22:35+01:00</time>
      </trkpt>
      <trkpt lat="44.9431" lon="5.13072">
        <ele>468</ele>
        <time>2022-02-18T10:22:40+01:00</time>
      </trkpt>
      <trkpt lat="44.9431" lon="5.13078">
        <ele>469</ele>
        <time>2022-02-18T10:22:45+01:00</time>
      </trkpt>
      <trkpt lat="44.94312" lon="5.13082">
        <ele>469</ele>
        <time>2022-02-18T10:22:50+01:00</time>
      </trkpt>
      <trkpt lat="44.94312" lon="5.13094">
        <ele>472</ele>
        <time>2022-02-18T10:23:04+01:00</time>
      </trkpt>
      <trkpt lat="44.94314" lon="5.13097">
        <ele>472</ele>
        <time>2022-02-18T10:23:12+01:00</time>
      </trkpt>
      <trkpt lat="44.94313" lon="5.13107">
        <ele>475</ele>
        <time>2022-02-18T10:23:21+01:00</time>
      </trkpt>
      <trkpt lat="44.94315" lon="5.13117">
        <ele>476</ele>
        <time>2022-02-18T10:23:31+01:00</time>
      </trkpt>
      <trkpt lat="44.94315" lon="5.13122">
        <ele>477</ele>
        <time>2022-02-18T10:23:40+01:00</time>
      </trkpt>
      <trkpt lat="44.94315" lon="5.13127">
        <ele>477</ele>
        <time>2022-02-18T10:23:45+01:00</time>
      </trkpt>
      <trkpt lat="44.94317" lon="5.13131">
        <ele>477</ele>
        <time>2022-02-18T10:23:51+01:00</time>
      </trkpt>
      <trkpt lat="44.94316" lon="5.13136">
        <ele>478</ele>
        <time>2022-02-18T10:24:07+01:00</time>
      </trkpt>
      <trkpt lat="44.94316" lon="5.1314">
        <ele>479</ele>
        <time>2022-02-18T10:24:12+01:00</time>
      </trkpt>
      <trkpt lat="44.94315" lon="5.13145">
        <ele>480</ele>
        <time>2022-02-18T10:25:15+01:00</time>
      </trkpt>
      <trkpt lat="44.94316" lon="5.13149">
        <ele>480</ele>
        <time>2022-02-18T10:25:19+01:00</time>
      </trkpt>
      <trkpt lat="44.9431" lon="5.13162">
        <ele>485</ele>
        <time>2022-02-18T10:25:31+01:00</time>
      </trkpt>
      <trkpt lat="44.94308" lon="5.13166">
        <ele>486</ele>
        <time>2022-02-18T10:25:36+01:00</time>
      </trkpt>
      <trkpt lat="44.94305" lon="5.13174">
        <ele>488</ele>
        <time>2022-02-18T10:25:44+01:00</time>
      </trkpt>
      <trkpt lat="44.94303" lon="5.13178">
        <ele>488</ele>
        <time>2022-02-18T10:25:49+01:00</time>
      </trkpt>
      <trkpt lat="44.94302" lon="5.13181">
        <ele>489</ele>
        <time>2022-02-18T10:25:55+01:00</time>
      </trkpt>
      <trkpt lat="44.943" lon="5.13186">
        <ele>489</ele>
        <time>2022-02-18T10:26:05+01:00</time>
      </trkpt>
      <trkpt lat="44.94299" lon="5.13192">
        <ele>489</ele>
        <time>2022-02-18T10:26:10+01:00</time>
      </trkpt>
      <trkpt lat="44.94298" lon="5.13198">
        <ele>490</ele>
        <time>2022-02-18T10:26:17+01:00</time>
      </trkpt>
      <trkpt lat="44.94297" lon="5.13204">
        <ele>490</ele>
        <time>2022-02-18T10:26:22+01:00</time>
      </trkpt>
      <trkpt lat="44.94295" lon="5.13217">
        <ele>489</ele>
        <time>2022-02-18T10:26:35+01:00</time>
      </trkpt>
      <trkpt lat="44.94296" lon="5.13222">
        <ele>489</ele>
        <time>2022-02-18T10:26:40+01:00</time>
      </trkpt>
      <trkpt lat="44.94295" lon="5.13228">
        <ele>489</ele>
        <time>2022-02-18T10:26:45+01:00</time>
      </trkpt>
      <trkpt lat="44.94296" lon="5.13234">
        <ele>489</ele>
        <time>2022-02-18T10:26:49+01:00</time>
      </trkpt>
      <trkpt lat="44.94294" lon="5.13239">
        <ele>490</ele>
        <time>2022-02-18T10:27:00+01:00</time>
      </trkpt>
      <trkpt lat="44.94292" lon="5.13244">
        <ele>491</ele>
        <time>2022-02-18T10:27:09+01:00</time>
      </trkpt>
      <trkpt lat="44.94289" lon="5.13248">
        <ele>492</ele>
        <time>2022-02-18T10:27:17+01:00</time>
      </trkpt>
      <trkpt lat="44.94287" lon="5.13252">
        <ele>493</ele>
        <time>2022-02-18T10:27:23+01:00</time>
      </trkpt>
      <trkpt lat="44.94284" lon="5.13255">
        <ele>494</ele>
        <time>2022-02-18T10:27:35+01:00</time>
      </trkpt>
      <trkpt lat="44.94281" lon="5.13254">
        <ele>494</ele>
        <time>2022-02-18T10:27:41+01:00</time>
      </trkpt>
      <trkpt lat="44.94271" lon="5.13261">
        <ele>498</ele>
        <time>2022-02-18T10:28:02+01:00</time>
      </trkpt>
      <trkpt lat="44.94266" lon="5.13263">
        <ele>500</ele>
        <time>2022-02-18T10:28:11+01:00</time>
      </trkpt>
      <trkpt lat="44.94262" lon="5.13261">
        <ele>501</ele>
        <time>2022-02-18T10:28:18+01:00</time>
      </trkpt>
      <trkpt lat="44.94258" lon="5.13264">
        <ele>502</ele>
        <time>2022-02-18T10:28:27+01:00</time>
      </trkpt>
      <trkpt lat="44.94252" lon="5.13263">
        <ele>503</ele>
        <time>2022-02-18T10:28:36+01:00</time>
      </trkpt>
      <trkpt lat="44.94248" lon="5.13262">
        <ele>505</ele>
        <time>2022-02-18T10:28:42+01:00</time>
      </trkpt>
      <trkpt lat="44.94244" lon="5.13263">
        <ele>506</ele>
        <time>2022-02-18T10:28:52+01:00</time>
      </trkpt>
      <trkpt lat="44.9424" lon="5.13266">
        <ele>507</ele>
        <time>2022-02-18T10:28:57+01:00</time>
      </trkpt>
      <trkpt lat="44.94236" lon="5.13267">
        <ele>508</ele>
        <time>2022-02-18T10:29:04+01:00</time>
      </trkpt>
      <trkpt lat="44.94234" lon="5.13271">
        <ele>508</ele>
        <time>2022-02-18T10:29:13+01:00</time>
      </trkpt>
      <trkpt lat="44.9423" lon="5.13275">
        <ele>508</ele>
        <time>2022-02-18T10:29:22+01:00</time>
      </trkpt>
      <trkpt lat="44.94227" lon="5.13276">
        <ele>509</ele>
        <time>2022-02-18T10:29:32+01:00</time>
      </trkpt>
      <trkpt lat="44.94216" lon="5.13285">
        <ele>513</ele>
        <time>2022-02-18T10:30:03+01:00</time>
      </trkpt>
      <trkpt lat="44.94212" lon="5.13287">
        <ele>515</ele>
        <time>2022-02-18T10:30:09+01:00</time>
      </trkpt>
      <trkpt lat="44.94209" lon="5.13288">
        <ele>516</ele>
        <time>2022-02-18T10:30:17+01:00</time>
      </trkpt>
      <trkpt lat="44.94195" lon="5.13287">
        <ele>519</ele>
        <time>2022-02-18T10:30:51+01:00</time>
      </trkpt>
      <trkpt lat="44.94191" lon="5.13287">
        <ele>520</ele>
        <time>2022-02-18T10:31:00+01:00</time>
      </trkpt>
      <trkpt lat="44.94184" lon="5.13285">
        <ele>522</ele>
        <time>2022-02-18T10:31:16+01:00</time>
      </trkpt>
      <trkpt lat="44.94118" lon="5.13301">
        <ele>538</ele>
        <time>2022-02-18T10:35:17+01:00</time>
      </trkpt>
      <trkpt lat="44.94007" lon="5.13261">
        <ele>552</ele>
        <time>2022-02-18T10:37:32+01:00</time>
      </trkpt>
      <trkpt lat="44.93995" lon="5.13259">
        <ele>552</ele>
        <time>2022-02-18T10:37:39+01:00</time>
      </trkpt>
      <trkpt lat="44.93996" lon="5.13267">
        <ele>554</ele>
        <time>2022-02-18T10:37:52+01:00</time>
      </trkpt>
      <trkpt lat="44.93992" lon="5.13264">
        <ele>553</ele>
        <time>2022-02-18T10:37:59+01:00</time>
      </trkpt>
      <trkpt lat="44.93989" lon="5.13268">
        <ele>554</ele>
        <time>2022-02-18T10:38:10+01:00</time>
      </trkpt>
      <trkpt lat="44.93986" lon="5.1327">
        <ele>554</ele>
        <time>2022-02-18T10:38:17+01:00</time>
      </trkpt>
      <trkpt lat="44.9398" lon="5.13276">
        <ele>555</ele>
        <time>2022-02-18T10:38:31+01:00</time>
      </trkpt>
      <trkpt lat="44.93978" lon="5.13279">
        <ele>555</ele>
        <time>2022-02-18T10:38:37+01:00</time>
      </trkpt>
      <trkpt lat="44.93975" lon="5.13282">
        <ele>556</ele>
        <time>2022-02-18T10:38:45+01:00</time>
      </trkpt>
      <trkpt lat="44.93973" lon="5.13287">
        <ele>557</ele>
        <time>2022-02-18T10:38:53+01:00</time>
      </trkpt>
      <trkpt lat="44.93973" lon="5.13291">
        <ele>558</ele>
        <time>2022-02-18T10:38:57+01:00</time>
      </trkpt>
      <trkpt lat="44.9397" lon="5.13293">
        <ele>558</ele>
        <time>2022-02-18T10:39:03+01:00</time>
      </trkpt>
      <trkpt lat="44.93968" lon="5.13302">
        <ele>560</ele>
        <time>2022-02-18T10:39:13+01:00</time>
      </trkpt>
      <trkpt lat="44.93964" lon="5.13309">
        <ele>561</ele>
        <time>2022-02-18T10:39:24+01:00</time>
      </trkpt>
      <trkpt lat="44.93962" lon="5.13313">
        <ele>562</ele>
        <time>2022-02-18T10:39:33+01:00</time>
      </trkpt>
      <trkpt lat="44.93959" lon="5.13314">
        <ele>562</ele>
        <time>2022-02-18T10:39:40+01:00</time>
      </trkpt>
      <trkpt lat="44.9395" lon="5.13322">
        <ele>563</ele>
        <time>2022-02-18T10:39:59+01:00</time>
      </trkpt>
      <trkpt lat="44.93946" lon="5.13324">
        <ele>563</ele>
        <time>2022-02-18T10:40:07+01:00</time>
      </trkpt>
      <trkpt lat="44.93945" lon="5.13327">
        <ele>564</ele>
        <time>2022-02-18T10:40:26+01:00</time>
      </trkpt>
      <trkpt lat="44.93942" lon="5.13335">
        <ele>565</ele>
        <time>2022-02-18T10:40:34+01:00</time>
      </trkpt>
      <trkpt lat="44.93939" lon="5.13341">
        <ele>567</ele>
        <time>2022-02-18T10:40:43+01:00</time>
      </trkpt>
      <trkpt lat="44.93938" lon="5.13345">
        <ele>568</ele>
        <time>2022-02-18T10:40:47+01:00</time>
      </trkpt>
      <trkpt lat="44.93935" lon="5.13347">
        <ele>569</ele>
        <time>2022-02-18T10:41:04+01:00</time>
      </trkpt>
      <trkpt lat="44.93933" lon="5.13348">
        <ele>569</ele>
        <time>2022-02-18T10:41:09+01:00</time>
      </trkpt>
      <trkpt lat="44.93929" lon="5.13347">
        <ele>569</ele>
        <time>2022-02-18T10:41:15+01:00</time>
      </trkpt>
      <trkpt lat="44.93926" lon="5.1335">
        <ele>569</ele>
        <time>2022-02-18T10:41:19+01:00</time>
      </trkpt>
      <trkpt lat="44.93911" lon="5.13356">
        <ele>570</ele>
        <time>2022-02-18T10:41:40+01:00</time>
      </trkpt>
      <trkpt lat="44.93907" lon="5.13357">
        <ele>569</ele>
        <time>2022-02-18T10:41:45+01:00</time>
      </trkpt>
      <trkpt lat="44.93904" lon="5.13358">
        <ele>570</ele>
        <time>2022-02-18T10:41:51+01:00</time>
      </trkpt>
      <trkpt lat="44.939" lon="5.1336">
        <ele>570</ele>
        <time>2022-02-18T10:41:55+01:00</time>
      </trkpt>
      <trkpt lat="44.93897" lon="5.13363">
        <ele>570</ele>
        <time>2022-02-18T10:42:00+01:00</time>
      </trkpt>
      <trkpt lat="44.93892" lon="5.13371">
        <ele>571</ele>
        <time>2022-02-18T10:42:12+01:00</time>
      </trkpt>
      <trkpt lat="44.93889" lon="5.13373">
        <ele>571</ele>
        <time>2022-02-18T10:42:16+01:00</time>
      </trkpt>
      <trkpt lat="44.93883" lon="5.13379">
        <ele>571</ele>
        <time>2022-02-18T10:42:24+01:00</time>
      </trkpt>
      <trkpt lat="44.9388" lon="5.13382">
        <ele>572</ele>
        <time>2022-02-18T10:42:29+01:00</time>
      </trkpt>
      <trkpt lat="44.93877" lon="5.13384">
        <ele>571</ele>
        <time>2022-02-18T10:42:33+01:00</time>
      </trkpt>
      <trkpt lat="44.93875" lon="5.13387">
        <ele>572</ele>
        <time>2022-02-18T10:42:54+01:00</time>
      </trkpt>
      <trkpt lat="44.93877" lon="5.1339">
        <ele>573</ele>
        <time>2022-02-18T10:43:27+01:00</time>
      </trkpt>
      <trkpt lat="44.93874" lon="5.13392">
        <ele>572</ele>
        <time>2022-02-18T10:43:45+01:00</time>
      </trkpt>
      <trkpt lat="44.9387" lon="5.13395">
        <ele>573</ele>
        <time>2022-02-18T10:43:51+01:00</time>
      </trkpt>
      <trkpt lat="44.93867" lon="5.13396">
        <ele>572</ele>
        <time>2022-02-18T10:43:55+01:00</time>
      </trkpt>
      <trkpt lat="44.93859" lon="5.13403">
        <ele>572</ele>
        <time>2022-02-18T10:44:08+01:00</time>
      </trkpt>
      <trkpt lat="44.93852" lon="5.13407">
        <ele>571</ele>
        <time>2022-02-18T10:44:15+01:00</time>
      </trkpt>
      <trkpt lat="44.93848" lon="5.1341">
        <ele>571</ele>
        <time>2022-02-18T10:44:20+01:00</time>
      </trkpt>
      <trkpt lat="44.93842" lon="5.13422">
        <ele>572</ele>
        <time>2022-02-18T10:44:33+01:00</time>
      </trkpt>
      <trkpt lat="44.93844" lon="5.13426">
        <ele>573</ele>
        <time>2022-02-18T10:44:48+01:00</time>
      </trkpt>
      <trkpt lat="44.93841" lon="5.13427">
        <ele>572</ele>
        <time>2022-02-18T10:45:30+01:00</time>
      </trkpt>
      <trkpt lat="44.93839" lon="5.1343">
        <ele>572</ele>
        <time>2022-02-18T10:45:35+01:00</time>
      </trkpt>
      <trkpt lat="44.93838" lon="5.13435">
        <ele>573</ele>
        <time>2022-02-18T10:45:40+01:00</time>
      </trkpt>
      <trkpt lat="44.93837" lon="5.13439">
        <ele>573</ele>
        <time>2022-02-18T10:45:45+01:00</time>
      </trkpt>
      <trkpt lat="44.93836" lon="5.13443">
        <ele>574</ele>
        <time>2022-02-18T10:45:49+01:00</time>
      </trkpt>
      <trkpt lat="44.93837" lon="5.13457">
        <ele>576</ele>
        <time>2022-02-18T10:46:01+01:00</time>
      </trkpt>
      <trkpt lat="44.93836" lon="5.13462">
        <ele>577</ele>
        <time>2022-02-18T10:46:08+01:00</time>
      </trkpt>
      <trkpt lat="44.93836" lon="5.13466">
        <ele>577</ele>
        <time>2022-02-18T10:46:12+01:00</time>
      </trkpt>
      <trkpt lat="44.93836" lon="5.13472">
        <ele>578</ele>
        <time>2022-02-18T10:46:17+01:00</time>
      </trkpt>
      <trkpt lat="44.93836" lon="5.13483">
        <ele>580</ele>
        <time>2022-02-18T10:46:26+01:00</time>
      </trkpt>
      <trkpt lat="44.93837" lon="5.13488">
        <ele>580</ele>
        <time>2022-02-18T10:46:29+01:00</time>
      </trkpt>
      <trkpt lat="44.93838" lon="5.13492">
        <ele>581</ele>
        <time>2022-02-18T10:46:32+01:00</time>
      </trkpt>
      <trkpt lat="44.93838" lon="5.13496">
        <ele>582</ele>
        <time>2022-02-18T10:46:36+01:00</time>
      </trkpt>
      <trkpt lat="44.93839" lon="5.13509">
        <ele>584</ele>
        <time>2022-02-18T10:46:48+01:00</time>
      </trkpt>
      <trkpt lat="44.9384" lon="5.13513">
        <ele>584</ele>
        <time>2022-02-18T10:46:52+01:00</time>
      </trkpt>
      <trkpt lat="44.93841" lon="5.13518">
        <ele>585</ele>
        <time>2022-02-18T10:46:56+01:00</time>
      </trkpt>
      <trkpt lat="44.93842" lon="5.13522">
        <ele>586</ele>
        <time>2022-02-18T10:46:59+01:00</time>
      </trkpt>
      <trkpt lat="44.93842" lon="5.13525">
        <ele>587</ele>
        <time>2022-02-18T10:47:02+01:00</time>
      </trkpt>
      <trkpt lat="44.93843" lon="5.13529">
        <ele>587</ele>
        <time>2022-02-18T10:47:06+01:00</time>
      </trkpt>
      <trkpt lat="44.93844" lon="5.13533">
        <ele>588</ele>
        <time>2022-02-18T10:47:10+01:00</time>
      </trkpt>
      <trkpt lat="44.93844" lon="5.13538">
        <ele>588</ele>
        <time>2022-02-18T10:47:15+01:00</time>
      </trkpt>
      <trkpt lat="44.93846" lon="5.1355">
        <ele>589</ele>
        <time>2022-02-18T10:47:26+01:00</time>
      </trkpt>
      <trkpt lat="44.93852" lon="5.13575">
        <ele>591</ele>
        <time>2022-02-18T10:47:53+01:00</time>
      </trkpt>
      <trkpt lat="44.93853" lon="5.13578">
        <ele>591</ele>
        <time>2022-02-18T10:47:56+01:00</time>
      </trkpt>
      <trkpt lat="44.93854" lon="5.13583">
        <ele>591</ele>
        <time>2022-02-18T10:48:00+01:00</time>
      </trkpt>
      <trkpt lat="44.9386" lon="5.13601">
        <ele>592</ele>
        <time>2022-02-18T10:48:23+01:00</time>
      </trkpt>
      <trkpt lat="44.93862" lon="5.13608">
        <ele>593</ele>
        <time>2022-02-18T10:48:28+01:00</time>
      </trkpt>
      <trkpt lat="44.93866" lon="5.13621">
        <ele>594</ele>
        <time>2022-02-18T10:48:39+01:00</time>
      </trkpt>
      <trkpt lat="44.93867" lon="5.13626">
        <ele>593</ele>
        <time>2022-02-18T10:48:43+01:00</time>
      </trkpt>
      <trkpt lat="44.93866" lon="5.1363">
        <ele>593</ele>
        <time>2022-02-18T10:48:49+01:00</time>
      </trkpt>
      <trkpt lat="44.9387" lon="5.13662">
        <ele>594</ele>
        <time>2022-02-18T10:49:19+01:00</time>
      </trkpt>
      <trkpt lat="44.9387" lon="5.13676">
        <ele>593</ele>
        <time>2022-02-18T10:49:30+01:00</time>
      </trkpt>
      <trkpt lat="44.93871" lon="5.13679">
        <ele>594</ele>
        <time>2022-02-18T10:49:32+01:00</time>
      </trkpt>
      <trkpt lat="44.93871" lon="5.13688">
        <ele>594</ele>
        <time>2022-02-18T10:49:39+01:00</time>
      </trkpt>
      <trkpt lat="44.93874" lon="5.13695">
        <ele>594</ele>
        <time>2022-02-18T10:49:45+01:00</time>
      </trkpt>
      <trkpt lat="44.93874" lon="5.13698">
        <ele>595</ele>
        <time>2022-02-18T10:49:48+01:00</time>
      </trkpt>
      <trkpt lat="44.93873" lon="5.13702">
        <ele>594</ele>
        <time>2022-02-18T10:49:52+01:00</time>
      </trkpt>
      <trkpt lat="44.93874" lon="5.13706">
        <ele>594</ele>
        <time>2022-02-18T10:49:56+01:00</time>
      </trkpt>
      <trkpt lat="44.93875" lon="5.13711">
        <ele>595</ele>
        <time>2022-02-18T10:50:01+01:00</time>
      </trkpt>
      <trkpt lat="44.93877" lon="5.13714">
        <ele>595</ele>
        <time>2022-02-18T10:50:04+01:00</time>
      </trkpt>
      <trkpt lat="44.93878" lon="5.13717">
        <ele>596</ele>
        <time>2022-02-18T10:50:08+01:00</time>
      </trkpt>
      <trkpt lat="44.93879" lon="5.13721">
        <ele>596</ele>
        <time>2022-02-18T10:50:11+01:00</time>
      </trkpt>
      <trkpt lat="44.9388" lon="5.13725">
        <ele>597</ele>
        <time>2022-02-18T10:50:15+01:00</time>
      </trkpt>
      <trkpt lat="44.93881" lon="5.13728">
        <ele>597</ele>
        <time>2022-02-18T10:50:19+01:00</time>
      </trkpt>
      <trkpt lat="44.93883" lon="5.13733">
        <ele>597</ele>
        <time>2022-02-18T10:50:23+01:00</time>
      </trkpt>
      <trkpt lat="44.93885" lon="5.13735">
        <ele>598</ele>
        <time>2022-02-18T10:50:27+01:00</time>
      </trkpt>
      <trkpt lat="44.93886" lon="5.13739">
        <ele>599</ele>
        <time>2022-02-18T10:50:32+01:00</time>
      </trkpt>
      <trkpt lat="44.93887" lon="5.13741">
        <ele>599</ele>
        <time>2022-02-18T10:50:35+01:00</time>
      </trkpt>
      <trkpt lat="44.93887" lon="5.13744">
        <ele>598</ele>
        <time>2022-02-18T10:50:38+01:00</time>
      </trkpt>
      <trkpt lat="44.93888" lon="5.13748">
        <ele>599</ele>
        <time>2022-02-18T10:50:41+01:00</time>
      </trkpt>
      <trkpt lat="44.93891" lon="5.13754">
        <ele>600</ele>
        <time>2022-02-18T10:50:56+01:00</time>
      </trkpt>
      <trkpt lat="44.93893" lon="5.13757">
        <ele>600</ele>
        <time>2022-02-18T10:50:59+01:00</time>
      </trkpt>
      <trkpt lat="44.93894" lon="5.13762">
        <ele>600</ele>
        <time>2022-02-18T10:51:05+01:00</time>
      </trkpt>
      <trkpt lat="44.93897" lon="5.1377">
        <ele>601</ele>
        <time>2022-02-18T10:51:14+01:00</time>
      </trkpt>
      <trkpt lat="44.93898" lon="5.13774">
        <ele>602</ele>
        <time>2022-02-18T10:51:18+01:00</time>
      </trkpt>
      <trkpt lat="44.939" lon="5.13777">
        <ele>603</ele>
        <time>2022-02-18T10:51:21+01:00</time>
      </trkpt>
      <trkpt lat="44.93904" lon="5.13796">
        <ele>606</ele>
        <time>2022-02-18T10:51:39+01:00</time>
      </trkpt>
      <trkpt lat="44.93904" lon="5.138">
        <ele>606</ele>
        <time>2022-02-18T10:51:42+01:00</time>
      </trkpt>
      <trkpt lat="44.93905" lon="5.13807">
        <ele>607</ele>
        <time>2022-02-18T10:51:50+01:00</time>
      </trkpt>
      <trkpt lat="44.93905" lon="5.1381">
        <ele>607</ele>
        <time>2022-02-18T10:51:54+01:00</time>
      </trkpt>
      <trkpt lat="44.93906" lon="5.13814">
        <ele>608</ele>
        <time>2022-02-18T10:51:58+01:00</time>
      </trkpt>
      <trkpt lat="44.93906" lon="5.13817">
        <ele>608</ele>
        <time>2022-02-18T10:52:01+01:00</time>
      </trkpt>
      <trkpt lat="44.93905" lon="5.13823">
        <ele>608</ele>
        <time>2022-02-18T10:52:09+01:00</time>
      </trkpt>
      <trkpt lat="44.93904" lon="5.1383">
        <ele>608</ele>
        <time>2022-02-18T10:52:19+01:00</time>
      </trkpt>
      <trkpt lat="44.93904" lon="5.13839">
        <ele>609</ele>
        <time>2022-02-18T10:53:23+01:00</time>
      </trkpt>
      <trkpt lat="44.93903" lon="5.13844">
        <ele>609</ele>
        <time>2022-02-18T10:53:29+01:00</time>
      </trkpt>
      <trkpt lat="44.93902" lon="5.13848">
        <ele>609</ele>
        <time>2022-02-18T10:53:34+01:00</time>
      </trkpt>
      <trkpt lat="44.93901" lon="5.13854">
        <ele>609</ele>
        <time>2022-02-18T10:53:41+01:00</time>
      </trkpt>
      <trkpt lat="44.939" lon="5.13858">
        <ele>609</ele>
        <time>2022-02-18T10:53:47+01:00</time>
      </trkpt>
      <trkpt lat="44.93898" lon="5.13863">
        <ele>610</ele>
        <time>2022-02-18T10:53:52+01:00</time>
      </trkpt>
      <trkpt lat="44.93897" lon="5.13867">
        <ele>610</ele>
        <time>2022-02-18T10:53:56+01:00</time>
      </trkpt>
      <trkpt lat="44.93896" lon="5.13871">
        <ele>611</ele>
        <time>2022-02-18T10:54:00+01:00</time>
      </trkpt>
      <trkpt lat="44.93894" lon="5.13875">
        <ele>611</ele>
        <time>2022-02-18T10:54:05+01:00</time>
      </trkpt>
      <trkpt lat="44.93894" lon="5.1388">
        <ele>612</ele>
        <time>2022-02-18T10:54:09+01:00</time>
      </trkpt>
      <trkpt lat="44.93883" lon="5.13906">
        <ele>616</ele>
        <time>2022-02-18T10:54:42+01:00</time>
      </trkpt>
      <trkpt lat="44.93882" lon="5.1391">
        <ele>617</ele>
        <time>2022-02-18T10:54:48+01:00</time>
      </trkpt>
      <trkpt lat="44.9388" lon="5.13914">
        <ele>617</ele>
        <time>2022-02-18T10:54:53+01:00</time>
      </trkpt>
      <trkpt lat="44.93874" lon="5.13919">
        <ele>618</ele>
        <time>2022-02-18T10:55:09+01:00</time>
      </trkpt>
      <trkpt lat="44.93873" lon="5.13923">
        <ele>618</ele>
        <time>2022-02-18T10:55:14+01:00</time>
      </trkpt>
      <trkpt lat="44.93869" lon="5.1393">
        <ele>620</ele>
        <time>2022-02-18T10:55:26+01:00</time>
      </trkpt>
      <trkpt lat="44.93857" lon="5.13938">
        <ele>619</ele>
        <time>2022-02-18T10:55:52+01:00</time>
      </trkpt>
      <trkpt lat="44.93855" lon="5.13941">
        <ele>620</ele>
        <time>2022-02-18T10:55:58+01:00</time>
      </trkpt>
      <trkpt lat="44.93852" lon="5.13943">
        <ele>620</ele>
        <time>2022-02-18T10:56:03+01:00</time>
      </trkpt>
      <trkpt lat="44.93849" lon="5.13946">
        <ele>620</ele>
        <time>2022-02-18T10:56:09+01:00</time>
      </trkpt>
      <trkpt lat="44.93846" lon="5.13947">
        <ele>620</ele>
        <time>2022-02-18T10:56:14+01:00</time>
      </trkpt>
      <trkpt lat="44.93844" lon="5.13949">
        <ele>620</ele>
        <time>2022-02-18T10:56:19+01:00</time>
      </trkpt>
      <trkpt lat="44.93838" lon="5.13956">
        <ele>620</ele>
        <time>2022-02-18T10:56:32+01:00</time>
      </trkpt>
      <trkpt lat="44.93836" lon="5.13959">
        <ele>620</ele>
        <time>2022-02-18T10:56:37+01:00</time>
      </trkpt>
      <trkpt lat="44.93834" lon="5.13961">
        <ele>621</ele>
        <time>2022-02-18T10:56:41+01:00</time>
      </trkpt>
      <trkpt lat="44.93832" lon="5.13965">
        <ele>621</ele>
        <time>2022-02-18T10:56:48+01:00</time>
      </trkpt>
      <trkpt lat="44.9383" lon="5.13971">
        <ele>622</ele>
        <time>2022-02-18T10:56:56+01:00</time>
      </trkpt>
      <trkpt lat="44.93828" lon="5.13974">
        <ele>622</ele>
        <time>2022-02-18T10:57:01+01:00</time>
      </trkpt>
      <trkpt lat="44.93828" lon="5.13987">
        <ele>625</ele>
        <time>2022-02-18T10:57:17+01:00</time>
      </trkpt>
      <trkpt lat="44.93828" lon="5.13995">
        <ele>627</ele>
        <time>2022-02-18T10:57:28+01:00</time>
      </trkpt>
      <trkpt lat="44.93827" lon="5.13999">
        <ele>628</ele>
        <time>2022-02-18T10:57:32+01:00</time>
      </trkpt>
      <trkpt lat="44.93828" lon="5.14003">
        <ele>629</ele>
        <time>2022-02-18T10:57:36+01:00</time>
      </trkpt>
      <trkpt lat="44.93829" lon="5.14006">
        <ele>631</ele>
        <time>2022-02-18T10:57:40+01:00</time>
      </trkpt>
      <trkpt lat="44.9383" lon="5.14018">
        <ele>634</ele>
        <time>2022-02-18T10:58:00+01:00</time>
      </trkpt>
      <trkpt lat="44.9383" lon="5.14023">
        <ele>636</ele>
        <time>2022-02-18T10:58:05+01:00</time>
      </trkpt>
      <trkpt lat="44.93829" lon="5.14031">
        <ele>637</ele>
        <time>2022-02-18T10:58:16+01:00</time>
      </trkpt>
      <trkpt lat="44.93828" lon="5.14034">
        <ele>636</ele>
        <time>2022-02-18T10:58:21+01:00</time>
      </trkpt>
      <trkpt lat="44.93825" lon="5.1404">
        <ele>636</ele>
        <time>2022-02-18T10:58:30+01:00</time>
      </trkpt>
      <trkpt lat="44.93823" lon="5.14049">
        <ele>636</ele>
        <time>2022-02-18T10:58:40+01:00</time>
      </trkpt>
      <trkpt lat="44.93821" lon="5.14053">
        <ele>636</ele>
        <time>2022-02-18T10:58:45+01:00</time>
      </trkpt>
      <trkpt lat="44.93819" lon="5.14055">
        <ele>635</ele>
        <time>2022-02-18T10:58:50+01:00</time>
      </trkpt>
      <trkpt lat="44.93818" lon="5.1406">
        <ele>635</ele>
        <time>2022-02-18T10:58:55+01:00</time>
      </trkpt>
      <trkpt lat="44.93818" lon="5.14064">
        <ele>635</ele>
        <time>2022-02-18T10:59:00+01:00</time>
      </trkpt>
      <trkpt lat="44.93815" lon="5.14087">
        <ele>637</ele>
        <time>2022-02-18T10:59:30+01:00</time>
      </trkpt>
      <trkpt lat="44.93814" lon="5.14101">
        <ele>638</ele>
        <time>2022-02-18T10:59:57+01:00</time>
      </trkpt>
      <trkpt lat="44.93814" lon="5.14106">
        <ele>639</ele>
        <time>2022-02-18T11:00:02+01:00</time>
      </trkpt>
      <trkpt lat="44.93814" lon="5.1411">
        <ele>640</ele>
        <time>2022-02-18T11:00:08+01:00</time>
      </trkpt>
      <trkpt lat="44.93815" lon="5.14113">
        <ele>641</ele>
        <time>2022-02-18T11:00:17+01:00</time>
      </trkpt>
      <trkpt lat="44.93815" lon="5.14112">
        <ele>640</ele>
        <time>2022-02-18T11:02:33+01:00</time>
      </trkpt>
      <trkpt lat="44.93817" lon="5.14107">
        <ele>641</ele>
        <time>2022-02-18T11:02:47+01:00</time>
      </trkpt>
      <trkpt lat="44.93814" lon="5.14105">
        <ele>639</ele>
        <time>2022-02-18T11:03:30+01:00</time>
      </trkpt>
      <trkpt lat="44.93822" lon="5.14257">
        <ele>655</ele>
        <time>2022-02-18T11:08:18+01:00</time>
      </trkpt>
      <trkpt lat="44.93764" lon="5.1433">
        <ele>651</ele>
        <time>2022-02-18T11:09:47+01:00</time>
      </trkpt>
      <trkpt lat="44.93747" lon="5.14409">
        <ele>660</ele>
        <time>2022-02-18T11:12:27+01:00</time>
      </trkpt>
      <trkpt lat="44.93683" lon="5.14476">
        <ele>665</ele>
        <time>2022-02-18T11:14:50+01:00</time>
      </trkpt>
      <trkpt lat="44.93639" lon="5.14563">
        <ele>678</ele>
        <time>2022-02-18T11:13:24+01:00</time>
      </trkpt>
      <trkpt lat="44.93636" lon="5.14565">
        <ele>680</ele>
        <time>2022-02-18T11:14:00+01:00</time>
      </trkpt>
      <trkpt lat="44.93632" lon="5.14565">
        <ele>681</ele>
        <time>2022-02-18T11:14:08+01:00</time>
      </trkpt>
      <trkpt lat="44.93623" lon="5.14563">
        <ele>682</ele>
        <time>2022-02-18T11:14:24+01:00</time>
      </trkpt>
      <trkpt lat="44.9362" lon="5.14565">
        <ele>684</ele>
        <time>2022-02-18T11:14:28+01:00</time>
      </trkpt>
      <trkpt lat="44.93617" lon="5.14567">
        <ele>685</ele>
        <time>2022-02-18T11:14:39+01:00</time>
      </trkpt>
      <trkpt lat="44.93613" lon="5.14566">
        <ele>686</ele>
        <time>2022-02-18T11:14:47+01:00</time>
      </trkpt>
      <trkpt lat="44.93611" lon="5.14562">
        <ele>684</ele>
        <time>2022-02-18T11:14:56+01:00</time>
      </trkpt>
      <trkpt lat="44.93607" lon="5.1456">
        <ele>684</ele>
        <time>2022-02-18T11:15:02+01:00</time>
      </trkpt>
      <trkpt lat="44.93603" lon="5.14562">
        <ele>685</ele>
        <time>2022-02-18T11:15:09+01:00</time>
      </trkpt>
      <trkpt lat="44.93598" lon="5.14563">
        <ele>687</ele>
        <time>2022-02-18T11:15:22+01:00</time>
      </trkpt>
      <trkpt lat="44.93595" lon="5.14565">
        <ele>688</ele>
        <time>2022-02-18T11:15:29+01:00</time>
      </trkpt>
      <trkpt lat="44.93592" lon="5.14566">
        <ele>689</ele>
        <time>2022-02-18T11:15:35+01:00</time>
      </trkpt>
      <trkpt lat="44.93589" lon="5.14567">
        <ele>690</ele>
        <time>2022-02-18T11:15:42+01:00</time>
      </trkpt>
      <trkpt lat="44.93586" lon="5.14568">
        <ele>690</ele>
        <time>2022-02-18T11:16:06+01:00</time>
      </trkpt>
      <trkpt lat="44.93581" lon="5.14568">
        <ele>690</ele>
        <time>2022-02-18T11:16:24+01:00</time>
      </trkpt>
      <trkpt lat="44.93577" lon="5.14569">
        <ele>691</ele>
        <time>2022-02-18T11:16:31+01:00</time>
      </trkpt>
      <trkpt lat="44.93574" lon="5.14571">
        <ele>691</ele>
        <time>2022-02-18T11:16:35+01:00</time>
      </trkpt>
      <trkpt lat="44.93569" lon="5.14571">
        <ele>691</ele>
        <time>2022-02-18T11:16:40+01:00</time>
      </trkpt>
      <trkpt lat="44.93563" lon="5.14575">
        <ele>692</ele>
        <time>2022-02-18T11:16:49+01:00</time>
      </trkpt>
      <trkpt lat="44.93547" lon="5.1458">
        <ele>694</ele>
        <time>2022-02-18T11:17:10+01:00</time>
      </trkpt>
      <trkpt lat="44.93544" lon="5.1458">
        <ele>694</ele>
        <time>2022-02-18T11:17:16+01:00</time>
      </trkpt>
      <trkpt lat="44.93538" lon="5.14583">
        <ele>694</ele>
        <time>2022-02-18T11:17:23+01:00</time>
      </trkpt>
      <trkpt lat="44.93535" lon="5.14584">
        <ele>695</ele>
        <time>2022-02-18T11:17:27+01:00</time>
      </trkpt>
      <trkpt lat="44.93532" lon="5.14585">
        <ele>695</ele>
        <time>2022-02-18T11:17:31+01:00</time>
      </trkpt>
      <trkpt lat="44.93529" lon="5.14587">
        <ele>695</ele>
        <time>2022-02-18T11:17:37+01:00</time>
      </trkpt>
      <trkpt lat="44.93526" lon="5.14587">
        <ele>695</ele>
        <time>2022-02-18T11:17:40+01:00</time>
      </trkpt>
      <trkpt lat="44.93518" lon="5.1459">
        <ele>696</ele>
        <time>2022-02-18T11:17:52+01:00</time>
      </trkpt>
      <trkpt lat="44.9351" lon="5.14595">
        <ele>697</ele>
        <time>2022-02-18T11:18:03+01:00</time>
      </trkpt>
      <trkpt lat="44.93495" lon="5.14596">
        <ele>697</ele>
        <time>2022-02-18T11:18:22+01:00</time>
      </trkpt>
      <trkpt lat="44.93492" lon="5.14597">
        <ele>697</ele>
        <time>2022-02-18T11:18:27+01:00</time>
      </trkpt>
      <trkpt lat="44.93485" lon="5.14601">
        <ele>698</ele>
        <time>2022-02-18T11:18:38+01:00</time>
      </trkpt>
      <trkpt lat="44.93477" lon="5.14604">
        <ele>699</ele>
        <time>2022-02-18T11:18:46+01:00</time>
      </trkpt>
      <trkpt lat="44.93474" lon="5.1461">
        <ele>700</ele>
        <time>2022-02-18T11:18:53+01:00</time>
      </trkpt>
      <trkpt lat="44.93472" lon="5.14613">
        <ele>700</ele>
        <time>2022-02-18T11:19:34+01:00</time>
      </trkpt>
      <trkpt lat="44.93469" lon="5.14616">
        <ele>700</ele>
        <time>2022-02-18T11:19:39+01:00</time>
      </trkpt>
      <trkpt lat="44.93466" lon="5.14617">
        <ele>700</ele>
        <time>2022-02-18T11:19:42+01:00</time>
      </trkpt>
      <trkpt lat="44.93463" lon="5.14618">
        <ele>700</ele>
        <time>2022-02-18T11:19:46+01:00</time>
      </trkpt>
      <trkpt lat="44.93451" lon="5.14622">
        <ele>700</ele>
        <time>2022-02-18T11:20:01+01:00</time>
      </trkpt>
      <trkpt lat="44.93445" lon="5.14625">
        <ele>700</ele>
        <time>2022-02-18T11:20:09+01:00</time>
      </trkpt>
      <trkpt lat="44.93442" lon="5.14627">
        <ele>700</ele>
        <time>2022-02-18T11:20:14+01:00</time>
      </trkpt>
      <trkpt lat="44.93439" lon="5.1463">
        <ele>700</ele>
        <time>2022-02-18T11:20:19+01:00</time>
      </trkpt>
      <trkpt lat="44.93436" lon="5.14632">
        <ele>700</ele>
        <time>2022-02-18T11:20:24+01:00</time>
      </trkpt>
      <trkpt lat="44.93425" lon="5.14641">
        <ele>700</ele>
        <time>2022-02-18T11:20:45+01:00</time>
      </trkpt>
      <trkpt lat="44.9342" lon="5.14648">
        <ele>701</ele>
        <time>2022-02-18T11:20:55+01:00</time>
      </trkpt>
      <trkpt lat="44.93409" lon="5.14655">
        <ele>702</ele>
        <time>2022-02-18T11:21:22+01:00</time>
      </trkpt>
      <trkpt lat="44.93406" lon="5.14657">
        <ele>703</ele>
        <time>2022-02-18T11:21:30+01:00</time>
      </trkpt>
      <trkpt lat="44.93403" lon="5.1466">
        <ele>704</ele>
        <time>2022-02-18T11:21:41+01:00</time>
      </trkpt>
      <trkpt lat="44.93396" lon="5.14665">
        <ele>706</ele>
        <time>2022-02-18T11:22:01+01:00</time>
      </trkpt>
      <trkpt lat="44.93389" lon="5.14669">
        <ele>709</ele>
        <time>2022-02-18T11:22:11+01:00</time>
      </trkpt>
      <trkpt lat="44.93386" lon="5.14671">
        <ele>709</ele>
        <time>2022-02-18T11:22:21+01:00</time>
      </trkpt>
      <trkpt lat="44.93383" lon="5.14674">
        <ele>710</ele>
        <time>2022-02-18T11:22:30+01:00</time>
      </trkpt>
      <trkpt lat="44.9338" lon="5.14675">
        <ele>711</ele>
        <time>2022-02-18T11:22:41+01:00</time>
      </trkpt>
      <trkpt lat="44.93376" lon="5.14677">
        <ele>713</ele>
        <time>2022-02-18T11:22:46+01:00</time>
      </trkpt>
      <trkpt lat="44.93373" lon="5.14678">
        <ele>713</ele>
        <time>2022-02-18T11:22:53+01:00</time>
      </trkpt>
      <trkpt lat="44.93369" lon="5.14678">
        <ele>714</ele>
        <time>2022-02-18T11:22:58+01:00</time>
      </trkpt>
      <trkpt lat="44.93366" lon="5.14681">
        <ele>716</ele>
        <time>2022-02-18T11:23:06+01:00</time>
      </trkpt>
      <trkpt lat="44.93364" lon="5.14686">
        <ele>718</ele>
        <time>2022-02-18T11:23:14+01:00</time>
      </trkpt>
      <trkpt lat="44.93361" lon="5.14686">
        <ele>718</ele>
        <time>2022-02-18T11:23:19+01:00</time>
      </trkpt>
      <trkpt lat="44.93358" lon="5.14689">
        <ele>719</ele>
        <time>2022-02-18T11:23:25+01:00</time>
      </trkpt>
      <trkpt lat="44.93355" lon="5.14691">
        <ele>720</ele>
        <time>2022-02-18T11:23:33+01:00</time>
      </trkpt>
      <trkpt lat="44.93351" lon="5.14696">
        <ele>722</ele>
        <time>2022-02-18T11:23:42+01:00</time>
      </trkpt>
      <trkpt lat="44.93348" lon="5.14695">
        <ele>721</ele>
        <time>2022-02-18T11:23:48+01:00</time>
      </trkpt>
      <trkpt lat="44.9333" lon="5.14705">
        <ele>725</ele>
        <time>2022-02-18T11:24:23+01:00</time>
      </trkpt>
      <trkpt lat="44.93322" lon="5.1471">
        <ele>727</ele>
        <time>2022-02-18T11:24:35+01:00</time>
      </trkpt>
      <trkpt lat="44.93319" lon="5.14712">
        <ele>727</ele>
        <time>2022-02-18T11:24:51+01:00</time>
      </trkpt>
      <trkpt lat="44.93316" lon="5.14713">
        <ele>728</ele>
        <time>2022-02-18T11:24:57+01:00</time>
      </trkpt>
      <trkpt lat="44.93313" lon="5.14717">
        <ele>729</ele>
        <time>2022-02-18T11:25:06+01:00</time>
      </trkpt>
      <trkpt lat="44.93309" lon="5.14719">
        <ele>729</ele>
        <time>2022-02-18T11:25:13+01:00</time>
      </trkpt>
      <trkpt lat="44.93306" lon="5.14722">
        <ele>730</ele>
        <time>2022-02-18T11:25:31+01:00</time>
      </trkpt>
      <trkpt lat="44.93303" lon="5.14725">
        <ele>731</ele>
        <time>2022-02-18T11:25:38+01:00</time>
      </trkpt>
      <trkpt lat="44.93299" lon="5.14724">
        <ele>731</ele>
        <time>2022-02-18T11:25:49+01:00</time>
      </trkpt>
      <trkpt lat="44.93284" lon="5.14728">
        <ele>732</ele>
        <time>2022-02-18T11:26:14+01:00</time>
      </trkpt>
      <trkpt lat="44.93269" lon="5.14728">
        <ele>733</ele>
        <time>2022-02-18T11:26:37+01:00</time>
      </trkpt>
      <trkpt lat="44.93261" lon="5.14727">
        <ele>732</ele>
        <time>2022-02-18T11:26:45+01:00</time>
      </trkpt>
      <trkpt lat="44.93246" lon="5.14727">
        <ele>732</ele>
        <time>2022-02-18T11:27:02+01:00</time>
      </trkpt>
      <trkpt lat="44.93238" lon="5.14731">
        <ele>734</ele>
        <time>2022-02-18T11:27:10+01:00</time>
      </trkpt>
      <trkpt lat="44.93235" lon="5.14733">
        <ele>734</ele>
        <time>2022-02-18T11:27:16+01:00</time>
      </trkpt>
      <trkpt lat="44.93231" lon="5.14735">
        <ele>735</ele>
        <time>2022-02-18T11:27:20+01:00</time>
      </trkpt>
      <trkpt lat="44.93227" lon="5.14736">
        <ele>735</ele>
        <time>2022-02-18T11:27:24+01:00</time>
      </trkpt>
      <trkpt lat="44.93219" lon="5.14738">
        <ele>736</ele>
        <time>2022-02-18T11:27:35+01:00</time>
      </trkpt>
      <trkpt lat="44.93216" lon="5.14737">
        <ele>736</ele>
        <time>2022-02-18T11:27:40+01:00</time>
      </trkpt>
      <trkpt lat="44.93211" lon="5.14738">
        <ele>736</ele>
        <time>2022-02-18T11:27:44+01:00</time>
      </trkpt>
      <trkpt lat="44.93206" lon="5.14737">
        <ele>736</ele>
        <time>2022-02-18T11:27:51+01:00</time>
      </trkpt>
      <trkpt lat="44.93196" lon="5.14747">
        <ele>738</ele>
        <time>2022-02-18T11:28:07+01:00</time>
      </trkpt>
      <trkpt lat="44.93192" lon="5.14747">
        <ele>738</ele>
        <time>2022-02-18T11:28:11+01:00</time>
      </trkpt>
      <trkpt lat="44.93188" lon="5.14748">
        <ele>738</ele>
        <time>2022-02-18T11:28:18+01:00</time>
      </trkpt>
      <trkpt lat="44.93185" lon="5.14751">
        <ele>739</ele>
        <time>2022-02-18T11:28:26+01:00</time>
      </trkpt>
      <trkpt lat="44.9318" lon="5.14752">
        <ele>739</ele>
        <time>2022-02-18T11:28:56+01:00</time>
      </trkpt>
      <trkpt lat="44.93177" lon="5.14754">
        <ele>739</ele>
        <time>2022-02-18T11:28:59+01:00</time>
      </trkpt>
      <trkpt lat="44.93173" lon="5.14754">
        <ele>739</ele>
        <time>2022-02-18T11:29:04+01:00</time>
      </trkpt>
      <trkpt lat="44.93161" lon="5.1476">
        <ele>739</ele>
        <time>2022-02-18T11:29:17+01:00</time>
      </trkpt>
      <trkpt lat="44.93158" lon="5.14762">
        <ele>739</ele>
        <time>2022-02-18T11:29:21+01:00</time>
      </trkpt>
      <trkpt lat="44.93155" lon="5.14766">
        <ele>740</ele>
        <time>2022-02-18T11:29:26+01:00</time>
      </trkpt>
      <trkpt lat="44.93153" lon="5.14769">
        <ele>740</ele>
        <time>2022-02-18T11:29:30+01:00</time>
      </trkpt>
      <trkpt lat="44.93125" lon="5.14773">
        <ele>737</ele>
        <time>2022-02-18T11:30:38+01:00</time>
      </trkpt>
      <trkpt lat="44.93142" lon="5.14759">
        <ele>737</ele>
        <time>2022-02-18T11:30:39+01:00</time>
      </trkpt>
      <trkpt lat="44.93143" lon="5.14773">
        <ele>740</ele>
        <time>2022-02-18T11:30:41+01:00</time>
      </trkpt>
      <trkpt lat="44.93134" lon="5.14783">
        <ele>740</ele>
        <time>2022-02-18T11:32:18+01:00</time>
      </trkpt>
      <trkpt lat="44.93139" lon="5.14787">
        <ele>741</ele>
        <time>2022-02-18T11:32:25+01:00</time>
      </trkpt>
      <trkpt lat="44.93141" lon="5.14791">
        <ele>742</ele>
        <time>2022-02-18T11:32:43+01:00</time>
      </trkpt>
      <trkpt lat="44.93141" lon="5.14792">
        <ele>742</ele>
        <time>2022-02-18T11:33:25+01:00</time>
      </trkpt>
      <trkpt lat="44.93135" lon="5.14799">
        <ele>742</ele>
        <time>2022-02-18T11:33:33+01:00</time>
      </trkpt>
      <trkpt lat="44.93129" lon="5.14805">
        <ele>742</ele>
        <time>2022-02-18T11:33:41+01:00</time>
      </trkpt>
      <trkpt lat="44.93127" lon="5.14807">
        <ele>743</ele>
        <time>2022-02-18T11:33:44+01:00</time>
      </trkpt>
      <trkpt lat="44.93125" lon="5.14811">
        <ele>743</ele>
        <time>2022-02-18T11:33:47+01:00</time>
      </trkpt>
      <trkpt lat="44.93121" lon="5.14817">
        <ele>743</ele>
        <time>2022-02-18T11:33:53+01:00</time>
      </trkpt>
      <trkpt lat="44.9312" lon="5.1482">
        <ele>743</ele>
        <time>2022-02-18T11:33:57+01:00</time>
      </trkpt>
      <trkpt lat="44.93118" lon="5.14822">
        <ele>743</ele>
        <time>2022-02-18T11:34:00+01:00</time>
      </trkpt>
      <trkpt lat="44.93115" lon="5.14828">
        <ele>744</ele>
        <time>2022-02-18T11:34:06+01:00</time>
      </trkpt>
      <trkpt lat="44.93114" lon="5.14832">
        <ele>744</ele>
        <time>2022-02-18T11:34:10+01:00</time>
      </trkpt>
      <trkpt lat="44.93107" lon="5.14839">
        <ele>744</ele>
        <time>2022-02-18T11:34:22+01:00</time>
      </trkpt>
      <trkpt lat="44.93104" lon="5.14846">
        <ele>745</ele>
        <time>2022-02-18T11:34:33+01:00</time>
      </trkpt>
      <trkpt lat="44.93102" lon="5.14848">
        <ele>744</ele>
        <time>2022-02-18T11:34:37+01:00</time>
      </trkpt>
      <trkpt lat="44.93101" lon="5.1485">
        <ele>745</ele>
        <time>2022-02-18T11:34:41+01:00</time>
      </trkpt>
      <trkpt lat="44.93101" lon="5.14854">
        <ele>745</ele>
        <time>2022-02-18T11:34:50+01:00</time>
      </trkpt>
      <trkpt lat="44.931" lon="5.1486">
        <ele>746</ele>
        <time>2022-02-18T11:35:34+01:00</time>
      </trkpt>
      <trkpt lat="44.93096" lon="5.14863">
        <ele>745</ele>
        <time>2022-02-18T11:37:04+01:00</time>
      </trkpt>
      <trkpt lat="44.93091" lon="5.14869">
        <ele>745</ele>
        <time>2022-02-18T11:37:12+01:00</time>
      </trkpt>
      <trkpt lat="44.93082" lon="5.14878">
        <ele>745</ele>
        <time>2022-02-18T11:37:29+01:00</time>
      </trkpt>
      <trkpt lat="44.93078" lon="5.14884">
        <ele>745</ele>
        <time>2022-02-18T11:37:36+01:00</time>
      </trkpt>
      <trkpt lat="44.93075" lon="5.1489">
        <ele>746</ele>
        <time>2022-02-18T11:37:40+01:00</time>
      </trkpt>
      <trkpt lat="44.93074" lon="5.14893">
        <ele>746</ele>
        <time>2022-02-18T11:37:43+01:00</time>
      </trkpt>
      <trkpt lat="44.93071" lon="5.14895">
        <ele>746</ele>
        <time>2022-02-18T11:37:47+01:00</time>
      </trkpt>
      <trkpt lat="44.93048" lon="5.14923">
        <ele>745</ele>
        <time>2022-02-18T11:38:20+01:00</time>
      </trkpt>
      <trkpt lat="44.93046" lon="5.14927">
        <ele>744</ele>
        <time>2022-02-18T11:38:23+01:00</time>
      </trkpt>
      <trkpt lat="44.93045" lon="5.14931">
        <ele>744</ele>
        <time>2022-02-18T11:38:27+01:00</time>
      </trkpt>
      <trkpt lat="44.93043" lon="5.14935">
        <ele>743</ele>
        <time>2022-02-18T11:38:33+01:00</time>
      </trkpt>
      <trkpt lat="44.9304" lon="5.14938">
        <ele>743</ele>
        <time>2022-02-18T11:38:39+01:00</time>
      </trkpt>
      <trkpt lat="44.93035" lon="5.14944">
        <ele>743</ele>
        <time>2022-02-18T11:38:46+01:00</time>
      </trkpt>
      <trkpt lat="44.93029" lon="5.14954">
        <ele>742</ele>
        <time>2022-02-18T11:38:58+01:00</time>
      </trkpt>
      <trkpt lat="44.93026" lon="5.14958">
        <ele>741</ele>
        <time>2022-02-18T11:39:02+01:00</time>
      </trkpt>
      <trkpt lat="44.93022" lon="5.14965">
        <ele>741</ele>
        <time>2022-02-18T11:39:10+01:00</time>
      </trkpt>
      <trkpt lat="44.93019" lon="5.14967">
        <ele>741</ele>
        <time>2022-02-18T11:39:13+01:00</time>
      </trkpt>
      <trkpt lat="44.93016" lon="5.14968">
        <ele>741</ele>
        <time>2022-02-18T11:39:16+01:00</time>
      </trkpt>
      <trkpt lat="44.92998" lon="5.14994">
        <ele>740</ele>
        <time>2022-02-18T11:39:42+01:00</time>
      </trkpt>
      <trkpt lat="44.92992" lon="5.15">
        <ele>740</ele>
        <time>2022-02-18T11:39:50+01:00</time>
      </trkpt>
      <trkpt lat="44.9299" lon="5.15002">
        <ele>740</ele>
        <time>2022-02-18T11:39:53+01:00</time>
      </trkpt>
      <trkpt lat="44.92987" lon="5.15005">
        <ele>740</ele>
        <time>2022-02-18T11:39:56+01:00</time>
      </trkpt>
      <trkpt lat="44.92984" lon="5.15008">
        <ele>740</ele>
        <time>2022-02-18T11:40:00+01:00</time>
      </trkpt>
      <trkpt lat="44.92959" lon="5.15034">
        <ele>739</ele>
        <time>2022-02-18T11:40:32+01:00</time>
      </trkpt>
      <trkpt lat="44.92954" lon="5.15039">
        <ele>739</ele>
        <time>2022-02-18T11:40:40+01:00</time>
      </trkpt>
      <trkpt lat="44.92951" lon="5.15041">
        <ele>739</ele>
        <time>2022-02-18T11:40:46+01:00</time>
      </trkpt>
      <trkpt lat="44.92949" lon="5.15045">
        <ele>739</ele>
        <time>2022-02-18T11:40:57+01:00</time>
      </trkpt>
      <trkpt lat="44.92952" lon="5.15048">
        <ele>739</ele>
        <time>2022-02-18T11:41:29+01:00</time>
      </trkpt>
      <trkpt lat="44.92948" lon="5.1505">
        <ele>739</ele>
        <time>2022-02-18T11:42:07+01:00</time>
      </trkpt>
      <trkpt lat="44.92945" lon="5.15052">
        <ele>740</ele>
        <time>2022-02-18T11:42:13+01:00</time>
      </trkpt>
      <trkpt lat="44.92935" lon="5.15057">
        <ele>740</ele>
        <time>2022-02-18T11:42:25+01:00</time>
      </trkpt>
      <trkpt lat="44.92917" lon="5.15067">
        <ele>743</ele>
        <time>2022-02-18T11:42:56+01:00</time>
      </trkpt>
      <trkpt lat="44.92914" lon="5.15071">
        <ele>743</ele>
        <time>2022-02-18T11:43:03+01:00</time>
      </trkpt>
      <trkpt lat="44.9291" lon="5.15073">
        <ele>744</ele>
        <time>2022-02-18T11:43:12+01:00</time>
      </trkpt>
      <trkpt lat="44.92907" lon="5.15077">
        <ele>745</ele>
        <time>2022-02-18T11:43:21+01:00</time>
      </trkpt>
      <trkpt lat="44.92903" lon="5.15079">
        <ele>746</ele>
        <time>2022-02-18T11:43:30+01:00</time>
      </trkpt>
      <trkpt lat="44.92899" lon="5.1508">
        <ele>746</ele>
        <time>2022-02-18T11:43:36+01:00</time>
      </trkpt>
      <trkpt lat="44.92897" lon="5.15083">
        <ele>747</ele>
        <time>2022-02-18T11:43:42+01:00</time>
      </trkpt>
      <trkpt lat="44.92894" lon="5.15086">
        <ele>748</ele>
        <time>2022-02-18T11:43:51+01:00</time>
      </trkpt>
      <trkpt lat="44.9289" lon="5.15088">
        <ele>749</ele>
        <time>2022-02-18T11:43:55+01:00</time>
      </trkpt>
      <trkpt lat="44.92884" lon="5.15095">
        <ele>750</ele>
        <time>2022-02-18T11:44:12+01:00</time>
      </trkpt>
      <trkpt lat="44.92882" lon="5.15098">
        <ele>751</ele>
        <time>2022-02-18T11:44:19+01:00</time>
      </trkpt>
      <trkpt lat="44.92879" lon="5.15102">
        <ele>751</ele>
        <time>2022-02-18T11:44:29+01:00</time>
      </trkpt>
      <trkpt lat="44.92877" lon="5.15107">
        <ele>753</ele>
        <time>2022-02-18T11:44:34+01:00</time>
      </trkpt>
      <trkpt lat="44.92875" lon="5.15109">
        <ele>753</ele>
        <time>2022-02-18T11:44:39+01:00</time>
      </trkpt>
      <trkpt lat="44.92873" lon="5.15114">
        <ele>754</ele>
        <time>2022-02-18T11:44:45+01:00</time>
      </trkpt>
      <trkpt lat="44.92869" lon="5.15124">
        <ele>756</ele>
        <time>2022-02-18T11:45:01+01:00</time>
      </trkpt>
      <trkpt lat="44.92867" lon="5.15127">
        <ele>756</ele>
        <time>2022-02-18T11:45:07+01:00</time>
      </trkpt>
      <trkpt lat="44.92864" lon="5.15131">
        <ele>757</ele>
        <time>2022-02-18T11:45:14+01:00</time>
      </trkpt>
      <trkpt lat="44.92859" lon="5.15139">
        <ele>759</ele>
        <time>2022-02-18T11:45:22+01:00</time>
      </trkpt>
      <trkpt lat="44.92856" lon="5.15141">
        <ele>759</ele>
        <time>2022-02-18T11:45:27+01:00</time>
      </trkpt>
      <trkpt lat="44.92852" lon="5.15149">
        <ele>759</ele>
        <time>2022-02-18T11:45:38+01:00</time>
      </trkpt>
      <trkpt lat="44.9285" lon="5.15153">
        <ele>759</ele>
        <time>2022-02-18T11:45:43+01:00</time>
      </trkpt>
      <trkpt lat="44.92848" lon="5.15157">
        <ele>760</ele>
        <time>2022-02-18T11:45:48+01:00</time>
      </trkpt>
      <trkpt lat="44.92846" lon="5.15163">
        <ele>760</ele>
        <time>2022-02-18T11:45:58+01:00</time>
      </trkpt>
      <trkpt lat="44.92842" lon="5.15165">
        <ele>760</ele>
        <time>2022-02-18T11:46:03+01:00</time>
      </trkpt>
      <trkpt lat="44.92839" lon="5.15169">
        <ele>761</ele>
        <time>2022-02-18T11:46:14+01:00</time>
      </trkpt>
      <trkpt lat="44.92832" lon="5.15176">
        <ele>762</ele>
        <time>2022-02-18T11:46:27+01:00</time>
      </trkpt>
      <trkpt lat="44.92829" lon="5.15179">
        <ele>762</ele>
        <time>2022-02-18T11:46:37+01:00</time>
      </trkpt>
      <trkpt lat="44.92827" lon="5.15183">
        <ele>762</ele>
        <time>2022-02-18T11:46:43+01:00</time>
      </trkpt>
      <trkpt lat="44.92824" lon="5.15187">
        <ele>763</ele>
        <time>2022-02-18T11:46:48+01:00</time>
      </trkpt>
      <trkpt lat="44.92822" lon="5.1519">
        <ele>764</ele>
        <time>2022-02-18T11:46:53+01:00</time>
      </trkpt>
      <trkpt lat="44.9282" lon="5.15195">
        <ele>764</ele>
        <time>2022-02-18T11:47:00+01:00</time>
      </trkpt>
      <trkpt lat="44.92819" lon="5.152">
        <ele>765</ele>
        <time>2022-02-18T11:47:04+01:00</time>
      </trkpt>
      <trkpt lat="44.92817" lon="5.15204">
        <ele>765</ele>
        <time>2022-02-18T11:47:08+01:00</time>
      </trkpt>
      <trkpt lat="44.92808" lon="5.15212">
        <ele>768</ele>
        <time>2022-02-18T11:47:27+01:00</time>
      </trkpt>
      <trkpt lat="44.92805" lon="5.15215">
        <ele>769</ele>
        <time>2022-02-18T11:47:32+01:00</time>
      </trkpt>
      <trkpt lat="44.92803" lon="5.15219">
        <ele>769</ele>
        <time>2022-02-18T11:47:36+01:00</time>
      </trkpt>
      <trkpt lat="44.92797" lon="5.15226">
        <ele>770</ele>
        <time>2022-02-18T11:47:48+01:00</time>
      </trkpt>
      <trkpt lat="44.92794" lon="5.1523">
        <ele>770</ele>
        <time>2022-02-18T11:47:53+01:00</time>
      </trkpt>
      <trkpt lat="44.92791" lon="5.15233">
        <ele>771</ele>
        <time>2022-02-18T11:47:59+01:00</time>
      </trkpt>
      <trkpt lat="44.92789" lon="5.15237">
        <ele>771</ele>
        <time>2022-02-18T11:48:03+01:00</time>
      </trkpt>
      <trkpt lat="44.92786" lon="5.1524">
        <ele>772</ele>
        <time>2022-02-18T11:48:08+01:00</time>
      </trkpt>
      <trkpt lat="44.92784" lon="5.15244">
        <ele>773</ele>
        <time>2022-02-18T11:48:19+01:00</time>
      </trkpt>
      <trkpt lat="44.92781" lon="5.15247">
        <ele>774</ele>
        <time>2022-02-18T11:48:26+01:00</time>
      </trkpt>
      <trkpt lat="44.92772" lon="5.15257">
        <ele>777</ele>
        <time>2022-02-18T11:48:50+01:00</time>
      </trkpt>
      <trkpt lat="44.92769" lon="5.15259">
        <ele>778</ele>
        <time>2022-02-18T11:49:01+01:00</time>
      </trkpt>
      <trkpt lat="44.92766" lon="5.15262">
        <ele>779</ele>
        <time>2022-02-18T11:49:11+01:00</time>
      </trkpt>
      <trkpt lat="44.92762" lon="5.15264">
        <ele>780</ele>
        <time>2022-02-18T11:49:33+01:00</time>
      </trkpt>
      <trkpt lat="44.92759" lon="5.15267">
        <ele>781</ele>
        <time>2022-02-18T11:49:41+01:00</time>
      </trkpt>
      <trkpt lat="44.92754" lon="5.15267">
        <ele>782</ele>
        <time>2022-02-18T11:49:47+01:00</time>
      </trkpt>
      <trkpt lat="44.92751" lon="5.15268">
        <ele>783</ele>
        <time>2022-02-18T11:49:52+01:00</time>
      </trkpt>
      <trkpt lat="44.92748" lon="5.15271">
        <ele>784</ele>
        <time>2022-02-18T11:49:59+01:00</time>
      </trkpt>
      <trkpt lat="44.9274" lon="5.15274">
        <ele>785</ele>
        <time>2022-02-18T11:50:14+01:00</time>
      </trkpt>
      <trkpt lat="44.92736" lon="5.15276">
        <ele>785</ele>
        <time>2022-02-18T11:50:19+01:00</time>
      </trkpt>
      <trkpt lat="44.92733" lon="5.15277">
        <ele>786</ele>
        <time>2022-02-18T11:50:28+01:00</time>
      </trkpt>
      <trkpt lat="44.9273" lon="5.1528">
        <ele>787</ele>
        <time>2022-02-18T11:50:34+01:00</time>
      </trkpt>
      <trkpt lat="44.92726" lon="5.15281">
        <ele>787</ele>
        <time>2022-02-18T11:50:42+01:00</time>
      </trkpt>
      <trkpt lat="44.92722" lon="5.15282">
        <ele>788</ele>
        <time>2022-02-18T11:50:51+01:00</time>
      </trkpt>
      <trkpt lat="44.92718" lon="5.15283">
        <ele>788</ele>
        <time>2022-02-18T11:50:58+01:00</time>
      </trkpt>
      <trkpt lat="44.92714" lon="5.15284">
        <ele>788</ele>
        <time>2022-02-18T11:51:05+01:00</time>
      </trkpt>
      <trkpt lat="44.92711" lon="5.15288">
        <ele>790</ele>
        <time>2022-02-18T11:51:14+01:00</time>
      </trkpt>
      <trkpt lat="44.92708" lon="5.1529">
        <ele>791</ele>
        <time>2022-02-18T11:51:21+01:00</time>
      </trkpt>
      <trkpt lat="44.92703" lon="5.15292">
        <ele>791</ele>
        <time>2022-02-18T11:51:31+01:00</time>
      </trkpt>
      <trkpt lat="44.92699" lon="5.15296">
        <ele>793</ele>
        <time>2022-02-18T11:51:43+01:00</time>
      </trkpt>
      <trkpt lat="44.92696" lon="5.15297">
        <ele>794</ele>
        <time>2022-02-18T11:51:48+01:00</time>
      </trkpt>
      <trkpt lat="44.92692" lon="5.153">
        <ele>795</ele>
        <time>2022-02-18T11:51:57+01:00</time>
      </trkpt>
      <trkpt lat="44.92679" lon="5.15312">
        <ele>800</ele>
        <time>2022-02-18T11:52:33+01:00</time>
      </trkpt>
      <trkpt lat="44.92675" lon="5.15314">
        <ele>801</ele>
        <time>2022-02-18T11:52:50+01:00</time>
      </trkpt>
      <trkpt lat="44.92669" lon="5.15314">
        <ele>801</ele>
        <time>2022-02-18T11:52:59+01:00</time>
      </trkpt>
      <trkpt lat="44.92665" lon="5.15315">
        <ele>802</ele>
        <time>2022-02-18T11:53:05+01:00</time>
      </trkpt>
      <trkpt lat="44.92662" lon="5.15318">
        <ele>803</ele>
        <time>2022-02-18T11:53:15+01:00</time>
      </trkpt>
      <trkpt lat="44.92659" lon="5.15318">
        <ele>803</ele>
        <time>2022-02-18T11:53:21+01:00</time>
      </trkpt>
      <trkpt lat="44.92655" lon="5.15322">
        <ele>805</ele>
        <time>2022-02-18T11:53:29+01:00</time>
      </trkpt>
      <trkpt lat="44.92652" lon="5.15325">
        <ele>806</ele>
        <time>2022-02-18T11:53:40+01:00</time>
      </trkpt>
      <trkpt lat="44.92648" lon="5.15328">
        <ele>807</ele>
        <time>2022-02-18T11:53:53+01:00</time>
      </trkpt>
      <trkpt lat="44.92632" lon="5.15327">
        <ele>808</ele>
        <time>2022-02-18T11:54:18+01:00</time>
      </trkpt>
      <trkpt lat="44.92628" lon="5.15327">
        <ele>808</ele>
        <time>2022-02-18T11:54:22+01:00</time>
      </trkpt>
      <trkpt lat="44.92618" lon="5.1533">
        <ele>808</ele>
        <time>2022-02-18T11:55:08+01:00</time>
      </trkpt>
      <trkpt lat="44.92613" lon="5.15331">
        <ele>808</ele>
        <time>2022-02-18T11:55:19+01:00</time>
      </trkpt>
      <trkpt lat="44.92606" lon="5.15337">
        <ele>807</ele>
        <time>2022-02-18T11:55:29+01:00</time>
      </trkpt>
      <trkpt lat="44.92603" lon="5.15342">
        <ele>806</ele>
        <time>2022-02-18T11:55:35+01:00</time>
      </trkpt>
      <trkpt lat="44.92594" lon="5.15355">
        <ele>805</ele>
        <time>2022-02-18T11:55:48+01:00</time>
      </trkpt>
      <trkpt lat="44.92586" lon="5.15359">
        <ele>803</ele>
        <time>2022-02-18T11:55:56+01:00</time>
      </trkpt>
      <trkpt lat="44.92564" lon="5.15387">
        <ele>801</ele>
        <time>2022-02-18T11:56:26+01:00</time>
      </trkpt>
      <trkpt lat="44.92558" lon="5.15395">
        <ele>800</ele>
        <time>2022-02-18T11:56:34+01:00</time>
      </trkpt>
      <trkpt lat="44.92555" lon="5.154">
        <ele>800</ele>
        <time>2022-02-18T11:56:38+01:00</time>
      </trkpt>
      <trkpt lat="44.92553" lon="5.15405">
        <ele>800</ele>
        <time>2022-02-18T11:56:42+01:00</time>
      </trkpt>
      <trkpt lat="44.92549" lon="5.15409">
        <ele>799</ele>
        <time>2022-02-18T11:56:46+01:00</time>
      </trkpt>
      <trkpt lat="44.92539" lon="5.15419">
        <ele>798</ele>
        <time>2022-02-18T11:56:56+01:00</time>
      </trkpt>
      <trkpt lat="44.92529" lon="5.15432">
        <ele>797</ele>
        <time>2022-02-18T11:57:09+01:00</time>
      </trkpt>
      <trkpt lat="44.92528" lon="5.15436">
        <ele>797</ele>
        <time>2022-02-18T11:57:12+01:00</time>
      </trkpt>
      <trkpt lat="44.92526" lon="5.15442">
        <ele>797</ele>
        <time>2022-02-18T11:57:16+01:00</time>
      </trkpt>
      <trkpt lat="44.92524" lon="5.15446">
        <ele>797</ele>
        <time>2022-02-18T11:57:19+01:00</time>
      </trkpt>
      <trkpt lat="44.92523" lon="5.15451">
        <ele>797</ele>
        <time>2022-02-18T11:57:27+01:00</time>
      </trkpt>
      <trkpt lat="44.92523" lon="5.15456">
        <ele>798</ele>
        <time>2022-02-18T11:57:31+01:00</time>
      </trkpt>
      <trkpt lat="44.9252" lon="5.1546">
        <ele>797</ele>
        <time>2022-02-18T11:57:36+01:00</time>
      </trkpt>
      <trkpt lat="44.92515" lon="5.15466">
        <ele>797</ele>
        <time>2022-02-18T11:57:42+01:00</time>
      </trkpt>
      <trkpt lat="44.92513" lon="5.1547">
        <ele>797</ele>
        <time>2022-02-18T11:57:47+01:00</time>
      </trkpt>
      <trkpt lat="44.9251" lon="5.15473">
        <ele>797</ele>
        <time>2022-02-18T11:57:51+01:00</time>
      </trkpt>
      <trkpt lat="44.92505" lon="5.15482">
        <ele>797</ele>
        <time>2022-02-18T11:57:59+01:00</time>
      </trkpt>
      <trkpt lat="44.92504" lon="5.15487">
        <ele>798</ele>
        <time>2022-02-18T11:58:04+01:00</time>
      </trkpt>
      <trkpt lat="44.92505" lon="5.15491">
        <ele>799</ele>
        <time>2022-02-18T11:58:18+01:00</time>
      </trkpt>
      <trkpt lat="44.92507" lon="5.15495">
        <ele>799</ele>
        <time>2022-02-18T11:58:27+01:00</time>
      </trkpt>
      <trkpt lat="44.92509" lon="5.15496">
        <ele>799</ele>
        <time>2022-02-18T11:59:25+01:00</time>
      </trkpt>
      <trkpt lat="44.92511" lon="5.15491">
        <ele>799</ele>
        <time>2022-02-18T11:59:30+01:00</time>
      </trkpt>
      <trkpt lat="44.92514" lon="5.15487">
        <ele>799</ele>
        <time>2022-02-18T11:59:34+01:00</time>
      </trkpt>
      <trkpt lat="44.92515" lon="5.15482">
        <ele>799</ele>
        <time>2022-02-18T11:59:39+01:00</time>
      </trkpt>
      <trkpt lat="44.92519" lon="5.15473">
        <ele>798</ele>
        <time>2022-02-18T11:59:46+01:00</time>
      </trkpt>
      <trkpt lat="44.9252" lon="5.15468">
        <ele>798</ele>
        <time>2022-02-18T11:59:49+01:00</time>
      </trkpt>
      <trkpt lat="44.92519" lon="5.15462">
        <ele>797</ele>
        <time>2022-02-18T11:59:55+01:00</time>
      </trkpt>
      <trkpt lat="44.92522" lon="5.15448">
        <ele>797</ele>
        <time>2022-02-18T12:00:06+01:00</time>
      </trkpt>
      <trkpt lat="44.92522" lon="5.15437">
        <ele>796</ele>
        <time>2022-02-18T12:00:16+01:00</time>
      </trkpt>
      <trkpt lat="44.92521" lon="5.15432">
        <ele>795</ele>
        <time>2022-02-18T12:00:21+01:00</time>
      </trkpt>
      <trkpt lat="44.92522" lon="5.15427">
        <ele>795</ele>
        <time>2022-02-18T12:00:25+01:00</time>
      </trkpt>
      <trkpt lat="44.92522" lon="5.15421">
        <ele>794</ele>
        <time>2022-02-18T12:00:31+01:00</time>
      </trkpt>
      <trkpt lat="44.92522" lon="5.15414">
        <ele>793</ele>
        <time>2022-02-18T12:00:37+01:00</time>
      </trkpt>
      <trkpt lat="44.92522" lon="5.15409">
        <ele>792</ele>
        <time>2022-02-18T12:00:41+01:00</time>
      </trkpt>
      <trkpt lat="44.92524" lon="5.15396">
        <ele>791</ele>
        <time>2022-02-18T12:00:53+01:00</time>
      </trkpt>
      <trkpt lat="44.92528" lon="5.15384">
        <ele>791</ele>
        <time>2022-02-18T12:01:02+01:00</time>
      </trkpt>
      <trkpt lat="44.92529" lon="5.15378">
        <ele>791</ele>
        <time>2022-02-18T12:01:07+01:00</time>
      </trkpt>
      <trkpt lat="44.92529" lon="5.15371">
        <ele>790</ele>
        <time>2022-02-18T12:01:13+01:00</time>
      </trkpt>
      <trkpt lat="44.9253" lon="5.15364">
        <ele>789</ele>
        <time>2022-02-18T12:01:19+01:00</time>
      </trkpt>
      <trkpt lat="44.92533" lon="5.15362">
        <ele>790</ele>
        <time>2022-02-18T12:01:23+01:00</time>
      </trkpt>
      <trkpt lat="44.92531" lon="5.15357">
        <ele>788</ele>
        <time>2022-02-18T12:01:29+01:00</time>
      </trkpt>
      <trkpt lat="44.92531" lon="5.15351">
        <ele>787</ele>
        <time>2022-02-18T12:01:35+01:00</time>
      </trkpt>
      <trkpt lat="44.92531" lon="5.15345">
        <ele>786</ele>
        <time>2022-02-18T12:01:40+01:00</time>
      </trkpt>
      <trkpt lat="44.92532" lon="5.15339">
        <ele>786</ele>
        <time>2022-02-18T12:01:47+01:00</time>
      </trkpt>
      <trkpt lat="44.92537" lon="5.1533">
        <ele>786</ele>
        <time>2022-02-18T12:01:56+01:00</time>
      </trkpt>
      <trkpt lat="44.92537" lon="5.15324">
        <ele>784</ele>
        <time>2022-02-18T12:02:04+01:00</time>
      </trkpt>
      <trkpt lat="44.92539" lon="5.15318">
        <ele>784</ele>
        <time>2022-02-18T12:02:13+01:00</time>
      </trkpt>
      <trkpt lat="44.92543" lon="5.15308">
        <ele>782</ele>
        <time>2022-02-18T12:02:25+01:00</time>
      </trkpt>
      <trkpt lat="44.92546" lon="5.15297">
        <ele>781</ele>
        <time>2022-02-18T12:02:40+01:00</time>
      </trkpt>
      <trkpt lat="44.92548" lon="5.15293">
        <ele>780</ele>
        <time>2022-02-18T12:02:47+01:00</time>
      </trkpt>
      <trkpt lat="44.9255" lon="5.15278">
        <ele>777</ele>
        <time>2022-02-18T12:03:12+01:00</time>
      </trkpt>
      <trkpt lat="44.92593" lon="5.15233">
        <ele>780</ele>
        <time>2022-02-18T12:04:44+01:00</time>
      </trkpt>
      <trkpt lat="44.92609" lon="5.1516">
        <ele>766</ele>
        <time>2022-02-18T12:03:21+01:00</time>
      </trkpt>
      <trkpt lat="44.92599" lon="5.15069">
        <ele>749</ele>
        <time>2022-02-18T12:04:36+01:00</time>
      </trkpt>
      <trkpt lat="44.9261" lon="5.14951">
        <ele>734</ele>
        <time>2022-02-18T12:06:12+01:00</time>
      </trkpt>
      <trkpt lat="44.92665" lon="5.1474">
        <ele>707</ele>
        <time>2022-02-18T12:13:43+01:00</time>
      </trkpt>
      <trkpt lat="44.92663" lon="5.14744">
        <ele>707</ele>
        <time>2022-02-18T12:14:31+01:00</time>
      </trkpt>
      <trkpt lat="44.92665" lon="5.14744">
        <ele>708</ele>
        <time>2022-02-18T12:14:51+01:00</time>
      </trkpt>
      <trkpt lat="44.92666" lon="5.14738">
        <ele>707</ele>
        <time>2022-02-18T12:15:09+01:00</time>
      </trkpt>
      <trkpt lat="44.92669" lon="5.14737">
        <ele>707</ele>
        <time>2022-02-18T12:15:24+01:00</time>
      </trkpt>
      <trkpt lat="44.92672" lon="5.14726">
        <ele>706</ele>
        <time>2022-02-18T12:15:40+01:00</time>
      </trkpt>
      <trkpt lat="44.92672" lon="5.14721">
        <ele>705</ele>
        <time>2022-02-18T12:15:48+01:00</time>
      </trkpt>
      <trkpt lat="44.92675" lon="5.14719">
        <ele>705</ele>
        <time>2022-02-18T12:16:17+01:00</time>
      </trkpt>
      <trkpt lat="44.92676" lon="5.14726">
        <ele>704</ele>
        <time>2022-02-18T12:16:50+01:00</time>
      </trkpt>
      <trkpt lat="44.92671" lon="5.14731">
        <ele>706</ele>
        <time>2022-02-18T12:17:07+01:00</time>
      </trkpt>
      <trkpt lat="44.92674" lon="5.14726">
        <ele>705</ele>
        <time>2022-02-18T12:25:12+01:00</time>
      </trkpt>
      <trkpt lat="44.92676" lon="5.14726">
        <ele>704</ele>
        <time>2022-02-18T12:40:32+01:00</time>
      </trkpt>
      <trkpt lat="44.92676" lon="5.14727">
        <ele>704</ele>
        <time>2022-02-18T12:44:18+01:00</time>
      </trkpt>
      <trkpt lat="44.92672" lon="5.14732">
        <ele>706</ele>
        <time>2022-02-18T12:44:37+01:00</time>
      </trkpt>
      <trkpt lat="44.92668" lon="5.14732">
        <ele>707</ele>
        <time>2022-02-18T12:44:51+01:00</time>
      </trkpt>
      <trkpt lat="44.92667" lon="5.14738">
        <ele>708</ele>
        <time>2022-02-18T12:45:02+01:00</time>
      </trkpt>
      <trkpt lat="44.92663" lon="5.14738">
        <ele>707</ele>
        <time>2022-02-18T12:45:14+01:00</time>
      </trkpt>
      <trkpt lat="44.92659" lon="5.14737">
        <ele>706</ele>
        <time>2022-02-18T12:45:20+01:00</time>
      </trkpt>
      <trkpt lat="44.92657" lon="5.14732">
        <ele>706</ele>
        <time>2022-02-18T12:45:29+01:00</time>
      </trkpt>
      <trkpt lat="44.92658" lon="5.14727">
        <ele>705</ele>
        <time>2022-02-18T12:45:34+01:00</time>
      </trkpt>
      <trkpt lat="44.92657" lon="5.1472">
        <ele>705</ele>
        <time>2022-02-18T12:45:40+01:00</time>
      </trkpt>
      <trkpt lat="44.92659" lon="5.14715">
        <ele>705</ele>
        <time>2022-02-18T12:45:45+01:00</time>
      </trkpt>
      <trkpt lat="44.92659" lon="5.14708">
        <ele>705</ele>
        <time>2022-02-18T12:45:51+01:00</time>
      </trkpt>
      <trkpt lat="44.9266" lon="5.14701">
        <ele>705</ele>
        <time>2022-02-18T12:45:56+01:00</time>
      </trkpt>
      <trkpt lat="44.9266" lon="5.14696">
        <ele>705</ele>
        <time>2022-02-18T12:46:00+01:00</time>
      </trkpt>
      <trkpt lat="44.92657" lon="5.14665">
        <ele>704</ele>
        <time>2022-02-18T12:46:23+01:00</time>
      </trkpt>
      <trkpt lat="44.92656" lon="5.1466">
        <ele>703</ele>
        <time>2022-02-18T12:46:27+01:00</time>
      </trkpt>
      <trkpt lat="44.92653" lon="5.14651">
        <ele>702</ele>
        <time>2022-02-18T12:46:35+01:00</time>
      </trkpt>
      <trkpt lat="44.9265" lon="5.14633">
        <ele>700</ele>
        <time>2022-02-18T12:46:49+01:00</time>
      </trkpt>
      <trkpt lat="44.9265" lon="5.14628">
        <ele>700</ele>
        <time>2022-02-18T12:46:54+01:00</time>
      </trkpt>
      <trkpt lat="44.92648" lon="5.14612">
        <ele>698</ele>
        <time>2022-02-18T12:47:11+01:00</time>
      </trkpt>
      <trkpt lat="44.92647" lon="5.14607">
        <ele>698</ele>
        <time>2022-02-18T12:47:15+01:00</time>
      </trkpt>
      <trkpt lat="44.92646" lon="5.14601">
        <ele>697</ele>
        <time>2022-02-18T12:47:21+01:00</time>
      </trkpt>
      <trkpt lat="44.92646" lon="5.14594">
        <ele>696</ele>
        <time>2022-02-18T12:47:26+01:00</time>
      </trkpt>
      <trkpt lat="44.92645" lon="5.14587">
        <ele>695</ele>
        <time>2022-02-18T12:47:31+01:00</time>
      </trkpt>
      <trkpt lat="44.92645" lon="5.14581">
        <ele>695</ele>
        <time>2022-02-18T12:47:37+01:00</time>
      </trkpt>
      <trkpt lat="44.92645" lon="5.14575">
        <ele>694</ele>
        <time>2022-02-18T12:47:42+01:00</time>
      </trkpt>
      <trkpt lat="44.92647" lon="5.14562">
        <ele>694</ele>
        <time>2022-02-18T12:47:54+01:00</time>
      </trkpt>
      <trkpt lat="44.92649" lon="5.14555">
        <ele>694</ele>
        <time>2022-02-18T12:48:00+01:00</time>
      </trkpt>
      <trkpt lat="44.9265" lon="5.1455">
        <ele>694</ele>
        <time>2022-02-18T12:48:05+01:00</time>
      </trkpt>
      <trkpt lat="44.92652" lon="5.14545">
        <ele>693</ele>
        <time>2022-02-18T12:48:09+01:00</time>
      </trkpt>
      <trkpt lat="44.92653" lon="5.1454">
        <ele>693</ele>
        <time>2022-02-18T12:48:14+01:00</time>
      </trkpt>
      <trkpt lat="44.92653" lon="5.14534">
        <ele>692</ele>
        <time>2022-02-18T12:48:18+01:00</time>
      </trkpt>
      <trkpt lat="44.92654" lon="5.14528">
        <ele>692</ele>
        <time>2022-02-18T12:48:24+01:00</time>
      </trkpt>
      <trkpt lat="44.92656" lon="5.14524">
        <ele>692</ele>
        <time>2022-02-18T12:48:29+01:00</time>
      </trkpt>
      <trkpt lat="44.92664" lon="5.14509">
        <ele>692</ele>
        <time>2022-02-18T12:48:46+01:00</time>
      </trkpt>
      <trkpt lat="44.92665" lon="5.14504">
        <ele>691</ele>
        <time>2022-02-18T12:48:50+01:00</time>
      </trkpt>
      <trkpt lat="44.92666" lon="5.14498">
        <ele>691</ele>
        <time>2022-02-18T12:48:57+01:00</time>
      </trkpt>
      <trkpt lat="44.92668" lon="5.14484">
        <ele>690</ele>
        <time>2022-02-18T12:49:06+01:00</time>
      </trkpt>
      <trkpt lat="44.92667" lon="5.14477">
        <ele>689</ele>
        <time>2022-02-18T12:49:12+01:00</time>
      </trkpt>
      <trkpt lat="44.92666" lon="5.14473">
        <ele>688</ele>
        <time>2022-02-18T12:49:22+01:00</time>
      </trkpt>
      <trkpt lat="44.92667" lon="5.14468">
        <ele>688</ele>
        <time>2022-02-18T12:50:14+01:00</time>
      </trkpt>
      <trkpt lat="44.92666" lon="5.14461">
        <ele>687</ele>
        <time>2022-02-18T12:51:09+01:00</time>
      </trkpt>
      <trkpt lat="44.92657" lon="5.14443">
        <ele>684</ele>
        <time>2022-02-18T12:51:27+01:00</time>
      </trkpt>
      <trkpt lat="44.92655" lon="5.1444">
        <ele>683</ele>
        <time>2022-02-18T12:51:31+01:00</time>
      </trkpt>
      <trkpt lat="44.92651" lon="5.14435">
        <ele>682</ele>
        <time>2022-02-18T12:51:37+01:00</time>
      </trkpt>
      <trkpt lat="44.9265" lon="5.14428">
        <ele>681</ele>
        <time>2022-02-18T12:51:44+01:00</time>
      </trkpt>
      <trkpt lat="44.92647" lon="5.14422">
        <ele>680</ele>
        <time>2022-02-18T12:51:50+01:00</time>
      </trkpt>
      <trkpt lat="44.92645" lon="5.14416">
        <ele>680</ele>
        <time>2022-02-18T12:51:56+01:00</time>
      </trkpt>
      <trkpt lat="44.92638" lon="5.144">
        <ele>677</ele>
        <time>2022-02-18T12:52:14+01:00</time>
      </trkpt>
      <trkpt lat="44.92638" lon="5.14394">
        <ele>676</ele>
        <time>2022-02-18T12:52:19+01:00</time>
      </trkpt>
      <trkpt lat="44.92634" lon="5.1439">
        <ele>675</ele>
        <time>2022-02-18T12:52:25+01:00</time>
      </trkpt>
      <trkpt lat="44.9263" lon="5.14389">
        <ele>674</ele>
        <time>2022-02-18T12:52:30+01:00</time>
      </trkpt>
      <trkpt lat="44.92628" lon="5.14385">
        <ele>672</ele>
        <time>2022-02-18T12:52:34+01:00</time>
      </trkpt>
      <trkpt lat="44.92625" lon="5.1438">
        <ele>671</ele>
        <time>2022-02-18T12:52:38+01:00</time>
      </trkpt>
      <trkpt lat="44.92624" lon="5.14366">
        <ele>668</ele>
        <time>2022-02-18T12:52:57+01:00</time>
      </trkpt>
      <trkpt lat="44.92624" lon="5.14361">
        <ele>668</ele>
        <time>2022-02-18T12:53:03+01:00</time>
      </trkpt>
      <trkpt lat="44.92626" lon="5.14356">
        <ele>667</ele>
        <time>2022-02-18T12:53:14+01:00</time>
      </trkpt>
      <trkpt lat="44.92628" lon="5.14351">
        <ele>666</ele>
        <time>2022-02-18T12:53:22+01:00</time>
      </trkpt>
      <trkpt lat="44.92637" lon="5.14327">
        <ele>659</ele>
        <time>2022-02-18T12:53:44+01:00</time>
      </trkpt>
      <trkpt lat="44.92627" lon="5.14315">
        <ele>655</ele>
        <time>2022-02-18T12:53:59+01:00</time>
      </trkpt>
      <trkpt lat="44.92621" lon="5.14295">
        <ele>649</ele>
        <time>2022-02-18T12:54:16+01:00</time>
      </trkpt>
      <trkpt lat="44.92612" lon="5.14297">
        <ele>651</ele>
        <time>2022-02-18T12:54:48+01:00</time>
      </trkpt>
      <trkpt lat="44.92587" lon="5.14332">
        <ele>644</ele>
        <time>2022-02-18T12:55:28+01:00</time>
      </trkpt>
      <trkpt lat="44.92584" lon="5.14293">
        <ele>633</ele>
        <time>2022-02-18T12:56:00+01:00</time>
      </trkpt>
      <trkpt lat="44.92584" lon="5.14264">
        <ele>625</ele>
        <time>2022-02-18T12:56:23+01:00</time>
      </trkpt>
      <trkpt lat="44.92599" lon="5.14225">
        <ele>619</ele>
        <time>2022-02-18T12:59:01+01:00</time>
      </trkpt>
      <trkpt lat="44.92604" lon="5.14221">
        <ele>620</ele>
        <time>2022-02-18T12:59:27+01:00</time>
      </trkpt>
      <trkpt lat="44.92607" lon="5.14216">
        <ele>620</ele>
        <time>2022-02-18T12:59:38+01:00</time>
      </trkpt>
      <trkpt lat="44.9261" lon="5.1421">
        <ele>619</ele>
        <time>2022-02-18T12:59:48+01:00</time>
      </trkpt>
      <trkpt lat="44.92611" lon="5.14203">
        <ele>617</ele>
        <time>2022-02-18T12:59:56+01:00</time>
      </trkpt>
      <trkpt lat="44.92613" lon="5.14196">
        <ele>615</ele>
        <time>2022-02-18T13:00:03+01:00</time>
      </trkpt>
      <trkpt lat="44.92616" lon="5.1419">
        <ele>612</ele>
        <time>2022-02-18T13:00:10+01:00</time>
      </trkpt>
      <trkpt lat="44.92615" lon="5.14185">
        <ele>612</ele>
        <time>2022-02-18T13:00:17+01:00</time>
      </trkpt>
      <trkpt lat="44.92615" lon="5.14172">
        <ele>609</ele>
        <time>2022-02-18T13:00:29+01:00</time>
      </trkpt>
      <trkpt lat="44.92611" lon="5.1416">
        <ele>607</ele>
        <time>2022-02-18T13:00:44+01:00</time>
      </trkpt>
      <trkpt lat="44.92608" lon="5.14155">
        <ele>606</ele>
        <time>2022-02-18T13:00:52+01:00</time>
      </trkpt>
      <trkpt lat="44.92604" lon="5.1415">
        <ele>604</ele>
        <time>2022-02-18T13:00:58+01:00</time>
      </trkpt>
      <trkpt lat="44.926" lon="5.14148">
        <ele>602</ele>
        <time>2022-02-18T13:01:03+01:00</time>
      </trkpt>
      <trkpt lat="44.92599" lon="5.14142">
        <ele>601</ele>
        <time>2022-02-18T13:01:10+01:00</time>
      </trkpt>
      <trkpt lat="44.92597" lon="5.14138">
        <ele>599</ele>
        <time>2022-02-18T13:01:14+01:00</time>
      </trkpt>
      <trkpt lat="44.92596" lon="5.14132">
        <ele>597</ele>
        <time>2022-02-18T13:01:24+01:00</time>
      </trkpt>
      <trkpt lat="44.92594" lon="5.1413">
        <ele>597</ele>
        <time>2022-02-18T13:02:21+01:00</time>
      </trkpt>
      <trkpt lat="44.92595" lon="5.1413">
        <ele>597</ele>
        <time>2022-02-18T13:03:03+01:00</time>
      </trkpt>
      <trkpt lat="44.92597" lon="5.14125">
        <ele>596</ele>
        <time>2022-02-18T13:03:10+01:00</time>
      </trkpt>
      <trkpt lat="44.92598" lon="5.1412">
        <ele>595</ele>
        <time>2022-02-18T13:03:16+01:00</time>
      </trkpt>
      <trkpt lat="44.926" lon="5.14115">
        <ele>594</ele>
        <time>2022-02-18T13:03:24+01:00</time>
      </trkpt>
      <trkpt lat="44.92601" lon="5.1411">
        <ele>593</ele>
        <time>2022-02-18T13:03:31+01:00</time>
      </trkpt>
      <trkpt lat="44.92603" lon="5.14106">
        <ele>592</ele>
        <time>2022-02-18T13:03:44+01:00</time>
      </trkpt>
      <trkpt lat="44.92607" lon="5.14106">
        <ele>593</ele>
        <time>2022-02-18T13:03:51+01:00</time>
      </trkpt>
      <trkpt lat="44.92611" lon="5.14102">
        <ele>592</ele>
        <time>2022-02-18T13:03:58+01:00</time>
      </trkpt>
      <trkpt lat="44.92611" lon="5.14097">
        <ele>591</ele>
        <time>2022-02-18T13:04:04+01:00</time>
      </trkpt>
      <trkpt lat="44.9261" lon="5.14092">
        <ele>589</ele>
        <time>2022-02-18T13:04:13+01:00</time>
      </trkpt>
      <trkpt lat="44.92606" lon="5.14081">
        <ele>586</ele>
        <time>2022-02-18T13:04:27+01:00</time>
      </trkpt>
      <trkpt lat="44.92603" lon="5.1408">
        <ele>585</ele>
        <time>2022-02-18T13:04:33+01:00</time>
      </trkpt>
      <trkpt lat="44.926" lon="5.14076">
        <ele>584</ele>
        <time>2022-02-18T13:04:39+01:00</time>
      </trkpt>
      <trkpt lat="44.92596" lon="5.14071">
        <ele>583</ele>
        <time>2022-02-18T13:04:47+01:00</time>
      </trkpt>
      <trkpt lat="44.92591" lon="5.14055">
        <ele>579</ele>
        <time>2022-02-18T13:05:21+01:00</time>
      </trkpt>
      <trkpt lat="44.92585" lon="5.14055">
        <ele>579</ele>
        <time>2022-02-18T13:05:34+01:00</time>
      </trkpt>
      <trkpt lat="44.92578" lon="5.14046">
        <ele>576</ele>
        <time>2022-02-18T13:05:45+01:00</time>
      </trkpt>
      <trkpt lat="44.92574" lon="5.14044">
        <ele>575</ele>
        <time>2022-02-18T13:05:56+01:00</time>
      </trkpt>
      <trkpt lat="44.9257" lon="5.14044">
        <ele>575</ele>
        <time>2022-02-18T13:06:01+01:00</time>
      </trkpt>
      <trkpt lat="44.92565" lon="5.14054">
        <ele>574</ele>
        <time>2022-02-18T13:06:12+01:00</time>
      </trkpt>
      <trkpt lat="44.92561" lon="5.14064">
        <ele>573</ele>
        <time>2022-02-18T13:06:23+01:00</time>
      </trkpt>
      <trkpt lat="44.92558" lon="5.14068">
        <ele>573</ele>
        <time>2022-02-18T13:06:28+01:00</time>
      </trkpt>
      <trkpt lat="44.92556" lon="5.14073">
        <ele>572</ele>
        <time>2022-02-18T13:06:34+01:00</time>
      </trkpt>
      <trkpt lat="44.92556" lon="5.14079">
        <ele>571</ele>
        <time>2022-02-18T13:06:45+01:00</time>
      </trkpt>
      <trkpt lat="44.92554" lon="5.14085">
        <ele>570</ele>
        <time>2022-02-18T13:07:17+01:00</time>
      </trkpt>
      <trkpt lat="44.92544" lon="5.14113">
        <ele>568</ele>
        <time>2022-02-18T13:07:50+01:00</time>
      </trkpt>
      <trkpt lat="44.92543" lon="5.14118">
        <ele>568</ele>
        <time>2022-02-18T13:07:57+01:00</time>
      </trkpt>
      <trkpt lat="44.92539" lon="5.14127">
        <ele>567</ele>
        <time>2022-02-18T13:08:07+01:00</time>
      </trkpt>
      <trkpt lat="44.92536" lon="5.14129">
        <ele>565</ele>
        <time>2022-02-18T13:08:12+01:00</time>
      </trkpt>
      <trkpt lat="44.92534" lon="5.14133">
        <ele>565</ele>
        <time>2022-02-18T13:08:15+01:00</time>
      </trkpt>
      <trkpt lat="44.92533" lon="5.14138">
        <ele>565</ele>
        <time>2022-02-18T13:08:19+01:00</time>
      </trkpt>
      <trkpt lat="44.92531" lon="5.14144">
        <ele>565</ele>
        <time>2022-02-18T13:08:24+01:00</time>
      </trkpt>
      <trkpt lat="44.9253" lon="5.14151">
        <ele>565</ele>
        <time>2022-02-18T13:08:30+01:00</time>
      </trkpt>
      <trkpt lat="44.92528" lon="5.14157">
        <ele>566</ele>
        <time>2022-02-18T13:08:36+01:00</time>
      </trkpt>
      <trkpt lat="44.92527" lon="5.14163">
        <ele>566</ele>
        <time>2022-02-18T13:08:42+01:00</time>
      </trkpt>
      <trkpt lat="44.92523" lon="5.14175">
        <ele>565</ele>
        <time>2022-02-18T13:08:50+01:00</time>
      </trkpt>
      <trkpt lat="44.9252" lon="5.1418">
        <ele>564</ele>
        <time>2022-02-18T13:08:55+01:00</time>
      </trkpt>
      <trkpt lat="44.92519" lon="5.14186">
        <ele>564</ele>
        <time>2022-02-18T13:09:02+01:00</time>
      </trkpt>
      <trkpt lat="44.92518" lon="5.1419">
        <ele>564</ele>
        <time>2022-02-18T13:09:08+01:00</time>
      </trkpt>
      <trkpt lat="44.92519" lon="5.14195">
        <ele>565</ele>
        <time>2022-02-18T13:09:19+01:00</time>
      </trkpt>
      <trkpt lat="44.92518" lon="5.14196">
        <ele>565</ele>
        <time>2022-02-18T13:10:25+01:00</time>
      </trkpt>
      <trkpt lat="44.92515" lon="5.142">
        <ele>564</ele>
        <time>2022-02-18T13:10:53+01:00</time>
      </trkpt>
      <trkpt lat="44.92511" lon="5.14211">
        <ele>562</ele>
        <time>2022-02-18T13:11:06+01:00</time>
      </trkpt>
      <trkpt lat="44.92507" lon="5.14214">
        <ele>560</ele>
        <time>2022-02-18T13:11:18+01:00</time>
      </trkpt>
      <trkpt lat="44.92503" lon="5.14219">
        <ele>559</ele>
        <time>2022-02-18T13:11:27+01:00</time>
      </trkpt>
      <trkpt lat="44.92501" lon="5.14223">
        <ele>557</ele>
        <time>2022-02-18T13:11:35+01:00</time>
      </trkpt>
      <trkpt lat="44.92498" lon="5.14228">
        <ele>556</ele>
        <time>2022-02-18T13:11:39+01:00</time>
      </trkpt>
      <trkpt lat="44.92494" lon="5.14244">
        <ele>556</ele>
        <time>2022-02-18T13:12:00+01:00</time>
      </trkpt>
      <trkpt lat="44.92492" lon="5.1425">
        <ele>556</ele>
        <time>2022-02-18T13:12:08+01:00</time>
      </trkpt>
      <trkpt lat="44.92491" lon="5.14256">
        <ele>557</ele>
        <time>2022-02-18T13:12:14+01:00</time>
      </trkpt>
      <trkpt lat="44.92489" lon="5.14264">
        <ele>557</ele>
        <time>2022-02-18T13:12:20+01:00</time>
      </trkpt>
      <trkpt lat="44.9249" lon="5.14271">
        <ele>560</ele>
        <time>2022-02-18T13:12:27+01:00</time>
      </trkpt>
      <trkpt lat="44.92489" lon="5.14278">
        <ele>561</ele>
        <time>2022-02-18T13:12:33+01:00</time>
      </trkpt>
      <trkpt lat="44.92482" lon="5.14288">
        <ele>558</ele>
        <time>2022-02-18T13:12:48+01:00</time>
      </trkpt>
      <trkpt lat="44.9248" lon="5.14294">
        <ele>558</ele>
        <time>2022-02-18T13:12:53+01:00</time>
      </trkpt>
      <trkpt lat="44.92478" lon="5.14301">
        <ele>559</ele>
        <time>2022-02-18T13:12:58+01:00</time>
      </trkpt>
      <trkpt lat="44.92476" lon="5.14306">
        <ele>558</ele>
        <time>2022-02-18T13:13:03+01:00</time>
      </trkpt>
      <trkpt lat="44.92475" lon="5.14313">
        <ele>559</ele>
        <time>2022-02-18T13:13:12+01:00</time>
      </trkpt>
      <trkpt lat="44.92473" lon="5.14318">
        <ele>558</ele>
        <time>2022-02-18T13:13:23+01:00</time>
      </trkpt>
      <trkpt lat="44.9247" lon="5.14319">
        <ele>559</ele>
        <time>2022-02-18T13:13:27+01:00</time>
      </trkpt>
      <trkpt lat="44.92472" lon="5.14324">
        <ele>559</ele>
        <time>2022-02-18T13:13:39+01:00</time>
      </trkpt>
      <trkpt lat="44.92472" lon="5.1432">
        <ele>558</ele>
        <time>2022-02-18T13:14:01+01:00</time>
      </trkpt>
      <trkpt lat="44.92468" lon="5.14317">
        <ele>559</ele>
        <time>2022-02-18T13:14:05+01:00</time>
      </trkpt>
      <trkpt lat="44.92465" lon="5.14314">
        <ele>559</ele>
        <time>2022-02-18T13:14:14+01:00</time>
      </trkpt>
      <trkpt lat="44.92462" lon="5.14309">
        <ele>559</ele>
        <time>2022-02-18T13:14:17+01:00</time>
      </trkpt>
      <trkpt lat="44.9246" lon="5.14306">
        <ele>560</ele>
        <time>2022-02-18T13:14:31+01:00</time>
      </trkpt>
      <trkpt lat="44.92459" lon="5.143">
        <ele>559</ele>
        <time>2022-02-18T13:14:47+01:00</time>
      </trkpt>
      <trkpt lat="44.92459" lon="5.14295">
        <ele>558</ele>
        <time>2022-02-18T13:14:53+01:00</time>
      </trkpt>
      <trkpt lat="44.92456" lon="5.14291">
        <ele>558</ele>
        <time>2022-02-18T13:14:57+01:00</time>
      </trkpt>
      <trkpt lat="44.92455" lon="5.14285">
        <ele>558</ele>
        <time>2022-02-18T13:15:00+01:00</time>
      </trkpt>
      <trkpt lat="44.92451" lon="5.14267">
        <ele>556</ele>
        <time>2022-02-18T13:15:12+01:00</time>
      </trkpt>
      <trkpt lat="44.9245" lon="5.14261">
        <ele>554</ele>
        <time>2022-02-18T13:15:16+01:00</time>
      </trkpt>
      <trkpt lat="44.92449" lon="5.14255">
        <ele>554</ele>
        <time>2022-02-18T13:15:27+01:00</time>
      </trkpt>
      <trkpt lat="44.92448" lon="5.1425">
        <ele>553</ele>
        <time>2022-02-18T13:15:31+01:00</time>
      </trkpt>
      <trkpt lat="44.92445" lon="5.14246">
        <ele>553</ele>
        <time>2022-02-18T13:15:34+01:00</time>
      </trkpt>
      <trkpt lat="44.92446" lon="5.14237">
        <ele>550</ele>
        <time>2022-02-18T13:15:42+01:00</time>
      </trkpt>
      <trkpt lat="44.92445" lon="5.1423">
        <ele>549</ele>
        <time>2022-02-18T13:15:48+01:00</time>
      </trkpt>
      <trkpt lat="44.92442" lon="5.14226">
        <ele>550</ele>
        <time>2022-02-18T13:15:55+01:00</time>
      </trkpt>
      <trkpt lat="44.92441" lon="5.1422">
        <ele>549</ele>
        <time>2022-02-18T13:16:04+01:00</time>
      </trkpt>
      <trkpt lat="44.92444" lon="5.14216">
        <ele>547</ele>
        <time>2022-02-18T13:16:09+01:00</time>
      </trkpt>
      <trkpt lat="44.92443" lon="5.14211">
        <ele>545</ele>
        <time>2022-02-18T13:16:13+01:00</time>
      </trkpt>
      <trkpt lat="44.92442" lon="5.14205">
        <ele>545</ele>
        <time>2022-02-18T13:16:17+01:00</time>
      </trkpt>
      <trkpt lat="44.92442" lon="5.14198">
        <ele>542</ele>
        <time>2022-02-18T13:16:22+01:00</time>
      </trkpt>
      <trkpt lat="44.92439" lon="5.14187">
        <ele>541</ele>
        <time>2022-02-18T13:16:30+01:00</time>
      </trkpt>
      <trkpt lat="44.92438" lon="5.14181">
        <ele>541</ele>
        <time>2022-02-18T13:16:34+01:00</time>
      </trkpt>
      <trkpt lat="44.92434" lon="5.14176">
        <ele>542</ele>
        <time>2022-02-18T13:16:37+01:00</time>
      </trkpt>
      <trkpt lat="44.92432" lon="5.14171">
        <ele>542</ele>
        <time>2022-02-18T13:16:41+01:00</time>
      </trkpt>
      <trkpt lat="44.92431" lon="5.14165">
        <ele>541</ele>
        <time>2022-02-18T13:16:45+01:00</time>
      </trkpt>
      <trkpt lat="44.92429" lon="5.14158">
        <ele>542</ele>
        <time>2022-02-18T13:16:50+01:00</time>
      </trkpt>
      <trkpt lat="44.92427" lon="5.14153">
        <ele>542</ele>
        <time>2022-02-18T13:16:53+01:00</time>
      </trkpt>
      <trkpt lat="44.92427" lon="5.14149">
        <ele>542</ele>
        <time>2022-02-18T13:16:56+01:00</time>
      </trkpt>
      <trkpt lat="44.92427" lon="5.14143">
        <ele>542</ele>
        <time>2022-02-18T13:17:00+01:00</time>
      </trkpt>
      <trkpt lat="44.92425" lon="5.14139">
        <ele>542</ele>
        <time>2022-02-18T13:17:02+01:00</time>
      </trkpt>
      <trkpt lat="44.92426" lon="5.1413">
        <ele>541</ele>
        <time>2022-02-18T13:17:08+01:00</time>
      </trkpt>
      <trkpt lat="44.92424" lon="5.14121">
        <ele>541</ele>
        <time>2022-02-18T13:17:15+01:00</time>
      </trkpt>
      <trkpt lat="44.92423" lon="5.14117">
        <ele>541</ele>
        <time>2022-02-18T13:17:19+01:00</time>
      </trkpt>
      <trkpt lat="44.92423" lon="5.14113">
        <ele>540</ele>
        <time>2022-02-18T13:17:24+01:00</time>
      </trkpt>
      <trkpt lat="44.92422" lon="5.14099">
        <ele>539</ele>
        <time>2022-02-18T13:17:33+01:00</time>
      </trkpt>
      <trkpt lat="44.9242" lon="5.14094">
        <ele>538</ele>
        <time>2022-02-18T13:17:36+01:00</time>
      </trkpt>
      <trkpt lat="44.9242" lon="5.14084">
        <ele>536</ele>
        <time>2022-02-18T13:17:44+01:00</time>
      </trkpt>
      <trkpt lat="44.92411" lon="5.14054">
        <ele>534</ele>
        <time>2022-02-18T13:18:01+01:00</time>
      </trkpt>
      <trkpt lat="44.92407" lon="5.14047">
        <ele>534</ele>
        <time>2022-02-18T13:18:07+01:00</time>
      </trkpt>
      <trkpt lat="44.92391" lon="5.14033">
        <ele>534</ele>
        <time>2022-02-18T13:18:22+01:00</time>
      </trkpt>
      <trkpt lat="44.92386" lon="5.1403">
        <ele>534</ele>
        <time>2022-02-18T13:18:26+01:00</time>
      </trkpt>
      <trkpt lat="44.92383" lon="5.1403">
        <ele>535</ele>
        <time>2022-02-18T13:18:28+01:00</time>
      </trkpt>
      <trkpt lat="44.92382" lon="5.14027">
        <ele>534</ele>
        <time>2022-02-18T13:18:32+01:00</time>
      </trkpt>
      <trkpt lat="44.92379" lon="5.14026">
        <ele>535</ele>
        <time>2022-02-18T13:18:35+01:00</time>
      </trkpt>
      <trkpt lat="44.92376" lon="5.14025">
        <ele>535</ele>
        <time>2022-02-18T13:18:39+01:00</time>
      </trkpt>
      <trkpt lat="44.92371" lon="5.14023">
        <ele>535</ele>
        <time>2022-02-18T13:19:12+01:00</time>
      </trkpt>
      <trkpt lat="44.92366" lon="5.14017">
        <ele>534</ele>
        <time>2022-02-18T13:19:25+01:00</time>
      </trkpt>
      <trkpt lat="44.92346" lon="5.13993">
        <ele>528</ele>
        <time>2022-02-18T13:19:55+01:00</time>
      </trkpt>
      <trkpt lat="44.92322" lon="5.13987">
        <ele>527</ele>
        <time>2022-02-18T13:20:22+01:00</time>
      </trkpt>
      <trkpt lat="44.92291" lon="5.13993">
        <ele>525</ele>
        <time>2022-02-18T13:20:58+01:00</time>
      </trkpt>
      <trkpt lat="44.9227" lon="5.14015">
        <ele>526</ele>
        <time>2022-02-18T13:21:38+01:00</time>
      </trkpt>
      <trkpt lat="44.92262" lon="5.14033">
        <ele>528</ele>
        <time>2022-02-18T13:22:16+01:00</time>
      </trkpt>
      <trkpt lat="44.92255" lon="5.14041">
        <ele>528</ele>
        <time>2022-02-18T13:22:26+01:00</time>
      </trkpt>
      <trkpt lat="44.92228" lon="5.14067">
        <ele>532</ele>
        <time>2022-02-18T13:23:44+01:00</time>
      </trkpt>
      <trkpt lat="44.9222" lon="5.14071">
        <ele>532</ele>
        <time>2022-02-18T13:23:53+01:00</time>
      </trkpt>
      <trkpt lat="44.92213" lon="5.14074">
        <ele>533</ele>
        <time>2022-02-18T13:24:13+01:00</time>
      </trkpt>
      <trkpt lat="44.92198" lon="5.14094">
        <ele>535</ele>
        <time>2022-02-18T13:24:57+01:00</time>
      </trkpt>
      <trkpt lat="44.92188" lon="5.14091">
        <ele>538</ele>
        <time>2022-02-18T13:25:39+01:00</time>
      </trkpt>
      <trkpt lat="44.92186" lon="5.14076">
        <ele>540</ele>
        <time>2022-02-18T13:28:51+01:00</time>
      </trkpt>
      <trkpt lat="44.92192" lon="5.14067">
        <ele>537</ele>
        <time>2022-02-18T13:29:03+01:00</time>
      </trkpt>
      <trkpt lat="44.92198" lon="5.14067">
        <ele>535</ele>
        <time>2022-02-18T13:29:07+01:00</time>
      </trkpt>
      <trkpt lat="44.922" lon="5.14062">
        <ele>535</ele>
        <time>2022-02-18T13:29:15+01:00</time>
      </trkpt>
      <trkpt lat="44.92206" lon="5.14054">
        <ele>534</ele>
        <time>2022-02-18T13:29:30+01:00</time>
      </trkpt>
      <trkpt lat="44.92209" lon="5.1405">
        <ele>533</ele>
        <time>2022-02-18T13:29:34+01:00</time>
      </trkpt>
      <trkpt lat="44.92211" lon="5.14035">
        <ele>534</ele>
        <time>2022-02-18T13:29:47+01:00</time>
      </trkpt>
      <trkpt lat="44.92212" lon="5.14031">
        <ele>533</ele>
        <time>2022-02-18T13:29:50+01:00</time>
      </trkpt>
      <trkpt lat="44.92213" lon="5.14024">
        <ele>533</ele>
        <time>2022-02-18T13:29:53+01:00</time>
      </trkpt>
      <trkpt lat="44.92214" lon="5.14019">
        <ele>533</ele>
        <time>2022-02-18T13:29:59+01:00</time>
      </trkpt>
      <trkpt lat="44.92217" lon="5.14015">
        <ele>532</ele>
        <time>2022-02-18T13:30:05+01:00</time>
      </trkpt>
      <trkpt lat="44.92219" lon="5.14009">
        <ele>532</ele>
        <time>2022-02-18T13:30:10+01:00</time>
      </trkpt>
      <trkpt lat="44.92221" lon="5.14">
        <ele>532</ele>
        <time>2022-02-18T13:30:21+01:00</time>
      </trkpt>
      <trkpt lat="44.92223" lon="5.13995">
        <ele>532</ele>
        <time>2022-02-18T13:30:27+01:00</time>
      </trkpt>
      <trkpt lat="44.92224" lon="5.1399">
        <ele>531</ele>
        <time>2022-02-18T13:30:31+01:00</time>
      </trkpt>
      <trkpt lat="44.92226" lon="5.13985">
        <ele>531</ele>
        <time>2022-02-18T13:30:35+01:00</time>
      </trkpt>
      <trkpt lat="44.92226" lon="5.13981">
        <ele>532</ele>
        <time>2022-02-18T13:30:38+01:00</time>
      </trkpt>
      <trkpt lat="44.92226" lon="5.13971">
        <ele>534</ele>
        <time>2022-02-18T13:30:45+01:00</time>
      </trkpt>
      <trkpt lat="44.92228" lon="5.13959">
        <ele>534</ele>
        <time>2022-02-18T13:30:53+01:00</time>
      </trkpt>
      <trkpt lat="44.92229" lon="5.13955">
        <ele>534</ele>
        <time>2022-02-18T13:30:57+01:00</time>
      </trkpt>
      <trkpt lat="44.92231" lon="5.13952">
        <ele>534</ele>
        <time>2022-02-18T13:31:01+01:00</time>
      </trkpt>
      <trkpt lat="44.92231" lon="5.13948">
        <ele>535</ele>
        <time>2022-02-18T13:31:06+01:00</time>
      </trkpt>
      <trkpt lat="44.92234" lon="5.13941">
        <ele>535</ele>
        <time>2022-02-18T13:31:12+01:00</time>
      </trkpt>
      <trkpt lat="44.92234" lon="5.13935">
        <ele>536</ele>
        <time>2022-02-18T13:31:16+01:00</time>
      </trkpt>
      <trkpt lat="44.92235" lon="5.13933">
        <ele>536</ele>
        <time>2022-02-18T13:31:18+01:00</time>
      </trkpt>
      <trkpt lat="44.92236" lon="5.13928">
        <ele>536</ele>
        <time>2022-02-18T13:31:22+01:00</time>
      </trkpt>
      <trkpt lat="44.92239" lon="5.13923">
        <ele>536</ele>
        <time>2022-02-18T13:31:29+01:00</time>
      </trkpt>
      <trkpt lat="44.9224" lon="5.13919">
        <ele>536</ele>
        <time>2022-02-18T13:31:32+01:00</time>
      </trkpt>
      <trkpt lat="44.92241" lon="5.13916">
        <ele>537</ele>
        <time>2022-02-18T13:31:35+01:00</time>
      </trkpt>
      <trkpt lat="44.92242" lon="5.13912">
        <ele>537</ele>
        <time>2022-02-18T13:31:39+01:00</time>
      </trkpt>
      <trkpt lat="44.92246" lon="5.13899">
        <ele>539</ele>
        <time>2022-02-18T13:31:53+01:00</time>
      </trkpt>
      <trkpt lat="44.92249" lon="5.13892">
        <ele>540</ele>
        <time>2022-02-18T13:32:01+01:00</time>
      </trkpt>
      <trkpt lat="44.9225" lon="5.13889">
        <ele>540</ele>
        <time>2022-02-18T13:32:06+01:00</time>
      </trkpt>
      <trkpt lat="44.92251" lon="5.13886">
        <ele>540</ele>
        <time>2022-02-18T13:32:09+01:00</time>
      </trkpt>
      <trkpt lat="44.92264" lon="5.13866">
        <ele>542</ele>
        <time>2022-02-18T13:32:39+01:00</time>
      </trkpt>
      <trkpt lat="44.92265" lon="5.13864">
        <ele>542</ele>
        <time>2022-02-18T13:32:43+01:00</time>
      </trkpt>
      <trkpt lat="44.9227" lon="5.13856">
        <ele>543</ele>
        <time>2022-02-18T13:32:54+01:00</time>
      </trkpt>
      <trkpt lat="44.92272" lon="5.13853">
        <ele>543</ele>
        <time>2022-02-18T13:32:58+01:00</time>
      </trkpt>
      <trkpt lat="44.92273" lon="5.1385">
        <ele>543</ele>
        <time>2022-02-18T13:33:02+01:00</time>
      </trkpt>
      <trkpt lat="44.92275" lon="5.13846">
        <ele>543</ele>
        <time>2022-02-18T13:33:06+01:00</time>
      </trkpt>
      <trkpt lat="44.92276" lon="5.13842">
        <ele>544</ele>
        <time>2022-02-18T13:33:09+01:00</time>
      </trkpt>
      <trkpt lat="44.92276" lon="5.13838">
        <ele>544</ele>
        <time>2022-02-18T13:33:12+01:00</time>
      </trkpt>
      <trkpt lat="44.92278" lon="5.13835">
        <ele>545</ele>
        <time>2022-02-18T13:33:15+01:00</time>
      </trkpt>
      <trkpt lat="44.9228" lon="5.13832">
        <ele>544</ele>
        <time>2022-02-18T13:33:19+01:00</time>
      </trkpt>
      <trkpt lat="44.92283" lon="5.13827">
        <ele>543</ele>
        <time>2022-02-18T13:33:26+01:00</time>
      </trkpt>
      <trkpt lat="44.92285" lon="5.13817">
        <ele>543</ele>
        <time>2022-02-18T13:33:36+01:00</time>
      </trkpt>
      <trkpt lat="44.92285" lon="5.13814">
        <ele>544</ele>
        <time>2022-02-18T13:33:40+01:00</time>
      </trkpt>
      <trkpt lat="44.92286" lon="5.1381">
        <ele>544</ele>
        <time>2022-02-18T13:33:44+01:00</time>
      </trkpt>
      <trkpt lat="44.92286" lon="5.13806">
        <ele>545</ele>
        <time>2022-02-18T13:33:47+01:00</time>
      </trkpt>
      <trkpt lat="44.92286" lon="5.13802">
        <ele>545</ele>
        <time>2022-02-18T13:33:51+01:00</time>
      </trkpt>
      <trkpt lat="44.92286" lon="5.13799">
        <ele>545</ele>
        <time>2022-02-18T13:33:55+01:00</time>
      </trkpt>
      <trkpt lat="44.92287" lon="5.13795">
        <ele>545</ele>
        <time>2022-02-18T13:34:00+01:00</time>
      </trkpt>
      <trkpt lat="44.92288" lon="5.13792">
        <ele>545</ele>
        <time>2022-02-18T13:34:05+01:00</time>
      </trkpt>
      <trkpt lat="44.92289" lon="5.13788">
        <ele>545</ele>
        <time>2022-02-18T13:34:12+01:00</time>
      </trkpt>
      <trkpt lat="44.92289" lon="5.13784">
        <ele>545</ele>
        <time>2022-02-18T13:34:17+01:00</time>
      </trkpt>
      <trkpt lat="44.9229" lon="5.13779">
        <ele>546</ele>
        <time>2022-02-18T13:34:28+01:00</time>
      </trkpt>
      <trkpt lat="44.9229" lon="5.13775">
        <ele>546</ele>
        <time>2022-02-18T13:34:33+01:00</time>
      </trkpt>
      <trkpt lat="44.9229" lon="5.13771">
        <ele>546</ele>
        <time>2022-02-18T13:34:40+01:00</time>
      </trkpt>
      <trkpt lat="44.92291" lon="5.13767">
        <ele>546</ele>
        <time>2022-02-18T13:34:47+01:00</time>
      </trkpt>
      <trkpt lat="44.92292" lon="5.13762">
        <ele>546</ele>
        <time>2022-02-18T13:34:54+01:00</time>
      </trkpt>
      <trkpt lat="44.92293" lon="5.13757">
        <ele>546</ele>
        <time>2022-02-18T13:34:59+01:00</time>
      </trkpt>
      <trkpt lat="44.92294" lon="5.13753">
        <ele>546</ele>
        <time>2022-02-18T13:35:04+01:00</time>
      </trkpt>
      <trkpt lat="44.92295" lon="5.13743">
        <ele>546</ele>
        <time>2022-02-18T13:35:18+01:00</time>
      </trkpt>
      <trkpt lat="44.92296" lon="5.13739">
        <ele>546</ele>
        <time>2022-02-18T13:35:23+01:00</time>
      </trkpt>
      <trkpt lat="44.92296" lon="5.13735">
        <ele>546</ele>
        <time>2022-02-18T13:35:32+01:00</time>
      </trkpt>
      <trkpt lat="44.92295" lon="5.13731">
        <ele>546</ele>
        <time>2022-02-18T13:35:53+01:00</time>
      </trkpt>
      <trkpt lat="44.92309" lon="5.13663">
        <ele>543</ele>
        <time>2022-02-18T13:36:51+01:00</time>
      </trkpt>
      <trkpt lat="44.92345" lon="5.13608">
        <ele>540</ele>
        <time>2022-02-18T13:37:52+01:00</time>
      </trkpt>
      <trkpt lat="44.92397" lon="5.13463">
        <ele>530</ele>
        <time>2022-02-18T13:42:23+01:00</time>
      </trkpt>
      <trkpt lat="44.92396" lon="5.13456">
        <ele>530</ele>
        <time>2022-02-18T13:43:13+01:00</time>
      </trkpt>
      <trkpt lat="44.92418" lon="5.13317">
        <ele>529</ele>
        <time>2022-02-18T13:45:19+01:00</time>
      </trkpt>
      <trkpt lat="44.92427" lon="5.13288">
        <ele>530</ele>
        <time>2022-02-18T13:45:44+01:00</time>
      </trkpt>
      <trkpt lat="44.92437" lon="5.13265">
        <ele>532</ele>
        <time>2022-02-18T13:46:10+01:00</time>
      </trkpt>
      <trkpt lat="44.9244" lon="5.13261">
        <ele>533</ele>
        <time>2022-02-18T13:46:15+01:00</time>
      </trkpt>
      <trkpt lat="44.92441" lon="5.13256">
        <ele>534</ele>
        <time>2022-02-18T13:46:20+01:00</time>
      </trkpt>
      <trkpt lat="44.92444" lon="5.13241">
        <ele>536</ele>
        <time>2022-02-18T13:46:38+01:00</time>
      </trkpt>
      <trkpt lat="44.92444" lon="5.13235">
        <ele>537</ele>
        <time>2022-02-18T13:46:44+01:00</time>
      </trkpt>
      <trkpt lat="44.92444" lon="5.1323">
        <ele>537</ele>
        <time>2022-02-18T13:46:50+01:00</time>
      </trkpt>
      <trkpt lat="44.92445" lon="5.13221">
        <ele>538</ele>
        <time>2022-02-18T13:47:00+01:00</time>
      </trkpt>
      <trkpt lat="44.92446" lon="5.13217">
        <ele>539</ele>
        <time>2022-02-18T13:47:06+01:00</time>
      </trkpt>
      <trkpt lat="44.92446" lon="5.13213">
        <ele>540</ele>
        <time>2022-02-18T13:47:12+01:00</time>
      </trkpt>
      <trkpt lat="44.92445" lon="5.13208">
        <ele>540</ele>
        <time>2022-02-18T13:47:16+01:00</time>
      </trkpt>
      <trkpt lat="44.92445" lon="5.13204">
        <ele>540</ele>
        <time>2022-02-18T13:47:20+01:00</time>
      </trkpt>
      <trkpt lat="44.92444" lon="5.1319">
        <ele>541</ele>
        <time>2022-02-18T13:47:35+01:00</time>
      </trkpt>
      <trkpt lat="44.92442" lon="5.13182">
        <ele>542</ele>
        <time>2022-02-18T13:47:47+01:00</time>
      </trkpt>
      <trkpt lat="44.92442" lon="5.13176">
        <ele>542</ele>
        <time>2022-02-18T13:47:56+01:00</time>
      </trkpt>
      <trkpt lat="44.92441" lon="5.13172">
        <ele>543</ele>
        <time>2022-02-18T13:48:03+01:00</time>
      </trkpt>
      <trkpt lat="44.92442" lon="5.13164">
        <ele>544</ele>
        <time>2022-02-18T13:48:33+01:00</time>
      </trkpt>
      <trkpt lat="44.92442" lon="5.1316">
        <ele>545</ele>
        <time>2022-02-18T13:48:37+01:00</time>
      </trkpt>
      <trkpt lat="44.92441" lon="5.13151">
        <ele>546</ele>
        <time>2022-02-18T13:48:45+01:00</time>
      </trkpt>
      <trkpt lat="44.92441" lon="5.13147">
        <ele>546</ele>
        <time>2022-02-18T13:48:50+01:00</time>
      </trkpt>
      <trkpt lat="44.92442" lon="5.13143">
        <ele>547</ele>
        <time>2022-02-18T13:48:57+01:00</time>
      </trkpt>
      <trkpt lat="44.92443" lon="5.13138">
        <ele>548</ele>
        <time>2022-02-18T13:49:04+01:00</time>
      </trkpt>
      <trkpt lat="44.92444" lon="5.13134">
        <ele>549</ele>
        <time>2022-02-18T13:49:10+01:00</time>
      </trkpt>
      <trkpt lat="44.92443" lon="5.1313">
        <ele>550</ele>
        <time>2022-02-18T13:49:15+01:00</time>
      </trkpt>
      <trkpt lat="44.92443" lon="5.13125">
        <ele>551</ele>
        <time>2022-02-18T13:49:21+01:00</time>
      </trkpt>
      <trkpt lat="44.92442" lon="5.1312">
        <ele>551</ele>
        <time>2022-02-18T13:49:26+01:00</time>
      </trkpt>
      <trkpt lat="44.92442" lon="5.13116">
        <ele>552</ele>
        <time>2022-02-18T13:49:30+01:00</time>
      </trkpt>
      <trkpt lat="44.92443" lon="5.13103">
        <ele>554</ele>
        <time>2022-02-18T13:49:56+01:00</time>
      </trkpt>
      <trkpt lat="44.92444" lon="5.1309">
        <ele>557</ele>
        <time>2022-02-18T13:50:12+01:00</time>
      </trkpt>
      <trkpt lat="44.92442" lon="5.13086">
        <ele>556</ele>
        <time>2022-02-18T13:50:16+01:00</time>
      </trkpt>
      <trkpt lat="44.92443" lon="5.13082">
        <ele>557</ele>
        <time>2022-02-18T13:50:22+01:00</time>
      </trkpt>
      <trkpt lat="44.92444" lon="5.13078">
        <ele>558</ele>
        <time>2022-02-18T13:50:27+01:00</time>
      </trkpt>
      <trkpt lat="44.92443" lon="5.13073">
        <ele>559</ele>
        <time>2022-02-18T13:50:32+01:00</time>
      </trkpt>
      <trkpt lat="44.92441" lon="5.1307">
        <ele>558</ele>
        <time>2022-02-18T13:50:45+01:00</time>
      </trkpt>
      <trkpt lat="44.9244" lon="5.1306">
        <ele>559</ele>
        <time>2022-02-18T13:50:58+01:00</time>
      </trkpt>
      <trkpt lat="44.92439" lon="5.13056">
        <ele>559</ele>
        <time>2022-02-18T13:51:03+01:00</time>
      </trkpt>
      <trkpt lat="44.92439" lon="5.13043">
        <ele>560</ele>
        <time>2022-02-18T13:51:21+01:00</time>
      </trkpt>
      <trkpt lat="44.92439" lon="5.13034">
        <ele>561</ele>
        <time>2022-02-18T13:51:33+01:00</time>
      </trkpt>
      <trkpt lat="44.9244" lon="5.13025">
        <ele>562</ele>
        <time>2022-02-18T13:51:44+01:00</time>
      </trkpt>
      <trkpt lat="44.92439" lon="5.13022">
        <ele>562</ele>
        <time>2022-02-18T13:51:49+01:00</time>
      </trkpt>
      <trkpt lat="44.92439" lon="5.13018">
        <ele>563</ele>
        <time>2022-02-18T13:51:57+01:00</time>
      </trkpt>
      <trkpt lat="44.92438" lon="5.1301">
        <ele>563</ele>
        <time>2022-02-18T13:52:25+01:00</time>
      </trkpt>
      <trkpt lat="44.92437" lon="5.13007">
        <ele>563</ele>
        <time>2022-02-18T13:52:30+01:00</time>
      </trkpt>
      <trkpt lat="44.92438" lon="5.13003">
        <ele>563</ele>
        <time>2022-02-18T13:52:34+01:00</time>
      </trkpt>
      <trkpt lat="44.92436" lon="5.12999">
        <ele>563</ele>
        <time>2022-02-18T13:52:37+01:00</time>
      </trkpt>
      <trkpt lat="44.92437" lon="5.12995">
        <ele>564</ele>
        <time>2022-02-18T13:52:42+01:00</time>
      </trkpt>
      <trkpt lat="44.92437" lon="5.12991">
        <ele>564</ele>
        <time>2022-02-18T13:52:49+01:00</time>
      </trkpt>
      <trkpt lat="44.92438" lon="5.12982">
        <ele>566</ele>
        <time>2022-02-18T13:53:01+01:00</time>
      </trkpt>
      <trkpt lat="44.92439" lon="5.12978">
        <ele>567</ele>
        <time>2022-02-18T13:53:07+01:00</time>
      </trkpt>
      <trkpt lat="44.9244" lon="5.12964">
        <ele>568</ele>
        <time>2022-02-18T13:53:46+01:00</time>
      </trkpt>
      <trkpt lat="44.92438" lon="5.12961">
        <ele>566</ele>
        <time>2022-02-18T13:53:50+01:00</time>
      </trkpt>
      <trkpt lat="44.92438" lon="5.12957">
        <ele>566</ele>
        <time>2022-02-18T13:53:56+01:00</time>
      </trkpt>
      <trkpt lat="44.92438" lon="5.12953">
        <ele>566</ele>
        <time>2022-02-18T13:54:01+01:00</time>
      </trkpt>
      <trkpt lat="44.92438" lon="5.12948">
        <ele>565</ele>
        <time>2022-02-18T13:54:07+01:00</time>
      </trkpt>
      <trkpt lat="44.92439" lon="5.12944">
        <ele>565</ele>
        <time>2022-02-18T13:54:15+01:00</time>
      </trkpt>
      <trkpt lat="44.92441" lon="5.12942">
        <ele>566</ele>
        <time>2022-02-18T13:54:21+01:00</time>
      </trkpt>
      <trkpt lat="44.92443" lon="5.1294">
        <ele>566</ele>
        <time>2022-02-18T13:54:27+01:00</time>
      </trkpt>
      <trkpt lat="44.92445" lon="5.12937">
        <ele>566</ele>
        <time>2022-02-18T13:55:08+01:00</time>
      </trkpt>
      <trkpt lat="44.92449" lon="5.12937">
        <ele>567</ele>
        <time>2022-02-18T13:55:13+01:00</time>
      </trkpt>
      <trkpt lat="44.92452" lon="5.12936">
        <ele>568</ele>
        <time>2022-02-18T13:55:17+01:00</time>
      </trkpt>
      <trkpt lat="44.92456" lon="5.12936">
        <ele>569</ele>
        <time>2022-02-18T13:55:22+01:00</time>
      </trkpt>
      <trkpt lat="44.92466" lon="5.12937">
        <ele>573</ele>
        <time>2022-02-18T13:55:42+01:00</time>
      </trkpt>
      <trkpt lat="44.92474" lon="5.1294">
        <ele>577</ele>
        <time>2022-02-18T13:55:58+01:00</time>
      </trkpt>
      <trkpt lat="44.92483" lon="5.12938">
        <ele>579</ele>
        <time>2022-02-18T13:56:15+01:00</time>
      </trkpt>
      <trkpt lat="44.92487" lon="5.12938">
        <ele>580</ele>
        <time>2022-02-18T13:56:23+01:00</time>
      </trkpt>
      <trkpt lat="44.92491" lon="5.12939">
        <ele>581</ele>
        <time>2022-02-18T13:56:30+01:00</time>
      </trkpt>
      <trkpt lat="44.92494" lon="5.12938">
        <ele>581</ele>
        <time>2022-02-18T13:56:46+01:00</time>
      </trkpt>
      <trkpt lat="44.92497" lon="5.12936">
        <ele>582</ele>
        <time>2022-02-18T13:57:19+01:00</time>
      </trkpt>
      <trkpt lat="44.92509" lon="5.12933">
        <ele>584</ele>
        <time>2022-02-18T13:57:55+01:00</time>
      </trkpt>
      <trkpt lat="44.92513" lon="5.12934">
        <ele>586</ele>
        <time>2022-02-18T13:58:02+01:00</time>
      </trkpt>
      <trkpt lat="44.92519" lon="5.12929">
        <ele>586</ele>
        <time>2022-02-18T13:58:32+01:00</time>
      </trkpt>
      <trkpt lat="44.92522" lon="5.12925">
        <ele>586</ele>
        <time>2022-02-18T13:58:39+01:00</time>
      </trkpt>
      <trkpt lat="44.92528" lon="5.12921">
        <ele>586</ele>
        <time>2022-02-18T13:58:56+01:00</time>
      </trkpt>
      <trkpt lat="44.92531" lon="5.12918">
        <ele>587</ele>
        <time>2022-02-18T13:59:07+01:00</time>
      </trkpt>
      <trkpt lat="44.92533" lon="5.12915">
        <ele>587</ele>
        <time>2022-02-18T13:59:14+01:00</time>
      </trkpt>
      <trkpt lat="44.92536" lon="5.12911">
        <ele>588</ele>
        <time>2022-02-18T13:59:24+01:00</time>
      </trkpt>
      <trkpt lat="44.9254" lon="5.1291">
        <ele>590</ele>
        <time>2022-02-18T13:59:35+01:00</time>
      </trkpt>
      <trkpt lat="44.92543" lon="5.12905">
        <ele>590</ele>
        <time>2022-02-18T14:00:18+01:00</time>
      </trkpt>
      <trkpt lat="44.92546" lon="5.12904">
        <ele>592</ele>
        <time>2022-02-18T14:00:23+01:00</time>
      </trkpt>
      <trkpt lat="44.92549" lon="5.12902">
        <ele>593</ele>
        <time>2022-02-18T14:00:30+01:00</time>
      </trkpt>
      <trkpt lat="44.92552" lon="5.12899">
        <ele>594</ele>
        <time>2022-02-18T14:00:42+01:00</time>
      </trkpt>
      <trkpt lat="44.92555" lon="5.12896">
        <ele>595</ele>
        <time>2022-02-18T14:00:48+01:00</time>
      </trkpt>
      <trkpt lat="44.92558" lon="5.12894">
        <ele>595</ele>
        <time>2022-02-18T14:00:55+01:00</time>
      </trkpt>
      <trkpt lat="44.92561" lon="5.12893">
        <ele>596</ele>
        <time>2022-02-18T14:01:05+01:00</time>
      </trkpt>
      <trkpt lat="44.92565" lon="5.12892">
        <ele>597</ele>
        <time>2022-02-18T14:01:10+01:00</time>
      </trkpt>
      <trkpt lat="44.92566" lon="5.12888">
        <ele>597</ele>
        <time>2022-02-18T14:01:17+01:00</time>
      </trkpt>
      <trkpt lat="44.92568" lon="5.12885">
        <ele>597</ele>
        <time>2022-02-18T14:01:36+01:00</time>
      </trkpt>
      <trkpt lat="44.92571" lon="5.12884">
        <ele>598</ele>
        <time>2022-02-18T14:01:45+01:00</time>
      </trkpt>
      <trkpt lat="44.92577" lon="5.1288">
        <ele>600</ele>
        <time>2022-02-18T14:02:01+01:00</time>
      </trkpt>
      <trkpt lat="44.92578" lon="5.12876">
        <ele>600</ele>
        <time>2022-02-18T14:02:06+01:00</time>
      </trkpt>
      <trkpt lat="44.92581" lon="5.12875">
        <ele>601</ele>
        <time>2022-02-18T14:02:13+01:00</time>
      </trkpt>
      <trkpt lat="44.92583" lon="5.12871">
        <ele>601</ele>
        <time>2022-02-18T14:02:29+01:00</time>
      </trkpt>
      <trkpt lat="44.92585" lon="5.12875">
        <ele>601</ele>
        <time>2022-02-18T14:03:04+01:00</time>
      </trkpt>
      <trkpt lat="44.92586" lon="5.1288">
        <ele>601</ele>
        <time>2022-02-18T14:03:09+01:00</time>
      </trkpt>
      <trkpt lat="44.92587" lon="5.12885">
        <ele>602</ele>
        <time>2022-02-18T14:03:14+01:00</time>
      </trkpt>
      <trkpt lat="44.92588" lon="5.12889">
        <ele>602</ele>
        <time>2022-02-18T14:03:18+01:00</time>
      </trkpt>
      <trkpt lat="44.92588" lon="5.12894">
        <ele>602</ele>
        <time>2022-02-18T14:03:24+01:00</time>
      </trkpt>
      <trkpt lat="44.9259" lon="5.12902">
        <ele>602</ele>
        <time>2022-02-18T14:03:31+01:00</time>
      </trkpt>
      <trkpt lat="44.9259" lon="5.12906">
        <ele>602</ele>
        <time>2022-02-18T14:03:36+01:00</time>
      </trkpt>
      <trkpt lat="44.92589" lon="5.1291">
        <ele>602</ele>
        <time>2022-02-18T14:03:42+01:00</time>
      </trkpt>
      <trkpt lat="44.9259" lon="5.12914">
        <ele>603</ele>
        <time>2022-02-18T14:03:48+01:00</time>
      </trkpt>
      <trkpt lat="44.9259" lon="5.12919">
        <ele>603</ele>
        <time>2022-02-18T14:03:57+01:00</time>
      </trkpt>
      <trkpt lat="44.92593" lon="5.12923">
        <ele>602</ele>
        <time>2022-02-18T14:04:03+01:00</time>
      </trkpt>
      <trkpt lat="44.92593" lon="5.12929">
        <ele>602</ele>
        <time>2022-02-18T14:04:07+01:00</time>
      </trkpt>
      <trkpt lat="44.92593" lon="5.12936">
        <ele>603</ele>
        <time>2022-02-18T14:04:11+01:00</time>
      </trkpt>
      <trkpt lat="44.92596" lon="5.12943">
        <ele>602</ele>
        <time>2022-02-18T14:04:17+01:00</time>
      </trkpt>
      <trkpt lat="44.92597" lon="5.12949">
        <ele>602</ele>
        <time>2022-02-18T14:04:22+01:00</time>
      </trkpt>
      <trkpt lat="44.926" lon="5.12967">
        <ele>603</ele>
        <time>2022-02-18T14:04:41+01:00</time>
      </trkpt>
      <trkpt lat="44.92603" lon="5.12982">
        <ele>603</ele>
        <time>2022-02-18T14:04:52+01:00</time>
      </trkpt>
      <trkpt lat="44.92606" lon="5.12985">
        <ele>603</ele>
        <time>2022-02-18T14:04:57+01:00</time>
      </trkpt>
      <trkpt lat="44.92609" lon="5.12989">
        <ele>602</ele>
        <time>2022-02-18T14:05:03+01:00</time>
      </trkpt>
      <trkpt lat="44.92613" lon="5.13004">
        <ele>602</ele>
        <time>2022-02-18T14:05:14+01:00</time>
      </trkpt>
      <trkpt lat="44.92622" lon="5.13032">
        <ele>602</ele>
        <time>2022-02-18T14:05:35+01:00</time>
      </trkpt>
      <trkpt lat="44.92628" lon="5.13048">
        <ele>602</ele>
        <time>2022-02-18T14:05:53+01:00</time>
      </trkpt>
      <trkpt lat="44.92632" lon="5.13056">
        <ele>601</ele>
        <time>2022-02-18T14:05:59+01:00</time>
      </trkpt>
      <trkpt lat="44.9264" lon="5.13067">
        <ele>601</ele>
        <time>2022-02-18T14:06:08+01:00</time>
      </trkpt>
      <trkpt lat="44.92647" lon="5.13075">
        <ele>600</ele>
        <time>2022-02-18T14:06:15+01:00</time>
      </trkpt>
      <trkpt lat="44.92651" lon="5.13079">
        <ele>599</ele>
        <time>2022-02-18T14:06:19+01:00</time>
      </trkpt>
      <trkpt lat="44.92662" lon="5.13093">
        <ele>599</ele>
        <time>2022-02-18T14:06:34+01:00</time>
      </trkpt>
      <trkpt lat="44.92665" lon="5.131">
        <ele>598</ele>
        <time>2022-02-18T14:06:39+01:00</time>
      </trkpt>
      <trkpt lat="44.92669" lon="5.13106">
        <ele>598</ele>
        <time>2022-02-18T14:06:43+01:00</time>
      </trkpt>
      <trkpt lat="44.92673" lon="5.1311">
        <ele>598</ele>
        <time>2022-02-18T14:06:52+01:00</time>
      </trkpt>
      <trkpt lat="44.92677" lon="5.13116">
        <ele>598</ele>
        <time>2022-02-18T14:06:59+01:00</time>
      </trkpt>
      <trkpt lat="44.92685" lon="5.13129">
        <ele>599</ele>
        <time>2022-02-18T14:07:16+01:00</time>
      </trkpt>
      <trkpt lat="44.92688" lon="5.13132">
        <ele>599</ele>
        <time>2022-02-18T14:07:22+01:00</time>
      </trkpt>
      <trkpt lat="44.92692" lon="5.13137">
        <ele>599</ele>
        <time>2022-02-18T14:07:34+01:00</time>
      </trkpt>
      <trkpt lat="44.92695" lon="5.13142">
        <ele>599</ele>
        <time>2022-02-18T14:07:46+01:00</time>
      </trkpt>
      <trkpt lat="44.92699" lon="5.13143">
        <ele>599</ele>
        <time>2022-02-18T14:07:50+01:00</time>
      </trkpt>
      <trkpt lat="44.92714" lon="5.1314">
        <ele>599</ele>
        <time>2022-02-18T14:08:03+01:00</time>
      </trkpt>
      <trkpt lat="44.92725" lon="5.13133">
        <ele>599</ele>
        <time>2022-02-18T14:08:25+01:00</time>
      </trkpt>
      <trkpt lat="44.92728" lon="5.13131">
        <ele>599</ele>
        <time>2022-02-18T14:08:28+01:00</time>
      </trkpt>
      <trkpt lat="44.92731" lon="5.13129">
        <ele>600</ele>
        <time>2022-02-18T14:08:31+01:00</time>
      </trkpt>
      <trkpt lat="44.92736" lon="5.13126">
        <ele>601</ele>
        <time>2022-02-18T14:08:39+01:00</time>
      </trkpt>
      <trkpt lat="44.92742" lon="5.13119">
        <ele>601</ele>
        <time>2022-02-18T14:08:46+01:00</time>
      </trkpt>
      <trkpt lat="44.92747" lon="5.13117">
        <ele>602</ele>
        <time>2022-02-18T14:08:54+01:00</time>
      </trkpt>
      <trkpt lat="44.92761" lon="5.13112">
        <ele>604</ele>
        <time>2022-02-18T14:09:15+01:00</time>
      </trkpt>
      <trkpt lat="44.92763" lon="5.13111">
        <ele>605</ele>
        <time>2022-02-18T14:09:17+01:00</time>
      </trkpt>
      <trkpt lat="44.92766" lon="5.13108">
        <ele>605</ele>
        <time>2022-02-18T14:09:25+01:00</time>
      </trkpt>
      <trkpt lat="44.92768" lon="5.13107">
        <ele>605</ele>
        <time>2022-02-18T14:09:29+01:00</time>
      </trkpt>
      <trkpt lat="44.92771" lon="5.13108">
        <ele>606</ele>
        <time>2022-02-18T14:09:36+01:00</time>
      </trkpt>
      <trkpt lat="44.92773" lon="5.13107">
        <ele>606</ele>
        <time>2022-02-18T14:09:41+01:00</time>
      </trkpt>
      <trkpt lat="44.92776" lon="5.13107">
        <ele>607</ele>
        <time>2022-02-18T14:09:45+01:00</time>
      </trkpt>
      <trkpt lat="44.92779" lon="5.13106">
        <ele>607</ele>
        <time>2022-02-18T14:09:51+01:00</time>
      </trkpt>
      <trkpt lat="44.92781" lon="5.13105">
        <ele>608</ele>
        <time>2022-02-18T14:09:54+01:00</time>
      </trkpt>
      <trkpt lat="44.92784" lon="5.13104">
        <ele>608</ele>
        <time>2022-02-18T14:09:59+01:00</time>
      </trkpt>
      <trkpt lat="44.92793" lon="5.13103">
        <ele>610</ele>
        <time>2022-02-18T14:10:11+01:00</time>
      </trkpt>
      <trkpt lat="44.92795" lon="5.13101">
        <ele>610</ele>
        <time>2022-02-18T14:10:16+01:00</time>
      </trkpt>
      <trkpt lat="44.92801" lon="5.13102">
        <ele>611</ele>
        <time>2022-02-18T14:10:23+01:00</time>
      </trkpt>
      <trkpt lat="44.92804" lon="5.13101">
        <ele>612</ele>
        <time>2022-02-18T14:10:26+01:00</time>
      </trkpt>
      <trkpt lat="44.92824" lon="5.13098">
        <ele>614</ele>
        <time>2022-02-18T14:10:59+01:00</time>
      </trkpt>
      <trkpt lat="44.92827" lon="5.13099">
        <ele>614</ele>
        <time>2022-02-18T14:11:03+01:00</time>
      </trkpt>
      <trkpt lat="44.92846" lon="5.13105">
        <ele>615</ele>
        <time>2022-02-18T14:11:34+01:00</time>
      </trkpt>
      <trkpt lat="44.92859" lon="5.13115">
        <ele>616</ele>
        <time>2022-02-18T14:11:52+01:00</time>
      </trkpt>
      <trkpt lat="44.92861" lon="5.13119">
        <ele>616</ele>
        <time>2022-02-18T14:11:57+01:00</time>
      </trkpt>
      <trkpt lat="44.92862" lon="5.13123">
        <ele>617</ele>
        <time>2022-02-18T14:12:00+01:00</time>
      </trkpt>
      <trkpt lat="44.92863" lon="5.13128">
        <ele>617</ele>
        <time>2022-02-18T14:12:06+01:00</time>
      </trkpt>
      <trkpt lat="44.92871" lon="5.1314">
        <ele>617</ele>
        <time>2022-02-18T14:12:23+01:00</time>
      </trkpt>
      <trkpt lat="44.92876" lon="5.13155">
        <ele>618</ele>
        <time>2022-02-18T14:12:40+01:00</time>
      </trkpt>
      <trkpt lat="44.92876" lon="5.13161">
        <ele>618</ele>
        <time>2022-02-18T14:12:45+01:00</time>
      </trkpt>
      <trkpt lat="44.92877" lon="5.13165">
        <ele>619</ele>
        <time>2022-02-18T14:12:48+01:00</time>
      </trkpt>
      <trkpt lat="44.92878" lon="5.13169">
        <ele>619</ele>
        <time>2022-02-18T14:12:51+01:00</time>
      </trkpt>
      <trkpt lat="44.92878" lon="5.13172">
        <ele>618</ele>
        <time>2022-02-18T14:12:59+01:00</time>
      </trkpt>
      <trkpt lat="44.92921" lon="5.13195">
        <ele>612</ele>
        <time>2022-02-18T14:13:51+01:00</time>
      </trkpt>
      <trkpt lat="44.92967" lon="5.132">
        <ele>608</ele>
        <time>2022-02-18T14:14:45+01:00</time>
      </trkpt>
      <trkpt lat="44.92993" lon="5.13205">
        <ele>605</ele>
        <time>2022-02-18T14:15:14+01:00</time>
      </trkpt>
      <trkpt lat="44.93017" lon="5.13193">
        <ele>601</ele>
        <time>2022-02-18T14:15:44+01:00</time>
      </trkpt>
      <trkpt lat="44.93028" lon="5.13157">
        <ele>598</ele>
        <time>2022-02-18T14:16:16+01:00</time>
      </trkpt>
      <trkpt lat="44.93053" lon="5.13121">
        <ele>591</ele>
        <time>2022-02-18T14:20:25+01:00</time>
      </trkpt>
      <trkpt lat="44.9306" lon="5.13114">
        <ele>591</ele>
        <time>2022-02-18T14:20:29+01:00</time>
      </trkpt>
      <trkpt lat="44.93063" lon="5.13109">
        <ele>591</ele>
        <time>2022-02-18T14:21:17+01:00</time>
      </trkpt>
      <trkpt lat="44.93064" lon="5.13105">
        <ele>590</ele>
        <time>2022-02-18T14:21:21+01:00</time>
      </trkpt>
      <trkpt lat="44.93065" lon="5.131">
        <ele>590</ele>
        <time>2022-02-18T14:21:28+01:00</time>
      </trkpt>
      <trkpt lat="44.93068" lon="5.1309">
        <ele>590</ele>
        <time>2022-02-18T14:21:38+01:00</time>
      </trkpt>
      <trkpt lat="44.93068" lon="5.13085">
        <ele>590</ele>
        <time>2022-02-18T14:21:42+01:00</time>
      </trkpt>
      <trkpt lat="44.93074" lon="5.1307">
        <ele>589</ele>
        <time>2022-02-18T14:21:54+01:00</time>
      </trkpt>
      <trkpt lat="44.93076" lon="5.13064">
        <ele>589</ele>
        <time>2022-02-18T14:21:58+01:00</time>
      </trkpt>
      <trkpt lat="44.93075" lon="5.13059">
        <ele>589</ele>
        <time>2022-02-18T14:22:02+01:00</time>
      </trkpt>
      <trkpt lat="44.93075" lon="5.13053">
        <ele>589</ele>
        <time>2022-02-18T14:22:06+01:00</time>
      </trkpt>
      <trkpt lat="44.93075" lon="5.13042">
        <ele>588</ele>
        <time>2022-02-18T14:22:16+01:00</time>
      </trkpt>
      <trkpt lat="44.93072" lon="5.13026">
        <ele>587</ele>
        <time>2022-02-18T14:22:29+01:00</time>
      </trkpt>
      <trkpt lat="44.93073" lon="5.13009">
        <ele>584</ele>
        <time>2022-02-18T14:22:43+01:00</time>
      </trkpt>
      <trkpt lat="44.93072" lon="5.13003">
        <ele>583</ele>
        <time>2022-02-18T14:22:49+01:00</time>
      </trkpt>
      <trkpt lat="44.93074" lon="5.12998">
        <ele>583</ele>
        <time>2022-02-18T14:22:53+01:00</time>
      </trkpt>
      <trkpt lat="44.93075" lon="5.12993">
        <ele>583</ele>
        <time>2022-02-18T14:22:57+01:00</time>
      </trkpt>
      <trkpt lat="44.93076" lon="5.12987">
        <ele>582</ele>
        <time>2022-02-18T14:23:01+01:00</time>
      </trkpt>
      <trkpt lat="44.93074" lon="5.12975">
        <ele>580</ele>
        <time>2022-02-18T14:23:11+01:00</time>
      </trkpt>
      <trkpt lat="44.93074" lon="5.12966">
        <ele>579</ele>
        <time>2022-02-18T14:23:21+01:00</time>
      </trkpt>
      <trkpt lat="44.93075" lon="5.12956">
        <ele>577</ele>
        <time>2022-02-18T14:23:30+01:00</time>
      </trkpt>
      <trkpt lat="44.93077" lon="5.12952">
        <ele>577</ele>
        <time>2022-02-18T14:23:35+01:00</time>
      </trkpt>
      <trkpt lat="44.93078" lon="5.12948">
        <ele>577</ele>
        <time>2022-02-18T14:23:39+01:00</time>
      </trkpt>
      <trkpt lat="44.93081" lon="5.1294">
        <ele>576</ele>
        <time>2022-02-18T14:23:48+01:00</time>
      </trkpt>
      <trkpt lat="44.93081" lon="5.12935">
        <ele>575</ele>
        <time>2022-02-18T14:23:52+01:00</time>
      </trkpt>
      <trkpt lat="44.93082" lon="5.1293">
        <ele>575</ele>
        <time>2022-02-18T14:23:59+01:00</time>
      </trkpt>
      <trkpt lat="44.93085" lon="5.12927">
        <ele>574</ele>
        <time>2022-02-18T14:24:04+01:00</time>
      </trkpt>
      <trkpt lat="44.93086" lon="5.12922">
        <ele>573</ele>
        <time>2022-02-18T14:24:08+01:00</time>
      </trkpt>
      <trkpt lat="44.93089" lon="5.12917">
        <ele>571</ele>
        <time>2022-02-18T14:24:13+01:00</time>
      </trkpt>
      <trkpt lat="44.93093" lon="5.12909">
        <ele>569</ele>
        <time>2022-02-18T14:24:22+01:00</time>
      </trkpt>
      <trkpt lat="44.93096" lon="5.12906">
        <ele>568</ele>
        <time>2022-02-18T14:24:31+01:00</time>
      </trkpt>
      <trkpt lat="44.93101" lon="5.12899">
        <ele>567</ele>
        <time>2022-02-18T14:24:43+01:00</time>
      </trkpt>
      <trkpt lat="44.93103" lon="5.12895">
        <ele>566</ele>
        <time>2022-02-18T14:24:47+01:00</time>
      </trkpt>
      <trkpt lat="44.93106" lon="5.12892">
        <ele>565</ele>
        <time>2022-02-18T14:24:51+01:00</time>
      </trkpt>
      <trkpt lat="44.93109" lon="5.12888">
        <ele>565</ele>
        <time>2022-02-18T14:24:55+01:00</time>
      </trkpt>
      <trkpt lat="44.93115" lon="5.1288">
        <ele>562</ele>
        <time>2022-02-18T14:25:05+01:00</time>
      </trkpt>
      <trkpt lat="44.93118" lon="5.12876">
        <ele>561</ele>
        <time>2022-02-18T14:25:09+01:00</time>
      </trkpt>
      <trkpt lat="44.9312" lon="5.12873">
        <ele>560</ele>
        <time>2022-02-18T14:25:15+01:00</time>
      </trkpt>
      <trkpt lat="44.93127" lon="5.12867">
        <ele>558</ele>
        <time>2022-02-18T14:25:23+01:00</time>
      </trkpt>
      <trkpt lat="44.9313" lon="5.12864">
        <ele>558</ele>
        <time>2022-02-18T14:25:27+01:00</time>
      </trkpt>
      <trkpt lat="44.93141" lon="5.12853">
        <ele>555</ele>
        <time>2022-02-18T14:25:41+01:00</time>
      </trkpt>
      <trkpt lat="44.93144" lon="5.1285">
        <ele>554</ele>
        <time>2022-02-18T14:25:46+01:00</time>
      </trkpt>
      <trkpt lat="44.93148" lon="5.1285">
        <ele>554</ele>
        <time>2022-02-18T14:25:50+01:00</time>
      </trkpt>
      <trkpt lat="44.93163" lon="5.12839">
        <ele>551</ele>
        <time>2022-02-18T14:26:07+01:00</time>
      </trkpt>
      <trkpt lat="44.93177" lon="5.12833">
        <ele>551</ele>
        <time>2022-02-18T14:26:21+01:00</time>
      </trkpt>
      <trkpt lat="44.93197" lon="5.12823">
        <ele>551</ele>
        <time>2022-02-18T14:26:51+01:00</time>
      </trkpt>
      <trkpt lat="44.93203" lon="5.12822">
        <ele>552</ele>
        <time>2022-02-18T14:26:59+01:00</time>
      </trkpt>
      <trkpt lat="44.93211" lon="5.12817">
        <ele>553</ele>
        <time>2022-02-18T14:27:18+01:00</time>
      </trkpt>
      <trkpt lat="44.93223" lon="5.12815">
        <ele>554</ele>
        <time>2022-02-18T14:27:31+01:00</time>
      </trkpt>
      <trkpt lat="44.93225" lon="5.12811">
        <ele>555</ele>
        <time>2022-02-18T14:27:35+01:00</time>
      </trkpt>
      <trkpt lat="44.93231" lon="5.12803">
        <ele>557</ele>
        <time>2022-02-18T14:27:42+01:00</time>
      </trkpt>
      <trkpt lat="44.93231" lon="5.12786">
        <ele>559</ele>
        <time>2022-02-18T14:27:53+01:00</time>
      </trkpt>
      <trkpt lat="44.93231" lon="5.1278">
        <ele>560</ele>
        <time>2022-02-18T14:27:57+01:00</time>
      </trkpt>
      <trkpt lat="44.9323" lon="5.12753">
        <ele>561</ele>
        <time>2022-02-18T14:28:23+01:00</time>
      </trkpt>
      <trkpt lat="44.93235" lon="5.12735">
        <ele>560</ele>
        <time>2022-02-18T14:28:40+01:00</time>
      </trkpt>
      <trkpt lat="44.93238" lon="5.12726">
        <ele>560</ele>
        <time>2022-02-18T14:28:49+01:00</time>
      </trkpt>
      <trkpt lat="44.93239" lon="5.12723">
        <ele>560</ele>
        <time>2022-02-18T14:28:53+01:00</time>
      </trkpt>
      <trkpt lat="44.9324" lon="5.12719">
        <ele>559</ele>
        <time>2022-02-18T14:28:56+01:00</time>
      </trkpt>
      <trkpt lat="44.93242" lon="5.12716">
        <ele>559</ele>
        <time>2022-02-18T14:29:00+01:00</time>
      </trkpt>
      <trkpt lat="44.93244" lon="5.12713">
        <ele>559</ele>
        <time>2022-02-18T14:29:04+01:00</time>
      </trkpt>
      <trkpt lat="44.93246" lon="5.12704">
        <ele>558</ele>
        <time>2022-02-18T14:29:12+01:00</time>
      </trkpt>
      <trkpt lat="44.93247" lon="5.127">
        <ele>558</ele>
        <time>2022-02-18T14:29:16+01:00</time>
      </trkpt>
      <trkpt lat="44.93249" lon="5.12693">
        <ele>557</ele>
        <time>2022-02-18T14:29:22+01:00</time>
      </trkpt>
      <trkpt lat="44.9325" lon="5.12689">
        <ele>557</ele>
        <time>2022-02-18T14:29:26+01:00</time>
      </trkpt>
      <trkpt lat="44.93252" lon="5.12686">
        <ele>558</ele>
        <time>2022-02-18T14:29:36+01:00</time>
      </trkpt>
      <trkpt lat="44.93256" lon="5.12685">
        <ele>558</ele>
        <time>2022-02-18T14:30:02+01:00</time>
      </trkpt>
      <trkpt lat="44.93259" lon="5.12686">
        <ele>559</ele>
        <time>2022-02-18T14:30:08+01:00</time>
      </trkpt>
      <trkpt lat="44.93263" lon="5.12684">
        <ele>560</ele>
        <time>2022-02-18T14:30:13+01:00</time>
      </trkpt>
      <trkpt lat="44.9327" lon="5.12686">
        <ele>562</ele>
        <time>2022-02-18T14:30:22+01:00</time>
      </trkpt>
      <trkpt lat="44.93286" lon="5.1269">
        <ele>565</ele>
        <time>2022-02-18T14:30:52+01:00</time>
      </trkpt>
      <trkpt lat="44.93292" lon="5.12692">
        <ele>567</ele>
        <time>2022-02-18T14:31:03+01:00</time>
      </trkpt>
      <trkpt lat="44.93296" lon="5.12693">
        <ele>567</ele>
        <time>2022-02-18T14:31:14+01:00</time>
      </trkpt>
      <trkpt lat="44.93298" lon="5.12694">
        <ele>568</ele>
        <time>2022-02-18T14:31:18+01:00</time>
      </trkpt>
      <trkpt lat="44.93305" lon="5.12696">
        <ele>569</ele>
        <time>2022-02-18T14:31:31+01:00</time>
      </trkpt>
      <trkpt lat="44.93307" lon="5.12698">
        <ele>570</ele>
        <time>2022-02-18T14:31:36+01:00</time>
      </trkpt>
      <trkpt lat="44.9331" lon="5.12699">
        <ele>571</ele>
        <time>2022-02-18T14:31:40+01:00</time>
      </trkpt>
      <trkpt lat="44.93314" lon="5.12704">
        <ele>572</ele>
        <time>2022-02-18T14:31:58+01:00</time>
      </trkpt>
      <trkpt lat="44.93316" lon="5.12708">
        <ele>574</ele>
        <time>2022-02-18T14:32:08+01:00</time>
      </trkpt>
      <trkpt lat="44.93327" lon="5.12717">
        <ele>577</ele>
        <time>2022-02-18T14:32:29+01:00</time>
      </trkpt>
      <trkpt lat="44.93337" lon="5.12718">
        <ele>577</ele>
        <time>2022-02-18T14:32:44+01:00</time>
      </trkpt>
      <trkpt lat="44.9334" lon="5.12716">
        <ele>576</ele>
        <time>2022-02-18T14:32:48+01:00</time>
      </trkpt>
      <trkpt lat="44.93341" lon="5.12715">
        <ele>576</ele>
        <time>2022-02-18T14:32:53+01:00</time>
      </trkpt>
      <trkpt lat="44.93343" lon="5.12713">
        <ele>575</ele>
        <time>2022-02-18T14:32:56+01:00</time>
      </trkpt>
      <trkpt lat="44.93349" lon="5.12712">
        <ele>574</ele>
        <time>2022-02-18T14:33:03+01:00</time>
      </trkpt>
      <trkpt lat="44.93355" lon="5.12711">
        <ele>573</ele>
        <time>2022-02-18T14:33:13+01:00</time>
      </trkpt>
      <trkpt lat="44.93358" lon="5.1271">
        <ele>573</ele>
        <time>2022-02-18T14:33:17+01:00</time>
      </trkpt>
      <trkpt lat="44.93361" lon="5.12702">
        <ele>572</ele>
        <time>2022-02-18T14:33:25+01:00</time>
      </trkpt>
      <trkpt lat="44.93363" lon="5.12698">
        <ele>572</ele>
        <time>2022-02-18T14:33:29+01:00</time>
      </trkpt>
      <trkpt lat="44.93366" lon="5.12696">
        <ele>572</ele>
        <time>2022-02-18T14:33:33+01:00</time>
      </trkpt>
      <trkpt lat="44.93371" lon="5.12689">
        <ele>571</ele>
        <time>2022-02-18T14:33:41+01:00</time>
      </trkpt>
      <trkpt lat="44.93372" lon="5.12684">
        <ele>571</ele>
        <time>2022-02-18T14:33:45+01:00</time>
      </trkpt>
      <trkpt lat="44.93372" lon="5.12681">
        <ele>571</ele>
        <time>2022-02-18T14:33:48+01:00</time>
      </trkpt>
      <trkpt lat="44.93374" lon="5.12677">
        <ele>570</ele>
        <time>2022-02-18T14:33:53+01:00</time>
      </trkpt>
      <trkpt lat="44.93377" lon="5.12675">
        <ele>570</ele>
        <time>2022-02-18T14:33:57+01:00</time>
      </trkpt>
      <trkpt lat="44.93381" lon="5.12674">
        <ele>570</ele>
        <time>2022-02-18T14:34:01+01:00</time>
      </trkpt>
      <trkpt lat="44.93384" lon="5.12673">
        <ele>570</ele>
        <time>2022-02-18T14:34:05+01:00</time>
      </trkpt>
      <trkpt lat="44.93388" lon="5.12672">
        <ele>570</ele>
        <time>2022-02-18T14:34:09+01:00</time>
      </trkpt>
      <trkpt lat="44.93391" lon="5.12671">
        <ele>570</ele>
        <time>2022-02-18T14:34:13+01:00</time>
      </trkpt>
      <trkpt lat="44.93397" lon="5.12672">
        <ele>570</ele>
        <time>2022-02-18T14:34:21+01:00</time>
      </trkpt>
      <trkpt lat="44.93402" lon="5.12671">
        <ele>570</ele>
        <time>2022-02-18T14:34:28+01:00</time>
      </trkpt>
      <trkpt lat="44.93405" lon="5.1267">
        <ele>570</ele>
        <time>2022-02-18T14:34:35+01:00</time>
      </trkpt>
      <trkpt lat="44.93407" lon="5.12669">
        <ele>570</ele>
        <time>2022-02-18T14:34:38+01:00</time>
      </trkpt>
      <trkpt lat="44.93415" lon="5.12664">
        <ele>570</ele>
        <time>2022-02-18T14:34:50+01:00</time>
      </trkpt>
      <trkpt lat="44.93418" lon="5.12664">
        <ele>570</ele>
        <time>2022-02-18T14:34:53+01:00</time>
      </trkpt>
      <trkpt lat="44.9342" lon="5.12663">
        <ele>570</ele>
        <time>2022-02-18T14:34:57+01:00</time>
      </trkpt>
      <trkpt lat="44.93423" lon="5.12663">
        <ele>570</ele>
        <time>2022-02-18T14:35:01+01:00</time>
      </trkpt>
      <trkpt lat="44.93422" lon="5.12664">
        <ele>570</ele>
        <time>2022-02-18T14:36:22+01:00</time>
      </trkpt>
      <trkpt lat="44.9342" lon="5.12664">
        <ele>570</ele>
        <time>2022-02-18T14:36:52+01:00</time>
      </trkpt>
      <trkpt lat="44.93418" lon="5.12664">
        <ele>570</ele>
        <time>2022-02-18T14:36:55+01:00</time>
      </trkpt>
      <trkpt lat="44.93418" lon="5.12663">
        <ele>570</ele>
        <time>2022-02-18T14:37:08+01:00</time>
      </trkpt>
      <trkpt lat="44.93422" lon="5.12663">
        <ele>570</ele>
        <time>2022-02-18T14:37:11+01:00</time>
      </trkpt>
      <trkpt lat="44.93424" lon="5.12662">
        <ele>570</ele>
        <time>2022-02-18T14:38:06+01:00</time>
      </trkpt>
      <trkpt lat="44.93424" lon="5.12658">
        <ele>570</ele>
        <time>2022-02-18T14:38:16+01:00</time>
      </trkpt>
      <trkpt lat="44.93426" lon="5.12656">
        <ele>569</ele>
        <time>2022-02-18T14:38:24+01:00</time>
      </trkpt>
      <trkpt lat="44.9343" lon="5.12655">
        <ele>569</ele>
        <time>2022-02-18T14:38:33+01:00</time>
      </trkpt>
      <trkpt lat="44.93432" lon="5.12657">
        <ele>569</ele>
        <time>2022-02-18T14:38:44+01:00</time>
      </trkpt>
      <trkpt lat="44.93432" lon="5.12661">
        <ele>570</ele>
        <time>2022-02-18T14:39:13+01:00</time>
      </trkpt>
      <trkpt lat="44.93434" lon="5.1266">
        <ele>569</ele>
        <time>2022-02-18T14:39:38+01:00</time>
      </trkpt>
      <trkpt lat="44.93434" lon="5.12656">
        <ele>569</ele>
        <time>2022-02-18T14:39:45+01:00</time>
      </trkpt>
      <trkpt lat="44.93428" lon="5.12655">
        <ele>569</ele>
        <time>2022-02-18T14:40:09+01:00</time>
      </trkpt>
      <trkpt lat="44.93425" lon="5.12657">
        <ele>569</ele>
        <time>2022-02-18T14:40:19+01:00</time>
      </trkpt>
      <trkpt lat="44.93392" lon="5.12671">
        <ele>570</ele>
        <time>2022-02-18T14:44:54+01:00</time>
      </trkpt>
      <trkpt lat="44.93389" lon="5.12668">
        <ele>570</ele>
        <time>2022-02-18T14:45:13+01:00</time>
      </trkpt>
      <trkpt lat="44.93386" lon="5.1267">
        <ele>570</ele>
        <time>2022-02-18T14:45:17+01:00</time>
      </trkpt>
      <trkpt lat="44.93383" lon="5.12672">
        <ele>570</ele>
        <time>2022-02-18T14:45:21+01:00</time>
      </trkpt>
      <trkpt lat="44.93379" lon="5.12673">
        <ele>570</ele>
        <time>2022-02-18T14:45:25+01:00</time>
      </trkpt>
      <trkpt lat="44.93375" lon="5.12673">
        <ele>570</ele>
        <time>2022-02-18T14:45:29+01:00</time>
      </trkpt>
      <trkpt lat="44.93372" lon="5.12674">
        <ele>570</ele>
        <time>2022-02-18T14:45:33+01:00</time>
      </trkpt>
      <trkpt lat="44.93364" lon="5.1269">
        <ele>572</ele>
        <time>2022-02-18T14:45:49+01:00</time>
      </trkpt>
      <trkpt lat="44.93361" lon="5.12694">
        <ele>572</ele>
        <time>2022-02-18T14:45:54+01:00</time>
      </trkpt>
      <trkpt lat="44.9336" lon="5.12699">
        <ele>572</ele>
        <time>2022-02-18T14:45:58+01:00</time>
      </trkpt>
      <trkpt lat="44.93356" lon="5.12704">
        <ele>573</ele>
        <time>2022-02-18T14:46:18+01:00</time>
      </trkpt>
      <trkpt lat="44.93352" lon="5.12705">
        <ele>573</ele>
        <time>2022-02-18T14:46:23+01:00</time>
      </trkpt>
      <trkpt lat="44.93349" lon="5.12705">
        <ele>574</ele>
        <time>2022-02-18T14:46:26+01:00</time>
      </trkpt>
      <trkpt lat="44.93345" lon="5.12708">
        <ele>574</ele>
        <time>2022-02-18T14:46:29+01:00</time>
      </trkpt>
      <trkpt lat="44.93343" lon="5.1271">
        <ele>575</ele>
        <time>2022-02-18T14:46:31+01:00</time>
      </trkpt>
      <trkpt lat="44.93341" lon="5.12715">
        <ele>575</ele>
        <time>2022-02-18T14:46:37+01:00</time>
      </trkpt>
      <trkpt lat="44.93338" lon="5.12716">
        <ele>576</ele>
        <time>2022-02-18T14:46:42+01:00</time>
      </trkpt>
      <trkpt lat="44.93329" lon="5.12713">
        <ele>576</ele>
        <time>2022-02-18T14:46:53+01:00</time>
      </trkpt>
      <trkpt lat="44.93325" lon="5.12713">
        <ele>575</ele>
        <time>2022-02-18T14:46:59+01:00</time>
      </trkpt>
      <trkpt lat="44.93321" lon="5.12712">
        <ele>575</ele>
        <time>2022-02-18T14:47:04+01:00</time>
      </trkpt>
      <trkpt lat="44.93319" lon="5.12707">
        <ele>574</ele>
        <time>2022-02-18T14:47:11+01:00</time>
      </trkpt>
      <trkpt lat="44.93319" lon="5.12703">
        <ele>573</ele>
        <time>2022-02-18T14:47:14+01:00</time>
      </trkpt>
      <trkpt lat="44.93317" lon="5.12698">
        <ele>571</ele>
        <time>2022-02-18T14:47:19+01:00</time>
      </trkpt>
      <trkpt lat="44.93313" lon="5.12695">
        <ele>570</ele>
        <time>2022-02-18T14:47:24+01:00</time>
      </trkpt>
      <trkpt lat="44.9331" lon="5.12694">
        <ele>569</ele>
        <time>2022-02-18T14:47:29+01:00</time>
      </trkpt>
      <trkpt lat="44.93294" lon="5.12688">
        <ele>566</ele>
        <time>2022-02-18T14:47:47+01:00</time>
      </trkpt>
      <trkpt lat="44.9329" lon="5.12688">
        <ele>566</ele>
        <time>2022-02-18T14:47:50+01:00</time>
      </trkpt>
      <trkpt lat="44.93287" lon="5.12687">
        <ele>565</ele>
        <time>2022-02-18T14:47:53+01:00</time>
      </trkpt>
      <trkpt lat="44.93284" lon="5.12687">
        <ele>565</ele>
        <time>2022-02-18T14:47:56+01:00</time>
      </trkpt>
      <trkpt lat="44.93281" lon="5.12685">
        <ele>564</ele>
        <time>2022-02-18T14:48:00+01:00</time>
      </trkpt>
      <trkpt lat="44.93278" lon="5.12684">
        <ele>563</ele>
        <time>2022-02-18T14:48:03+01:00</time>
      </trkpt>
      <trkpt lat="44.93273" lon="5.12682">
        <ele>562</ele>
        <time>2022-02-18T14:48:09+01:00</time>
      </trkpt>
      <trkpt lat="44.93263" lon="5.12677">
        <ele>559</ele>
        <time>2022-02-18T14:48:23+01:00</time>
      </trkpt>
      <trkpt lat="44.93259" lon="5.12676">
        <ele>558</ele>
        <time>2022-02-18T14:48:27+01:00</time>
      </trkpt>
      <trkpt lat="44.93256" lon="5.12676">
        <ele>557</ele>
        <time>2022-02-18T14:48:30+01:00</time>
      </trkpt>
      <trkpt lat="44.93254" lon="5.12673">
        <ele>556</ele>
        <time>2022-02-18T14:48:41+01:00</time>
      </trkpt>
      <trkpt lat="44.93252" lon="5.12662">
        <ele>555</ele>
        <time>2022-02-18T14:48:50+01:00</time>
      </trkpt>
      <trkpt lat="44.93253" lon="5.12657">
        <ele>554</ele>
        <time>2022-02-18T14:48:56+01:00</time>
      </trkpt>
      <trkpt lat="44.93254" lon="5.12653">
        <ele>554</ele>
        <time>2022-02-18T14:49:00+01:00</time>
      </trkpt>
      <trkpt lat="44.93254" lon="5.12648">
        <ele>554</ele>
        <time>2022-02-18T14:49:04+01:00</time>
      </trkpt>
      <trkpt lat="44.93254" lon="5.12643">
        <ele>553</ele>
        <time>2022-02-18T14:49:08+01:00</time>
      </trkpt>
      <trkpt lat="44.93254" lon="5.12637">
        <ele>553</ele>
        <time>2022-02-18T14:49:13+01:00</time>
      </trkpt>
      <trkpt lat="44.93256" lon="5.12632">
        <ele>553</ele>
        <time>2022-02-18T14:49:17+01:00</time>
      </trkpt>
      <trkpt lat="44.93259" lon="5.12617">
        <ele>553</ele>
        <time>2022-02-18T14:49:29+01:00</time>
      </trkpt>
      <trkpt lat="44.9326" lon="5.12613">
        <ele>553</ele>
        <time>2022-02-18T14:49:34+01:00</time>
      </trkpt>
      <trkpt lat="44.93261" lon="5.12608">
        <ele>553</ele>
        <time>2022-02-18T14:49:40+01:00</time>
      </trkpt>
      <trkpt lat="44.93264" lon="5.12606">
        <ele>553</ele>
        <time>2022-02-18T14:49:50+01:00</time>
      </trkpt>
      <trkpt lat="44.93267" lon="5.12603">
        <ele>554</ele>
        <time>2022-02-18T14:49:56+01:00</time>
      </trkpt>
      <trkpt lat="44.93278" lon="5.12602">
        <ele>555</ele>
        <time>2022-02-18T14:50:10+01:00</time>
      </trkpt>
      <trkpt lat="44.93284" lon="5.12601">
        <ele>555</ele>
        <time>2022-02-18T14:50:17+01:00</time>
      </trkpt>
      <trkpt lat="44.9329" lon="5.12601">
        <ele>555</ele>
        <time>2022-02-18T14:50:26+01:00</time>
      </trkpt>
      <trkpt lat="44.93297" lon="5.12602">
        <ele>555</ele>
        <time>2022-02-18T14:50:34+01:00</time>
      </trkpt>
      <trkpt lat="44.93308" lon="5.12602">
        <ele>555</ele>
        <time>2022-02-18T14:50:48+01:00</time>
      </trkpt>
      <trkpt lat="44.93311" lon="5.126">
        <ele>554</ele>
        <time>2022-02-18T14:50:51+01:00</time>
      </trkpt>
      <trkpt lat="44.93324" lon="5.1258">
        <ele>550</ele>
        <time>2022-02-18T14:51:17+01:00</time>
      </trkpt>
      <trkpt lat="44.93325" lon="5.12576">
        <ele>549</ele>
        <time>2022-02-18T14:51:21+01:00</time>
      </trkpt>
      <trkpt lat="44.93328" lon="5.12569">
        <ele>548</ele>
        <time>2022-02-18T14:51:29+01:00</time>
      </trkpt>
      <trkpt lat="44.93332" lon="5.12561">
        <ele>546</ele>
        <time>2022-02-18T14:51:39+01:00</time>
      </trkpt>
      <trkpt lat="44.93335" lon="5.12558">
        <ele>545</ele>
        <time>2022-02-18T14:51:43+01:00</time>
      </trkpt>
      <trkpt lat="44.93337" lon="5.12554">
        <ele>544</ele>
        <time>2022-02-18T14:51:48+01:00</time>
      </trkpt>
      <trkpt lat="44.93338" lon="5.1255">
        <ele>543</ele>
        <time>2022-02-18T14:51:55+01:00</time>
      </trkpt>
      <trkpt lat="44.93341" lon="5.12547">
        <ele>542</ele>
        <time>2022-02-18T14:52:01+01:00</time>
      </trkpt>
      <trkpt lat="44.93342" lon="5.12543">
        <ele>541</ele>
        <time>2022-02-18T14:52:07+01:00</time>
      </trkpt>
      <trkpt lat="44.93342" lon="5.12538">
        <ele>540</ele>
        <time>2022-02-18T14:52:14+01:00</time>
      </trkpt>
      <trkpt lat="44.93344" lon="5.12534">
        <ele>539</ele>
        <time>2022-02-18T14:52:21+01:00</time>
      </trkpt>
      <trkpt lat="44.93347" lon="5.12532">
        <ele>538</ele>
        <time>2022-02-18T14:52:28+01:00</time>
      </trkpt>
      <trkpt lat="44.93349" lon="5.12526">
        <ele>536</ele>
        <time>2022-02-18T14:52:36+01:00</time>
      </trkpt>
      <trkpt lat="44.93344" lon="5.12512">
        <ele>532</ele>
        <time>2022-02-18T14:52:51+01:00</time>
      </trkpt>
      <trkpt lat="44.93341" lon="5.12507">
        <ele>532</ele>
        <time>2022-02-18T14:53:02+01:00</time>
      </trkpt>
      <trkpt lat="44.93337" lon="5.12504">
        <ele>533</ele>
        <time>2022-02-18T14:53:11+01:00</time>
      </trkpt>
      <trkpt lat="44.93335" lon="5.12499">
        <ele>532</ele>
        <time>2022-02-18T14:53:16+01:00</time>
      </trkpt>
      <trkpt lat="44.93332" lon="5.12494">
        <ele>531</ele>
        <time>2022-02-18T14:53:21+01:00</time>
      </trkpt>
      <trkpt lat="44.93331" lon="5.1249">
        <ele>530</ele>
        <time>2022-02-18T14:53:26+01:00</time>
      </trkpt>
      <trkpt lat="44.93327" lon="5.12477">
        <ele>527</ele>
        <time>2022-02-18T14:53:44+01:00</time>
      </trkpt>
      <trkpt lat="44.93324" lon="5.12466">
        <ele>524</ele>
        <time>2022-02-18T14:54:07+01:00</time>
      </trkpt>
      <trkpt lat="44.93328" lon="5.12465">
        <ele>523</ele>
        <time>2022-02-18T14:54:30+01:00</time>
      </trkpt>
      <trkpt lat="44.93335" lon="5.12469">
        <ele>522</ele>
        <time>2022-02-18T14:54:43+01:00</time>
      </trkpt>
      <trkpt lat="44.9334" lon="5.12469">
        <ele>520</ele>
        <time>2022-02-18T14:54:52+01:00</time>
      </trkpt>
      <trkpt lat="44.93343" lon="5.12473">
        <ele>520</ele>
        <time>2022-02-18T14:54:59+01:00</time>
      </trkpt>
      <trkpt lat="44.93351" lon="5.12472">
        <ele>517</ele>
        <time>2022-02-18T14:55:17+01:00</time>
      </trkpt>
      <trkpt lat="44.93355" lon="5.12475">
        <ele>516</ele>
        <time>2022-02-18T14:55:23+01:00</time>
      </trkpt>
      <trkpt lat="44.9336" lon="5.12475">
        <ele>515</ele>
        <time>2022-02-18T14:55:34+01:00</time>
      </trkpt>
      <trkpt lat="44.93364" lon="5.12476">
        <ele>513</ele>
        <time>2022-02-18T14:55:46+01:00</time>
      </trkpt>
      <trkpt lat="44.93365" lon="5.12469">
        <ele>510</ele>
        <time>2022-02-18T14:55:56+01:00</time>
      </trkpt>
      <trkpt lat="44.93365" lon="5.12461">
        <ele>507</ele>
        <time>2022-02-18T14:56:14+01:00</time>
      </trkpt>
      <trkpt lat="44.93364" lon="5.12456">
        <ele>504</ele>
        <time>2022-02-18T14:57:22+01:00</time>
      </trkpt>
      <trkpt lat="44.93362" lon="5.12451">
        <ele>503</ele>
        <time>2022-02-18T14:57:29+01:00</time>
      </trkpt>
      <trkpt lat="44.93358" lon="5.12446">
        <ele>503</ele>
        <time>2022-02-18T14:57:37+01:00</time>
      </trkpt>
      <trkpt lat="44.93359" lon="5.1244">
        <ele>500</ele>
        <time>2022-02-18T14:57:45+01:00</time>
      </trkpt>
      <trkpt lat="44.93369" lon="5.12441">
        <ele>496</ele>
        <time>2022-02-18T14:58:12+01:00</time>
      </trkpt>
      <trkpt lat="44.93372" lon="5.12445">
        <ele>496</ele>
        <time>2022-02-18T14:58:22+01:00</time>
      </trkpt>
      <trkpt lat="44.93377" lon="5.12449">
        <ele>496</ele>
        <time>2022-02-18T14:58:32+01:00</time>
      </trkpt>
      <trkpt lat="44.9339" lon="5.12448">
        <ele>489</ele>
        <time>2022-02-18T14:59:01+01:00</time>
      </trkpt>
      <trkpt lat="44.93394" lon="5.12449">
        <ele>489</ele>
        <time>2022-02-18T14:59:07+01:00</time>
      </trkpt>
      <trkpt lat="44.93407" lon="5.12445">
        <ele>484</ele>
        <time>2022-02-18T14:59:35+01:00</time>
      </trkpt>
      <trkpt lat="44.93411" lon="5.12445">
        <ele>483</ele>
        <time>2022-02-18T14:59:45+01:00</time>
      </trkpt>
      <trkpt lat="44.93419" lon="5.12442">
        <ele>481</ele>
        <time>2022-02-18T15:00:03+01:00</time>
      </trkpt>
      <trkpt lat="44.93436" lon="5.12437">
        <ele>476</ele>
        <time>2022-02-18T15:00:37+01:00</time>
      </trkpt>
      <trkpt lat="44.9344" lon="5.12436">
        <ele>475</ele>
        <time>2022-02-18T15:00:43+01:00</time>
      </trkpt>
      <trkpt lat="44.93464" lon="5.12435">
        <ele>470</ele>
        <time>2022-02-18T15:01:11+01:00</time>
      </trkpt>
      <trkpt lat="44.93467" lon="5.12413">
        <ele>462</ele>
        <time>2022-02-18T15:01:28+01:00</time>
      </trkpt>
      <trkpt lat="44.93458" lon="5.12392">
        <ele>458</ele>
        <time>2022-02-18T15:01:48+01:00</time>
      </trkpt>
      <trkpt lat="44.93407" lon="5.12322">
        <ele>443</ele>
        <time>2022-02-18T15:03:10+01:00</time>
      </trkpt>
      <trkpt lat="44.93399" lon="5.12286">
        <ele>435</ele>
        <time>2022-02-18T15:03:40+01:00</time>
      </trkpt>
      <trkpt lat="44.93376" lon="5.12256">
        <ele>429</ele>
        <time>2022-02-18T15:04:16+01:00</time>
      </trkpt>
      <trkpt lat="44.93347" lon="5.12219">
        <ele>420</ele>
        <time>2022-02-18T15:05:01+01:00</time>
      </trkpt>
      <trkpt lat="44.93312" lon="5.12212">
        <ele>419</ele>
        <time>2022-02-18T15:15:25+01:00</time>
      </trkpt>
      <trkpt lat="44.93339" lon="5.12187">
        <ele>418</ele>
        <time>2022-02-18T15:16:02+01:00</time>
      </trkpt>
      <trkpt lat="44.93367" lon="5.12163">
        <ele>414</ele>
        <time>2022-02-18T15:16:39+01:00</time>
      </trkpt>
      <trkpt lat="44.93422" lon="5.12115">
        <ele>408</ele>
        <time>2022-02-18T15:17:53+01:00</time>
      </trkpt>
      <trkpt lat="44.93483" lon="5.12077">
        <ele>402</ele>
        <time>2022-02-18T15:19:10+01:00</time>
      </trkpt>
      <trkpt lat="44.93534" lon="5.12032">
        <ele>396</ele>
        <time>2022-02-18T15:15:26+01:00</time>
      </trkpt>
      <trkpt lat="44.93534" lon="5.12032">
        <ele>396</ele>
        <time>2022-02-18T15:15:26+01:00</time>
      </trkpt>
      <trkpt lat="44.93535" lon="5.12033">
        <ele>396</ele>
        <time>2022-02-18T15:15:28+01:00</time>
      </trkpt>
      <trkpt lat="44.93536" lon="5.12034">
        <ele>396</ele>
        <time>2022-02-18T15:15:31+01:00</time>
      </trkpt>
      <trkpt lat="44.93538" lon="5.12035">
        <ele>396</ele>
        <time>2022-02-18T15:15:37+01:00</time>
      </trkpt>
      <trkpt lat="44.93542" lon="5.12035">
        <ele>396</ele>
        <time>2022-02-18T15:15:43+01:00</time>
      </trkpt>
      <trkpt lat="44.93554" lon="5.12038">
        <ele>396</ele>
        <time>2022-02-18T15:15:56+01:00</time>
      </trkpt>
      <trkpt lat="44.93558" lon="5.12039">
        <ele>396</ele>
        <time>2022-02-18T15:16:01+01:00</time>
      </trkpt>
      <trkpt lat="44.93561" lon="5.12043">
        <ele>397</ele>
        <time>2022-02-18T15:16:05+01:00</time>
      </trkpt>
      <trkpt lat="44.93564" lon="5.12047">
        <ele>397</ele>
        <time>2022-02-18T15:16:11+01:00</time>
      </trkpt>
      <trkpt lat="44.93568" lon="5.12049">
        <ele>397</ele>
        <time>2022-02-18T15:16:15+01:00</time>
      </trkpt>
      <trkpt lat="44.93572" lon="5.12052">
        <ele>398</ele>
        <time>2022-02-18T15:16:19+01:00</time>
      </trkpt>
      <trkpt lat="44.93575" lon="5.12054">
        <ele>398</ele>
        <time>2022-02-18T15:16:25+01:00</time>
      </trkpt>
      <trkpt lat="44.93578" lon="5.12058">
        <ele>398</ele>
        <time>2022-02-18T15:16:29+01:00</time>
      </trkpt>
      <trkpt lat="44.9358" lon="5.12061">
        <ele>399</ele>
        <time>2022-02-18T15:16:33+01:00</time>
      </trkpt>
      <trkpt lat="44.93584" lon="5.12062">
        <ele>399</ele>
        <time>2022-02-18T15:16:37+01:00</time>
      </trkpt>
      <trkpt lat="44.93587" lon="5.12065">
        <ele>399</ele>
        <time>2022-02-18T15:16:43+01:00</time>
      </trkpt>
      <trkpt lat="44.93596" lon="5.12067">
        <ele>399</ele>
        <time>2022-02-18T15:16:51+01:00</time>
      </trkpt>
      <trkpt lat="44.93612" lon="5.12076">
        <ele>398</ele>
        <time>2022-02-18T15:17:10+01:00</time>
      </trkpt>
      <trkpt lat="44.93615" lon="5.12079">
        <ele>398</ele>
        <time>2022-02-18T15:17:15+01:00</time>
      </trkpt>
      <trkpt lat="44.93619" lon="5.12081">
        <ele>398</ele>
        <time>2022-02-18T15:17:20+01:00</time>
      </trkpt>
      <trkpt lat="44.93622" lon="5.12082">
        <ele>398</ele>
        <time>2022-02-18T15:17:24+01:00</time>
      </trkpt>
      <trkpt lat="44.93625" lon="5.12081">
        <ele>398</ele>
        <time>2022-02-18T15:17:28+01:00</time>
      </trkpt>
      <trkpt lat="44.9363" lon="5.12086">
        <ele>398</ele>
        <time>2022-02-18T15:17:34+01:00</time>
      </trkpt>
      <trkpt lat="44.93633" lon="5.12089">
        <ele>398</ele>
        <time>2022-02-18T15:17:37+01:00</time>
      </trkpt>
      <trkpt lat="44.93637" lon="5.12102">
        <ele>399</ele>
        <time>2022-02-18T15:17:49+01:00</time>
      </trkpt>
      <trkpt lat="44.93653" lon="5.12118">
        <ele>399</ele>
        <time>2022-02-18T15:18:06+01:00</time>
      </trkpt>
      <trkpt lat="44.93655" lon="5.12123">
        <ele>399</ele>
        <time>2022-02-18T15:18:10+01:00</time>
      </trkpt>
      <trkpt lat="44.93658" lon="5.12125">
        <ele>399</ele>
        <time>2022-02-18T15:18:14+01:00</time>
      </trkpt>
      <trkpt lat="44.93662" lon="5.12128">
        <ele>399</ele>
        <time>2022-02-18T15:18:18+01:00</time>
      </trkpt>
      <trkpt lat="44.93666" lon="5.1213">
        <ele>398</ele>
        <time>2022-02-18T15:18:21+01:00</time>
      </trkpt>
      <trkpt lat="44.93691" lon="5.12147">
        <ele>398</ele>
        <time>2022-02-18T15:18:47+01:00</time>
      </trkpt>
      <trkpt lat="44.93695" lon="5.12148">
        <ele>398</ele>
        <time>2022-02-18T15:18:50+01:00</time>
      </trkpt>
      <trkpt lat="44.93702" lon="5.1215">
        <ele>397</ele>
        <time>2022-02-18T15:18:57+01:00</time>
      </trkpt>
      <trkpt lat="44.93705" lon="5.12152">
        <ele>397</ele>
        <time>2022-02-18T15:19:01+01:00</time>
      </trkpt>
      <trkpt lat="44.93707" lon="5.12154">
        <ele>397</ele>
        <time>2022-02-18T15:19:05+01:00</time>
      </trkpt>
      <trkpt lat="44.93713" lon="5.12158">
        <ele>397</ele>
        <time>2022-02-18T15:19:13+01:00</time>
      </trkpt>
      <trkpt lat="44.93731" lon="5.12163">
        <ele>396</ele>
        <time>2022-02-18T15:19:35+01:00</time>
      </trkpt>
      <trkpt lat="44.93734" lon="5.12166">
        <ele>396</ele>
        <time>2022-02-18T15:19:39+01:00</time>
      </trkpt>
      <trkpt lat="44.93743" lon="5.12174">
        <ele>396</ele>
        <time>2022-02-18T15:19:50+01:00</time>
      </trkpt>
      <trkpt lat="44.9375" lon="5.12177">
        <ele>395</ele>
        <time>2022-02-18T15:19:55+01:00</time>
      </trkpt>
      <trkpt lat="44.93772" lon="5.12194">
        <ele>395</ele>
        <time>2022-02-18T15:20:25+01:00</time>
      </trkpt>
      <trkpt lat="44.93775" lon="5.12197">
        <ele>395</ele>
        <time>2022-02-18T15:20:30+01:00</time>
      </trkpt>
      <trkpt lat="44.9378" lon="5.122">
        <ele>395</ele>
        <time>2022-02-18T15:20:34+01:00</time>
      </trkpt>
      <trkpt lat="44.93787" lon="5.12204">
        <ele>394</ele>
        <time>2022-02-18T15:20:42+01:00</time>
      </trkpt>
      <trkpt lat="44.9379" lon="5.12202">
        <ele>394</ele>
        <time>2022-02-18T15:20:46+01:00</time>
      </trkpt>
      <trkpt lat="44.93791" lon="5.12197">
        <ele>394</ele>
        <time>2022-02-18T15:20:50+01:00</time>
      </trkpt>
      <trkpt lat="44.93794" lon="5.12192">
        <ele>394</ele>
        <time>2022-02-18T15:20:54+01:00</time>
      </trkpt>
      <trkpt lat="44.93799" lon="5.12179">
        <ele>393</ele>
        <time>2022-02-18T15:21:04+01:00</time>
      </trkpt>
      <trkpt lat="44.93801" lon="5.12176">
        <ele>393</ele>
        <time>2022-02-18T15:21:08+01:00</time>
      </trkpt>
      <trkpt lat="44.93804" lon="5.12172">
        <ele>392</ele>
        <time>2022-02-18T15:21:12+01:00</time>
      </trkpt>
      <trkpt lat="44.93804" lon="5.12168">
        <ele>392</ele>
        <time>2022-02-18T15:21:15+01:00</time>
      </trkpt>
      <trkpt lat="44.93806" lon="5.1216">
        <ele>392</ele>
        <time>2022-02-18T15:21:22+01:00</time>
      </trkpt>
      <trkpt lat="44.93806" lon="5.12156">
        <ele>392</ele>
        <time>2022-02-18T15:21:26+01:00</time>
      </trkpt>
      <trkpt lat="44.93808" lon="5.12149">
        <ele>392</ele>
        <time>2022-02-18T15:21:43+01:00</time>
      </trkpt>
      <trkpt lat="44.93809" lon="5.12145">
        <ele>392</ele>
        <time>2022-02-18T15:21:47+01:00</time>
      </trkpt>
      <trkpt lat="44.93815" lon="5.12137">
        <ele>391</ele>
        <time>2022-02-18T15:21:57+01:00</time>
      </trkpt>
      <trkpt lat="44.93818" lon="5.12135">
        <ele>391</ele>
        <time>2022-02-18T15:22:01+01:00</time>
      </trkpt>
      <trkpt lat="44.93819" lon="5.12133">
        <ele>391</ele>
        <time>2022-02-18T15:22:06+01:00</time>
      </trkpt>
      <trkpt lat="44.93821" lon="5.12127">
        <ele>391</ele>
        <time>2022-02-18T15:22:15+01:00</time>
      </trkpt>
      <trkpt lat="44.93825" lon="5.12121">
        <ele>390</ele>
        <time>2022-02-18T15:22:21+01:00</time>
      </trkpt>
      <trkpt lat="44.93826" lon="5.12119">
        <ele>390</ele>
        <time>2022-02-18T15:22:25+01:00</time>
      </trkpt>
      <trkpt lat="44.93827" lon="5.12113">
        <ele>390</ele>
        <time>2022-02-18T15:22:29+01:00</time>
      </trkpt>
      <trkpt lat="44.93827" lon="5.12103">
        <ele>390</ele>
        <time>2022-02-18T15:22:36+01:00</time>
      </trkpt>
      <trkpt lat="44.93833" lon="5.12093">
        <ele>390</ele>
        <time>2022-02-18T15:22:47+01:00</time>
      </trkpt>
      <trkpt lat="44.93832" lon="5.12089">
        <ele>390</ele>
        <time>2022-02-18T15:22:53+01:00</time>
      </trkpt>
      <trkpt lat="44.93833" lon="5.12084">
        <ele>390</ele>
        <time>2022-02-18T15:22:57+01:00</time>
      </trkpt>
      <trkpt lat="44.93833" lon="5.12079">
        <ele>390</ele>
        <time>2022-02-18T15:23:00+01:00</time>
      </trkpt>
      <trkpt lat="44.93832" lon="5.12072">
        <ele>390</ele>
        <time>2022-02-18T15:23:04+01:00</time>
      </trkpt>
      <trkpt lat="44.93833" lon="5.12067">
        <ele>390</ele>
        <time>2022-02-18T15:23:10+01:00</time>
      </trkpt>
      <trkpt lat="44.93833" lon="5.1206">
        <ele>390</ele>
        <time>2022-02-18T15:23:15+01:00</time>
      </trkpt>
      <trkpt lat="44.93834" lon="5.12049">
        <ele>390</ele>
        <time>2022-02-18T15:23:23+01:00</time>
      </trkpt>
      <trkpt lat="44.93835" lon="5.12044">
        <ele>390</ele>
        <time>2022-02-18T15:23:26+01:00</time>
      </trkpt>
      <trkpt lat="44.93837" lon="5.12038">
        <ele>389</ele>
        <time>2022-02-18T15:23:30+01:00</time>
      </trkpt>
      <trkpt lat="44.93839" lon="5.12036">
        <ele>389</ele>
        <time>2022-02-18T15:23:34+01:00</time>
      </trkpt>
      <trkpt lat="44.93841" lon="5.12031">
        <ele>389</ele>
        <time>2022-02-18T15:23:38+01:00</time>
      </trkpt>
      <trkpt lat="44.93843" lon="5.12027">
        <ele>389</ele>
        <time>2022-02-18T15:23:42+01:00</time>
      </trkpt>
    </trkseg>
  </trk>
</gpx>